<?xml version="1.0" encoding="UTF-8" standalone="no" ?><gpx xmlns="http://www.topografix.com/GPX/1/1" xmlns:gpxx="http://www.garmin.com/xmlschemas/GpxExtensions/v3" xmlns:wptx1="http://www.garmin.com/xmlschemas/WaypointExtension/v1" xmlns:gpxtpx="http://www.garmin.com/xmlschemas/TrackPointExtension/v1" creator="GuideVTT.com" version="1.1" xmlns:xsi="http://www.w3.org/2001/XMLSchema-instance" xsi:schemaLocation="http://www.topografix.com/GPX/1/1 http://www.topografix.com/GPX/1/1/gpx.xsd http://www.garmin.com/xmlschemas/GpxExtensions/v3 http://www8.garmin.com/xmlschemas/GpxExtensionsv3.xsd http://www.garmin.com/xmlschemas/WaypointExtension/v1 http://www8.garmin.com/xmlschemas/WaypointExtensionv1.xsd http://www.garmin.com/xmlschemas/TrackPointExtension/v1 http://www.garmin.com/xmlschemas/TrackPointExtensionv1.xsd">
<metadata><link href="http://www.garmin.com"><text>Garmin International</text></link><time>2013-06-22T15:13:50Z</time></metadata>
<trk><name>maggia-fusio12.gpx</name><extensions><gpxx:TrackExtension><gpxx:DisplayColor>Cyan</gpxx:DisplayColor></gpxx:TrackExtension></extensions><trkseg>
<trkpt lat="46.24562836" lon="8.71063137"><ele></ele><time>2014-4-20T16:48:8Z</time></trkpt>
<trkpt lat="46.24562836" lon="8.71062183"><ele></ele><time>2014-4-20T16:48:11Z</time></trkpt>
<trkpt lat="46.24557877" lon="8.71054745"><ele></ele><time>2014-4-20T16:48:14Z</time></trkpt>
<trkpt lat="46.24559402" lon="8.71043777"><ele></ele><time>2014-4-20T16:48:17Z</time></trkpt>
<trkpt lat="46.24568558" lon="8.71022511"><ele></ele><time>2014-4-20T16:48:20Z</time></trkpt>
<trkpt lat="46.24574661" lon="8.70983696"><ele></ele><time>2014-4-20T16:48:23Z</time></trkpt>
<trkpt lat="46.24576569" lon="8.70960331"><ele></ele><time>2014-4-20T16:48:26Z</time></trkpt>
<trkpt lat="46.24578476" lon="8.70919037"><ele></ele><time>2014-4-20T16:48:29Z</time></trkpt>
<trkpt lat="46.24581528" lon="8.70883942"><ele></ele><time>2014-4-20T16:48:32Z</time></trkpt>
<trkpt lat="46.24580383" lon="8.70862961"><ele></ele><time>2014-4-20T16:48:35Z</time></trkpt>
<trkpt lat="46.24577713" lon="8.70831108"><ele></ele><time>2014-4-20T16:48:38Z</time></trkpt>
<trkpt lat="46.24575043" lon="8.70796585"><ele></ele><time>2014-4-20T16:48:41Z</time></trkpt>
<trkpt lat="46.24564743" lon="8.70762730"><ele></ele><time>2014-4-20T16:48:44Z</time></trkpt>
<trkpt lat="46.24562073" lon="8.70724201"><ele></ele><time>2014-4-20T16:48:47Z</time></trkpt>
<trkpt lat="46.24567795" lon="8.70684433"><ele></ele><time>2014-4-20T16:48:50Z</time></trkpt>
<trkpt lat="46.24595261" lon="8.70656490"><ele></ele><time>2014-4-20T16:48:53Z</time></trkpt>
<trkpt lat="46.24610519" lon="8.70631027"><ele></ele><time>2014-4-20T16:48:56Z</time></trkpt>
<trkpt lat="46.24625778" lon="8.70616531"><ele></ele><time>2014-4-20T16:48:59Z</time></trkpt>
<trkpt lat="46.24631882" lon="8.70615292"><ele></ele><time>2014-4-20T16:49:2Z</time></trkpt>
<trkpt lat="46.24650192" lon="8.70622635"><ele></ele><time>2014-4-20T16:49:5Z</time></trkpt>
<trkpt lat="46.24638748" lon="8.70621586"><ele></ele><time>2014-4-20T16:49:8Z</time></trkpt>
<trkpt lat="46.24646759" lon="8.70628929"><ele></ele><time>2014-4-20T16:49:11Z</time></trkpt>
<trkpt lat="46.24646378" lon="8.70646572"><ele></ele><time>2014-4-20T16:49:14Z</time></trkpt>
<trkpt lat="46.24641418" lon="8.70646858"><ele></ele><time>2014-4-20T16:49:17Z</time></trkpt>
<trkpt lat="46.24632263" lon="8.70634747"><ele></ele><time>2014-4-20T16:49:20Z</time></trkpt>
<trkpt lat="46.24646378" lon="8.70638561"><ele></ele><time>2014-4-20T16:49:23Z</time></trkpt>
<trkpt lat="46.24648666" lon="8.70637703"><ele></ele><time>2014-4-20T16:49:26Z</time></trkpt>
<trkpt lat="46.24661255" lon="8.70617104"><ele></ele><time>2014-4-20T16:49:29Z</time></trkpt>
<trkpt lat="46.24663925" lon="8.70612621"><ele></ele><time>2014-4-20T16:49:32Z</time></trkpt>
<trkpt lat="46.24693680" lon="8.70572567"><ele></ele><time>2014-4-20T16:49:35Z</time></trkpt>
<trkpt lat="46.24722290" lon="8.70539474"><ele></ele><time>2014-4-20T16:49:38Z</time></trkpt>
<trkpt lat="46.24750519" lon="8.70521832"><ele></ele><time>2014-4-20T16:49:41Z</time></trkpt>
<trkpt lat="46.24765778" lon="8.70511341"><ele></ele><time>2014-4-20T16:49:44Z</time></trkpt>
<trkpt lat="46.24777985" lon="8.70492268"><ele></ele><time>2014-4-20T16:49:47Z</time></trkpt>
<trkpt lat="46.24797058" lon="8.70449448"><ele></ele><time>2014-4-20T16:49:50Z</time></trkpt>
<trkpt lat="46.24819183" lon="8.70402241"><ele></ele><time>2014-4-20T16:49:53Z</time></trkpt>
<trkpt lat="46.24832153" lon="8.70369530"><ele></ele><time>2014-4-20T16:49:56Z</time></trkpt>
<trkpt lat="46.24833298" lon="8.70365429"><ele></ele><time>2014-4-20T16:49:59Z</time></trkpt>
<trkpt lat="46.24832153" lon="8.70357227"><ele></ele><time>2014-4-20T16:50:2Z</time></trkpt>
<trkpt lat="46.24818420" lon="8.70337391"><ele></ele><time>2014-4-20T16:50:5Z</time></trkpt>
<trkpt lat="46.24816132" lon="8.70333958"><ele></ele><time>2014-4-20T16:50:8Z</time></trkpt>
<trkpt lat="46.24793243" lon="8.70314693"><ele></ele><time>2014-4-20T16:50:11Z</time></trkpt>
<trkpt lat="46.24771118" lon="8.70292282"><ele></ele><time>2014-4-20T16:50:14Z</time></trkpt>
<trkpt lat="46.24766159" lon="8.70266819"><ele></ele><time>2014-4-20T16:50:17Z</time></trkpt>
<trkpt lat="46.24775696" lon="8.70245743"><ele></ele><time>2014-4-20T16:50:20Z</time></trkpt>
<trkpt lat="46.24790955" lon="8.70225334"><ele></ele><time>2014-4-20T16:50:23Z</time></trkpt>
<trkpt lat="46.24811935" lon="8.70208836"><ele></ele><time>2014-4-20T16:50:26Z</time></trkpt>
<trkpt lat="46.24838257" lon="8.70194626"><ele></ele><time>2014-4-20T16:50:29Z</time></trkpt>
<trkpt lat="46.24873352" lon="8.70175171"><ele></ele><time>2014-4-20T16:50:32Z</time></trkpt>
<trkpt lat="46.24909592" lon="8.70154190"><ele></ele><time>2014-4-20T16:50:35Z</time></trkpt>
<trkpt lat="46.24950790" lon="8.70129585"><ele></ele><time>2014-4-20T16:50:38Z</time></trkpt>
<trkpt lat="46.24990463" lon="8.70105934"><ele></ele><time>2014-4-20T16:50:41Z</time></trkpt>
<trkpt lat="46.25029755" lon="8.70082283"><ele></ele><time>2014-4-20T16:50:44Z</time></trkpt>
<trkpt lat="46.25077438" lon="8.70053196"><ele></ele><time>2014-4-20T16:50:47Z</time></trkpt>
<trkpt lat="46.25139618" lon="8.70015335"><ele></ele><time>2014-4-20T16:50:50Z</time></trkpt>
<trkpt lat="46.25190353" lon="8.69982529"><ele></ele><time>2014-4-20T16:50:53Z</time></trkpt>
<trkpt lat="46.25245667" lon="8.69949722"><ele></ele><time>2014-4-20T16:50:56Z</time></trkpt>
<trkpt lat="46.25264740" lon="8.69943047"><ele></ele><time>2014-4-20T16:50:59Z</time></trkpt>
<trkpt lat="46.25293732" lon="8.69916153"><ele></ele><time>2014-4-20T16:51:2Z</time></trkpt>
<trkpt lat="46.25308990" lon="8.69888210"><ele></ele><time>2014-4-20T16:51:5Z</time></trkpt>
<trkpt lat="46.25338364" lon="8.69837475"><ele></ele><time>2014-4-20T16:51:8Z</time></trkpt>
<trkpt lat="46.25349808" lon="8.69814873"><ele></ele><time>2014-4-20T16:51:11Z</time></trkpt>
<trkpt lat="46.25386810" lon="8.69758701"><ele></ele><time>2014-4-20T16:51:14Z</time></trkpt>
<trkpt lat="46.25426865" lon="8.69698715"><ele></ele><time>2014-4-20T16:51:17Z</time></trkpt>
<trkpt lat="46.25469971" lon="8.69633579"><ele></ele><time>2014-4-20T16:51:20Z</time></trkpt>
<trkpt lat="46.25507736" lon="8.69580555"><ele></ele><time>2014-4-20T16:51:23Z</time></trkpt>
<trkpt lat="46.25552750" lon="8.69530106"><ele></ele><time>2014-4-20T16:51:26Z</time></trkpt>
<trkpt lat="46.25600815" lon="8.69481468"><ele></ele><time>2014-4-20T16:51:29Z</time></trkpt>
<trkpt lat="46.25645065" lon="8.69434643"><ele></ele><time>2014-4-20T16:51:32Z</time></trkpt>
<trkpt lat="46.25692749" lon="8.69385242"><ele></ele><time>2014-4-20T16:51:35Z</time></trkpt>
<trkpt lat="46.25737000" lon="8.69338322"><ele></ele><time>2014-4-20T16:51:38Z</time></trkpt>
<trkpt lat="46.25770950" lon="8.69302940"><ele></ele><time>2014-4-20T16:51:41Z</time></trkpt>
<trkpt lat="46.25802994" lon="8.69275475"><ele></ele><time>2014-4-20T16:51:44Z</time></trkpt>
<trkpt lat="46.25846481" lon="8.69251728"><ele></ele><time>2014-4-20T16:51:47Z</time></trkpt>
<trkpt lat="46.25889206" lon="8.69227123"><ele></ele><time>2014-4-20T16:51:50Z</time></trkpt>
<trkpt lat="46.25920486" lon="8.69202709"><ele></ele><time>2014-4-20T16:51:53Z</time></trkpt>
<trkpt lat="46.25954437" lon="8.69173717"><ele></ele><time>2014-4-20T16:51:56Z</time></trkpt>
<trkpt lat="46.25999069" lon="8.69139194"><ele></ele><time>2014-4-20T16:51:59Z</time></trkpt>
<trkpt lat="46.26043701" lon="8.69104290"><ele></ele><time>2014-4-20T16:52:2Z</time></trkpt>
<trkpt lat="46.26082230" lon="8.69083309"><ele></ele><time>2014-4-20T16:52:5Z</time></trkpt>
<trkpt lat="46.26087570" lon="8.69080353"><ele></ele><time>2014-4-20T16:52:8Z</time></trkpt>
<trkpt lat="46.26114273" lon="8.69051361"><ele></ele><time>2014-4-20T16:52:11Z</time></trkpt>
<trkpt lat="46.26126099" lon="8.69033909"><ele></ele><time>2014-4-20T16:52:14Z</time></trkpt>
<trkpt lat="46.26171494" lon="8.68991661"><ele></ele><time>2014-4-20T16:52:17Z</time></trkpt>
<trkpt lat="46.26214218" lon="8.68957520"><ele></ele><time>2014-4-20T16:52:20Z</time></trkpt>
<trkpt lat="46.26240158" lon="8.68948269"><ele></ele><time>2014-4-20T16:52:23Z</time></trkpt>
<trkpt lat="46.26272202" lon="8.68940163"><ele></ele><time>2014-4-20T16:52:26Z</time></trkpt>
<trkpt lat="46.26303101" lon="8.68927574"><ele></ele><time>2014-4-20T16:52:29Z</time></trkpt>
<trkpt lat="46.26329041" lon="8.68918800"><ele></ele><time>2014-4-20T16:52:32Z</time></trkpt>
<trkpt lat="46.26367950" lon="8.68892097"><ele></ele><time>2014-4-20T16:52:35Z</time></trkpt>
<trkpt lat="46.26403427" lon="8.68862629"><ele></ele><time>2014-4-20T16:52:38Z</time></trkpt>
<trkpt lat="46.26452637" lon="8.68822384"><ele></ele><time>2014-4-20T16:52:41Z</time></trkpt>
<trkpt lat="46.26512909" lon="8.68767834"><ele></ele><time>2014-4-20T16:52:44Z</time></trkpt>
<trkpt lat="46.26555252" lon="8.68715572"><ele></ele><time>2014-4-20T16:52:47Z</time></trkpt>
<trkpt lat="46.26597977" lon="8.68682098"><ele></ele><time>2014-4-20T16:52:50Z</time></trkpt>
<trkpt lat="46.26605225" lon="8.68677616"><ele></ele><time>2014-4-20T16:52:53Z</time></trkpt>
<trkpt lat="46.26647949" lon="8.68667030"><ele></ele><time>2014-4-20T16:52:56Z</time></trkpt>
<trkpt lat="46.26685333" lon="8.68661976"><ele></ele><time>2014-4-20T16:52:59Z</time></trkpt>
<trkpt lat="46.26713181" lon="8.68655109"><ele></ele><time>2014-4-20T16:53:2Z</time></trkpt>
<trkpt lat="46.26746750" lon="8.68631077"><ele></ele><time>2014-4-20T16:53:5Z</time></trkpt>
<trkpt lat="46.26796722" lon="8.68593788"><ele></ele><time>2014-4-20T16:53:8Z</time></trkpt>
<trkpt lat="46.26831818" lon="8.68557739"><ele></ele><time>2014-4-20T16:53:11Z</time></trkpt>
<trkpt lat="46.26856613" lon="8.68519974"><ele></ele><time>2014-4-20T16:53:14Z</time></trkpt>
<trkpt lat="46.26876450" lon="8.68486118"><ele></ele><time>2014-4-20T16:53:17Z</time></trkpt>
<trkpt lat="46.26896286" lon="8.68448544"><ele></ele><time>2014-4-20T16:53:20Z</time></trkpt>
<trkpt lat="46.26913834" lon="8.68421745"><ele></ele><time>2014-4-20T16:53:23Z</time></trkpt>
<trkpt lat="46.26940155" lon="8.68400669"><ele></ele><time>2014-4-20T16:53:26Z</time></trkpt>
<trkpt lat="46.26973724" lon="8.68375397"><ele></ele><time>2014-4-20T16:53:29Z</time></trkpt>
<trkpt lat="46.27010345" lon="8.68349171"><ele></ele><time>2014-4-20T16:53:32Z</time></trkpt>
<trkpt lat="46.27024841" lon="8.68340969"><ele></ele><time>2014-4-20T16:53:35Z</time></trkpt>
<trkpt lat="46.27066040" lon="8.68324947"><ele></ele><time>2014-4-20T16:53:38Z</time></trkpt>
<trkpt lat="46.27123642" lon="8.68303490"><ele></ele><time>2014-4-20T16:53:41Z</time></trkpt>
<trkpt lat="46.27170181" lon="8.68284988"><ele></ele><time>2014-4-20T16:53:44Z</time></trkpt>
<trkpt lat="46.27222061" lon="8.68268585"><ele></ele><time>2014-4-20T16:53:47Z</time></trkpt>
<trkpt lat="46.27236938" lon="8.68270588"><ele></ele><time>2014-4-20T16:53:50Z</time></trkpt>
<trkpt lat="46.27246857" lon="8.68274879"><ele></ele><time>2014-4-20T16:53:53Z</time></trkpt>
<trkpt lat="46.27263260" lon="8.68284893"><ele></ele><time>2014-4-20T16:53:56Z</time></trkpt>
<trkpt lat="46.27285385" lon="8.68285275"><ele></ele><time>2014-4-20T16:53:59Z</time></trkpt>
<trkpt lat="46.27289581" lon="8.68280888"><ele></ele><time>2014-4-20T16:54:2Z</time></trkpt>
<trkpt lat="46.27317810" lon="8.68248463"><ele></ele><time>2014-4-20T16:54:5Z</time></trkpt>
<trkpt lat="46.27334976" lon="8.68228626"><ele></ele><time>2014-4-20T16:54:8Z</time></trkpt>
<trkpt lat="46.27350616" lon="8.68210506"><ele></ele><time>2014-4-20T16:54:11Z</time></trkpt>
<trkpt lat="46.27367020" lon="8.68192959"><ele></ele><time>2014-4-20T16:54:14Z</time></trkpt>
<trkpt lat="46.27388382" lon="8.68167019"><ele></ele><time>2014-4-20T16:54:17Z</time></trkpt>
<trkpt lat="46.27408981" lon="8.68145561"><ele></ele><time>2014-4-20T16:54:20Z</time></trkpt>
<trkpt lat="46.27431488" lon="8.68124962"><ele></ele><time>2014-4-20T16:54:23Z</time></trkpt>
<trkpt lat="46.27452850" lon="8.68109703"><ele></ele><time>2014-4-20T16:54:26Z</time></trkpt>
<trkpt lat="46.27468491" lon="8.68095779"><ele></ele><time>2014-4-20T16:54:29Z</time></trkpt>
<trkpt lat="46.27489471" lon="8.68073940"><ele></ele><time>2014-4-20T16:54:32Z</time></trkpt>
<trkpt lat="46.27507019" lon="8.68042088"><ele></ele><time>2014-4-20T16:54:35Z</time></trkpt>
<trkpt lat="46.27508163" lon="8.68014336"><ele></ele><time>2014-4-20T16:54:38Z</time></trkpt>
<trkpt lat="46.27502441" lon="8.67986202"><ele></ele><time>2014-4-20T16:54:41Z</time></trkpt>
<trkpt lat="46.27507782" lon="8.67952061"><ele></ele><time>2014-4-20T16:54:44Z</time></trkpt>
<trkpt lat="46.27517319" lon="8.67923164"><ele></ele><time>2014-4-20T16:54:47Z</time></trkpt>
<trkpt lat="46.27533722" lon="8.67891216"><ele></ele><time>2014-4-20T16:54:50Z</time></trkpt>
<trkpt lat="46.27548981" lon="8.67860603"><ele></ele><time>2014-4-20T16:54:53Z</time></trkpt>
<trkpt lat="46.27552032" lon="8.67823887"><ele></ele><time>2014-4-20T16:54:56Z</time></trkpt>
<trkpt lat="46.27558136" lon="8.67794323"><ele></ele><time>2014-4-20T16:54:59Z</time></trkpt>
<trkpt lat="46.27573776" lon="8.67770767"><ele></ele><time>2014-4-20T16:55:2Z</time></trkpt>
<trkpt lat="46.27589417" lon="8.67740154"><ele></ele><time>2014-4-20T16:55:5Z</time></trkpt>
<trkpt lat="46.27601624" lon="8.67702103"><ele></ele><time>2014-4-20T16:55:8Z</time></trkpt>
<trkpt lat="46.27609253" lon="8.67664623"><ele></ele><time>2014-4-20T16:55:11Z</time></trkpt>
<trkpt lat="46.27618790" lon="8.67627716"><ele></ele><time>2014-4-20T16:55:14Z</time></trkpt>
<trkpt lat="46.27632141" lon="8.67573357"><ele></ele><time>2014-4-20T16:55:17Z</time></trkpt>
<trkpt lat="46.27646255" lon="8.67531013"><ele></ele><time>2014-4-20T16:55:20Z</time></trkpt>
<trkpt lat="46.27665710" lon="8.67498207"><ele></ele><time>2014-4-20T16:55:23Z</time></trkpt>
<trkpt lat="46.27681351" lon="8.67469597"><ele></ele><time>2014-4-20T16:55:26Z</time></trkpt>
<trkpt lat="46.27700424" lon="8.67452335"><ele></ele><time>2014-4-20T16:55:29Z</time></trkpt>
<trkpt lat="46.27722168" lon="8.67445660"><ele></ele><time>2014-4-20T16:55:32Z</time></trkpt>
<trkpt lat="46.27728653" lon="8.67443371"><ele></ele><time>2014-4-20T16:55:35Z</time></trkpt>
<trkpt lat="46.27738953" lon="8.67438126"><ele></ele><time>2014-4-20T16:55:38Z</time></trkpt>
<trkpt lat="46.27759552" lon="8.67440033"><ele></ele><time>2014-4-20T16:55:41Z</time></trkpt>
<trkpt lat="46.27780533" lon="8.67439938"><ele></ele><time>2014-4-20T16:55:44Z</time></trkpt>
<trkpt lat="46.27814484" lon="8.67428780"><ele></ele><time>2014-4-20T16:55:47Z</time></trkpt>
<trkpt lat="46.27841568" lon="8.67417908"><ele></ele><time>2014-4-20T16:55:50Z</time></trkpt>
<trkpt lat="46.27874756" lon="8.67405128"><ele></ele><time>2014-4-20T16:55:53Z</time></trkpt>
<trkpt lat="46.27909851" lon="8.67393112"><ele></ele><time>2014-4-20T16:55:56Z</time></trkpt>
<trkpt lat="46.27940750" lon="8.67382336"><ele></ele><time>2014-4-20T16:55:59Z</time></trkpt>
<trkpt lat="46.27965164" lon="8.67355061"><ele></ele><time>2014-4-20T16:56:2Z</time></trkpt>
<trkpt lat="46.27996826" lon="8.67308426"><ele></ele><time>2014-4-20T16:56:5Z</time></trkpt>
<trkpt lat="46.28002548" lon="8.67301083"><ele></ele><time>2014-4-20T16:56:8Z</time></trkpt>
<trkpt lat="46.28018188" lon="8.67263222"><ele></ele><time>2014-4-20T16:56:11Z</time></trkpt>
<trkpt lat="46.28027344" lon="8.67233086"><ele></ele><time>2014-4-20T16:56:14Z</time></trkpt>
<trkpt lat="46.28055573" lon="8.67189312"><ele></ele><time>2014-4-20T16:56:17Z</time></trkpt>
<trkpt lat="46.28087616" lon="8.67169476"><ele></ele><time>2014-4-20T16:56:20Z</time></trkpt>
<trkpt lat="46.28095627" lon="8.67170238"><ele></ele><time>2014-4-20T16:56:23Z</time></trkpt>
<trkpt lat="46.28112793" lon="8.67170334"><ele></ele><time>2014-4-20T16:56:26Z</time></trkpt>
<trkpt lat="46.28144836" lon="8.67149067"><ele></ele><time>2014-4-20T16:56:29Z</time></trkpt>
<trkpt lat="46.28213501" lon="8.67090321"><ele></ele><time>2014-4-20T16:56:32Z</time></trkpt>
<trkpt lat="46.28281784" lon="8.67038059"><ele></ele><time>2014-4-20T16:56:35Z</time></trkpt>
<trkpt lat="46.28347778" lon="8.66985416"><ele></ele><time>2014-4-20T16:56:38Z</time></trkpt>
<trkpt lat="46.28394318" lon="8.66952705"><ele></ele><time>2014-4-20T16:56:41Z</time></trkpt>
<trkpt lat="46.28417206" lon="8.66926193"><ele></ele><time>2014-4-20T16:56:44Z</time></trkpt>
<trkpt lat="46.28425980" lon="8.66913033"><ele></ele><time>2014-4-20T16:56:47Z</time></trkpt>
<trkpt lat="46.28451157" lon="8.66882324"><ele></ele><time>2014-4-20T16:56:50Z</time></trkpt>
<trkpt lat="46.28479767" lon="8.66848660"><ele></ele><time>2014-4-20T16:56:53Z</time></trkpt>
<trkpt lat="46.28486633" lon="8.66841984"><ele></ele><time>2014-4-20T16:56:56Z</time></trkpt>
<trkpt lat="46.28512192" lon="8.66818428"><ele></ele><time>2014-4-20T16:56:59Z</time></trkpt>
<trkpt lat="46.28540421" lon="8.66789246"><ele></ele><time>2014-4-20T16:57:2Z</time></trkpt>
<trkpt lat="46.28564453" lon="8.66755390"><ele></ele><time>2014-4-20T16:57:5Z</time></trkpt>
<trkpt lat="46.28586197" lon="8.66719627"><ele></ele><time>2014-4-20T16:57:8Z</time></trkpt>
<trkpt lat="46.28602600" lon="8.66695690"><ele></ele><time>2014-4-20T16:57:11Z</time></trkpt>
<trkpt lat="46.28624725" lon="8.66664314"><ele></ele><time>2014-4-20T16:57:14Z</time></trkpt>
<trkpt lat="46.28636932" lon="8.66645527"><ele></ele><time>2014-4-20T16:57:17Z</time></trkpt>
<trkpt lat="46.28647614" lon="8.66617584"><ele></ele><time>2014-4-20T16:57:20Z</time></trkpt>
<trkpt lat="46.28661346" lon="8.66544628"><ele></ele><time>2014-4-20T16:57:23Z</time></trkpt>
<trkpt lat="46.28673172" lon="8.66499043"><ele></ele><time>2014-4-20T16:57:26Z</time></trkpt>
<trkpt lat="46.28677368" lon="8.66481018"><ele></ele><time>2014-4-20T16:57:29Z</time></trkpt>
<trkpt lat="46.28678513" lon="8.66469383"><ele></ele><time>2014-4-20T16:57:32Z</time></trkpt>
<trkpt lat="46.28684998" lon="8.66439438"><ele></ele><time>2014-4-20T16:57:35Z</time></trkpt>
<trkpt lat="46.28698349" lon="8.66394234"><ele></ele><time>2014-4-20T16:57:38Z</time></trkpt>
<trkpt lat="46.28709412" lon="8.66346931"><ele></ele><time>2014-4-20T16:57:41Z</time></trkpt>
<trkpt lat="46.28724289" lon="8.66282558"><ele></ele><time>2014-4-20T16:57:44Z</time></trkpt>
<trkpt lat="46.28728867" lon="8.66260719"><ele></ele><time>2014-4-20T16:57:47Z</time></trkpt>
<trkpt lat="46.28741837" lon="8.66222477"><ele></ele><time>2014-4-20T16:57:50Z</time></trkpt>
<trkpt lat="46.28762436" lon="8.66168308"><ele></ele><time>2014-4-20T16:57:53Z</time></trkpt>
<trkpt lat="46.28764725" lon="8.66155815"><ele></ele><time>2014-4-20T16:57:56Z</time></trkpt>
<trkpt lat="46.28776932" lon="8.66131020"><ele></ele><time>2014-4-20T16:57:59Z</time></trkpt>
<trkpt lat="46.28784943" lon="8.66118813"><ele></ele><time>2014-4-20T16:58:2Z</time></trkpt>
<trkpt lat="46.28801727" lon="8.66095161"><ele></ele><time>2014-4-20T16:58:5Z</time></trkpt>
<trkpt lat="46.28810120" lon="8.66060829"><ele></ele><time>2014-4-20T16:58:8Z</time></trkpt>
<trkpt lat="46.28815079" lon="8.66009998"><ele></ele><time>2014-4-20T16:58:11Z</time></trkpt>
<trkpt lat="46.28829956" lon="8.65937519"><ele></ele><time>2014-4-20T16:58:14Z</time></trkpt>
<trkpt lat="46.28851700" lon="8.65832615"><ele></ele><time>2014-4-20T16:58:17Z</time></trkpt>
<trkpt lat="46.28862000" lon="8.65791416"><ele></ele><time>2014-4-20T16:58:20Z</time></trkpt>
<trkpt lat="46.28874969" lon="8.65716839"><ele></ele><time>2014-4-20T16:58:23Z</time></trkpt>
<trkpt lat="46.28884125" lon="8.65651703"><ele></ele><time>2014-4-20T16:58:26Z</time></trkpt>
<trkpt lat="46.28890610" lon="8.65582848"><ele></ele><time>2014-4-20T16:58:29Z</time></trkpt>
<trkpt lat="46.28907013" lon="8.65463161"><ele></ele><time>2014-4-20T16:58:32Z</time></trkpt>
<trkpt lat="46.28921127" lon="8.65387344"><ele></ele><time>2014-4-20T16:58:35Z</time></trkpt>
<trkpt lat="46.28938675" lon="8.65320015"><ele></ele><time>2014-4-20T16:58:38Z</time></trkpt>
<trkpt lat="46.28965378" lon="8.65262985"><ele></ele><time>2014-4-20T16:58:41Z</time></trkpt>
<trkpt lat="46.28998184" lon="8.65209961"><ele></ele><time>2014-4-20T16:58:44Z</time></trkpt>
<trkpt lat="46.29031372" lon="8.65148830"><ele></ele><time>2014-4-20T16:58:47Z</time></trkpt>
<trkpt lat="46.29068756" lon="8.65093899"><ele></ele><time>2014-4-20T16:58:50Z</time></trkpt>
<trkpt lat="46.29102325" lon="8.65044880"><ele></ele><time>2014-4-20T16:58:53Z</time></trkpt>
<trkpt lat="46.29129791" lon="8.64996338"><ele></ele><time>2014-4-20T16:58:56Z</time></trkpt>
<trkpt lat="46.29153442" lon="8.64953423"><ele></ele><time>2014-4-20T16:58:59Z</time></trkpt>
<trkpt lat="46.29175186" lon="8.64906693"><ele></ele><time>2014-4-20T16:59:2Z</time></trkpt>
<trkpt lat="46.29190826" lon="8.64856052"><ele></ele><time>2014-4-20T16:59:5Z</time></trkpt>
<trkpt lat="46.29193115" lon="8.64794636"><ele></ele><time>2014-4-20T16:59:8Z</time></trkpt>
<trkpt lat="46.29192352" lon="8.64785004"><ele></ele><time>2014-4-20T16:59:11Z</time></trkpt>
<trkpt lat="46.29178619" lon="8.64722824"><ele></ele><time>2014-4-20T16:59:14Z</time></trkpt>
<trkpt lat="46.29184341" lon="8.64663219"><ele></ele><time>2014-4-20T16:59:17Z</time></trkpt>
<trkpt lat="46.29184341" lon="8.64605331"><ele></ele><time>2014-4-20T16:59:20Z</time></trkpt>
<trkpt lat="46.29209900" lon="8.64564037"><ele></ele><time>2014-4-20T16:59:23Z</time></trkpt>
<trkpt lat="46.29222870" lon="8.64542389"><ele></ele><time>2014-4-20T16:59:26Z</time></trkpt>
<trkpt lat="46.29243469" lon="8.64500713"><ele></ele><time>2014-4-20T16:59:29Z</time></trkpt>
<trkpt lat="46.29271317" lon="8.64473057"><ele></ele><time>2014-4-20T16:59:32Z</time></trkpt>
<trkpt lat="46.29306030" lon="8.64441204"><ele></ele><time>2014-4-20T16:59:35Z</time></trkpt>
<trkpt lat="46.29311371" lon="8.64435101"><ele></ele><time>2014-4-20T16:59:38Z</time></trkpt>
<trkpt lat="46.29332352" lon="8.64416981"><ele></ele><time>2014-4-20T16:59:41Z</time></trkpt>
<trkpt lat="46.29354477" lon="8.64378166"><ele></ele><time>2014-4-20T16:59:44Z</time></trkpt>
<trkpt lat="46.29370117" lon="8.64337444"><ele></ele><time>2014-4-20T16:59:47Z</time></trkpt>
<trkpt lat="46.29372025" lon="8.64332485"><ele></ele><time>2014-4-20T16:59:50Z</time></trkpt>
<trkpt lat="46.29367828" lon="8.64284801"><ele></ele><time>2014-4-20T16:59:53Z</time></trkpt>
<trkpt lat="46.29362488" lon="8.64257526"><ele></ele><time>2014-4-20T16:59:56Z</time></trkpt>
<trkpt lat="46.29363632" lon="8.64252377"><ele></ele><time>2014-4-20T16:59:59Z</time></trkpt>
<trkpt lat="46.29374695" lon="8.64216995"><ele></ele><time>2014-4-20T17:0:2Z</time></trkpt>
<trkpt lat="46.29373932" lon="8.64210033"><ele></ele><time>2014-4-20T17:0:5Z</time></trkpt>
<trkpt lat="46.29364777" lon="8.64173031"><ele></ele><time>2014-4-20T17:0:8Z</time></trkpt>
<trkpt lat="46.29353333" lon="8.64129639"><ele></ele><time>2014-4-20T17:0:11Z</time></trkpt>
<trkpt lat="46.29360199" lon="8.64109135"><ele></ele><time>2014-4-20T17:0:14Z</time></trkpt>
<trkpt lat="46.29374313" lon="8.64093685"><ele></ele><time>2014-4-20T17:0:17Z</time></trkpt>
<trkpt lat="46.29364777" lon="8.64065647"><ele></ele><time>2014-4-20T17:0:20Z</time></trkpt>
<trkpt lat="46.29351807" lon="8.64023018"><ele></ele><time>2014-4-20T17:0:23Z</time></trkpt>
<trkpt lat="46.29346466" lon="8.63984394"><ele></ele><time>2014-4-20T17:0:26Z</time></trkpt>
<trkpt lat="46.29350662" lon="8.63938904"><ele></ele><time>2014-4-20T17:0:29Z</time></trkpt>
<trkpt lat="46.29362869" lon="8.63894939"><ele></ele><time>2014-4-20T17:0:32Z</time></trkpt>
<trkpt lat="46.29387665" lon="8.63833141"><ele></ele><time>2014-4-20T17:0:35Z</time></trkpt>
<trkpt lat="46.29413986" lon="8.63765335"><ele></ele><time>2014-4-20T17:0:38Z</time></trkpt>
<trkpt lat="46.29433823" lon="8.63704872"><ele></ele><time>2014-4-20T17:0:41Z</time></trkpt>
<trkpt lat="46.29451370" lon="8.63649559"><ele></ele><time>2014-4-20T17:0:44Z</time></trkpt>
<trkpt lat="46.29478073" lon="8.63579559"><ele></ele><time>2014-4-20T17:0:47Z</time></trkpt>
<trkpt lat="46.29505920" lon="8.63503361"><ele></ele><time>2014-4-20T17:0:50Z</time></trkpt>
<trkpt lat="46.29531479" lon="8.63429356"><ele></ele><time>2014-4-20T17:0:53Z</time></trkpt>
<trkpt lat="46.29557037" lon="8.63353443"><ele></ele><time>2014-4-20T17:0:56Z</time></trkpt>
<trkpt lat="46.29576492" lon="8.63298416"><ele></ele><time>2014-4-20T17:0:59Z</time></trkpt>
<trkpt lat="46.29597855" lon="8.63235378"><ele></ele><time>2014-4-20T17:1:2Z</time></trkpt>
<trkpt lat="46.29618835" lon="8.63179493"><ele></ele><time>2014-4-20T17:1:5Z</time></trkpt>
<trkpt lat="46.29646683" lon="8.63101864"><ele></ele><time>2014-4-20T17:1:8Z</time></trkpt>
<trkpt lat="46.29667282" lon="8.63045502"><ele></ele><time>2014-4-20T17:1:11Z</time></trkpt>
<trkpt lat="46.29685211" lon="8.62990284"><ele></ele><time>2014-4-20T17:1:14Z</time></trkpt>
<trkpt lat="46.29706573" lon="8.62928867"><ele></ele><time>2014-4-20T17:1:17Z</time></trkpt>
<trkpt lat="46.29727554" lon="8.62868404"><ele></ele><time>2014-4-20T17:1:20Z</time></trkpt>
<trkpt lat="46.29752731" lon="8.62797260"><ele></ele><time>2014-4-20T17:1:23Z</time></trkpt>
<trkpt lat="46.29775620" lon="8.62732887"><ele></ele><time>2014-4-20T17:1:26Z</time></trkpt>
<trkpt lat="46.29802704" lon="8.62670898"><ele></ele><time>2014-4-20T17:1:29Z</time></trkpt>
<trkpt lat="46.29838181" lon="8.62599659"><ele></ele><time>2014-4-20T17:1:32Z</time></trkpt>
<trkpt lat="46.29870605" lon="8.62535763"><ele></ele><time>2014-4-20T17:1:35Z</time></trkpt>
<trkpt lat="46.29897308" lon="8.62486458"><ele></ele><time>2014-4-20T17:1:38Z</time></trkpt>
<trkpt lat="46.29930496" lon="8.62434006"><ele></ele><time>2014-4-20T17:1:41Z</time></trkpt>
<trkpt lat="46.29964447" lon="8.62382126"><ele></ele><time>2014-4-20T17:1:44Z</time></trkpt>
<trkpt lat="46.29995728" lon="8.62327290"><ele></ele><time>2014-4-20T17:1:47Z</time></trkpt>
<trkpt lat="46.30026245" lon="8.62265587"><ele></ele><time>2014-4-20T17:1:50Z</time></trkpt>
<trkpt lat="46.30052185" lon="8.62211323"><ele></ele><time>2014-4-20T17:1:53Z</time></trkpt>
<trkpt lat="46.30088043" lon="8.62154293"><ele></ele><time>2014-4-20T17:1:56Z</time></trkpt>
<trkpt lat="46.30122375" lon="8.62106895"><ele></ele><time>2014-4-20T17:1:59Z</time></trkpt>
<trkpt lat="46.30140686" lon="8.62080765"><ele></ele><time>2014-4-20T17:2:2Z</time></trkpt>
<trkpt lat="46.30174637" lon="8.62033653"><ele></ele><time>2014-4-20T17:2:5Z</time></trkpt>
<trkpt lat="46.30207443" lon="8.61988068"><ele></ele><time>2014-4-20T17:2:8Z</time></trkpt>
<trkpt lat="46.30243683" lon="8.61935520"><ele></ele><time>2014-4-20T17:2:11Z</time></trkpt>
<trkpt lat="46.30276489" lon="8.61891937"><ele></ele><time>2014-4-20T17:2:14Z</time></trkpt>
<trkpt lat="46.30308151" lon="8.61867714"><ele></ele><time>2014-4-20T17:2:17Z</time></trkpt>
<trkpt lat="46.30335999" lon="8.61853027"><ele></ele><time>2014-4-20T17:2:20Z</time></trkpt>
<trkpt lat="46.30369568" lon="8.61833477"><ele></ele><time>2014-4-20T17:2:23Z</time></trkpt>
<trkpt lat="46.30390549" lon="8.61808681"><ele></ele><time>2014-4-20T17:2:26Z</time></trkpt>
<trkpt lat="46.30414581" lon="8.61775589"><ele></ele><time>2014-4-20T17:2:29Z</time></trkpt>
<trkpt lat="46.30429077" lon="8.61761570"><ele></ele><time>2014-4-20T17:2:32Z</time></trkpt>
<trkpt lat="46.30430984" lon="8.61760521"><ele></ele><time>2014-4-20T17:2:35Z</time></trkpt>
<trkpt lat="46.30440521" lon="8.61743641"><ele></ele><time>2014-4-20T17:2:38Z</time></trkpt>
<trkpt lat="46.30457687" lon="8.61724186"><ele></ele><time>2014-4-20T17:2:41Z</time></trkpt>
<trkpt lat="46.30474091" lon="8.61708546"><ele></ele><time>2014-4-20T17:2:44Z</time></trkpt>
<trkpt lat="46.30488968" lon="8.61696529"><ele></ele><time>2014-4-20T17:2:47Z</time></trkpt>
<trkpt lat="46.30490494" lon="8.61695862"><ele></ele><time>2014-4-20T17:2:50Z</time></trkpt>
<trkpt lat="46.30497360" lon="8.61679363"><ele></ele><time>2014-4-20T17:2:53Z</time></trkpt>
<trkpt lat="46.30512238" lon="8.61654854"><ele></ele><time>2014-4-20T17:2:56Z</time></trkpt>
<trkpt lat="46.30531311" lon="8.61620998"><ele></ele><time>2014-4-20T17:2:59Z</time></trkpt>
<trkpt lat="46.30546570" lon="8.61602688"><ele></ele><time>2014-4-20T17:3:2Z</time></trkpt>
<trkpt lat="46.30574799" lon="8.61559963"><ele></ele><time>2014-4-20T17:3:5Z</time></trkpt>
<trkpt lat="46.30603790" lon="8.61516190"><ele></ele><time>2014-4-20T17:3:8Z</time></trkpt>
<trkpt lat="46.30620956" lon="8.61470222"><ele></ele><time>2014-4-20T17:3:11Z</time></trkpt>
<trkpt lat="46.30626678" lon="8.61447906"><ele></ele><time>2014-4-20T17:3:14Z</time></trkpt>
<trkpt lat="46.30640793" lon="8.61391354"><ele></ele><time>2014-4-20T17:3:17Z</time></trkpt>
<trkpt lat="46.30651855" lon="8.61350632"><ele></ele><time>2014-4-20T17:3:20Z</time></trkpt>
<trkpt lat="46.30660248" lon="8.61320591"><ele></ele><time>2014-4-20T17:3:23Z</time></trkpt>
<trkpt lat="46.30662918" lon="8.61309719"><ele></ele><time>2014-4-20T17:3:26Z</time></trkpt>
<trkpt lat="46.30667114" lon="8.61297035"><ele></ele><time>2014-4-20T17:3:29Z</time></trkpt>
<trkpt lat="46.30685043" lon="8.61251545"><ele></ele><time>2014-4-20T17:3:32Z</time></trkpt>
<trkpt lat="46.30711365" lon="8.61203480"><ele></ele><time>2014-4-20T17:3:35Z</time></trkpt>
<trkpt lat="46.30738449" lon="8.61165905"><ele></ele><time>2014-4-20T17:3:38Z</time></trkpt>
<trkpt lat="46.30763626" lon="8.61140919"><ele></ele><time>2014-4-20T17:3:41Z</time></trkpt>
<trkpt lat="46.30801392" lon="8.61106777"><ele></ele><time>2014-4-20T17:3:44Z</time></trkpt>
<trkpt lat="46.30833054" lon="8.61075878"><ele></ele><time>2014-4-20T17:3:47Z</time></trkpt>
<trkpt lat="46.30844116" lon="8.61059189"><ele></ele><time>2014-4-20T17:3:50Z</time></trkpt>
<trkpt lat="46.30858994" lon="8.61048794"><ele></ele><time>2014-4-20T17:3:53Z</time></trkpt>
<trkpt lat="46.30889130" lon="8.61054039"><ele></ele><time>2014-4-20T17:3:56Z</time></trkpt>
<trkpt lat="46.30892944" lon="8.61055088"><ele></ele><time>2014-4-20T17:3:59Z</time></trkpt>
<trkpt lat="46.30908203" lon="8.61050320"><ele></ele><time>2014-4-20T17:4:2Z</time></trkpt>
<trkpt lat="46.30911255" lon="8.61032391"><ele></ele><time>2014-4-20T17:4:5Z</time></trkpt>
<trkpt lat="46.30910873" lon="8.60960579"><ele></ele><time>2014-4-20T17:4:8Z</time></trkpt>
<trkpt lat="46.30910492" lon="8.60945225"><ele></ele><time>2014-4-20T17:4:11Z</time></trkpt>
<trkpt lat="46.30920410" lon="8.60905838"><ele></ele><time>2014-4-20T17:4:14Z</time></trkpt>
<trkpt lat="46.30924606" lon="8.60898685"><ele></ele><time>2014-4-20T17:4:17Z</time></trkpt>
<trkpt lat="46.30953979" lon="8.60846138"><ele></ele><time>2014-4-20T17:4:20Z</time></trkpt>
<trkpt lat="46.30978775" lon="8.60812187"><ele></ele><time>2014-4-20T17:4:23Z</time></trkpt>
<trkpt lat="46.31013489" lon="8.60785294"><ele></ele><time>2014-4-20T17:4:26Z</time></trkpt>
<trkpt lat="46.31050491" lon="8.60749245"><ele></ele><time>2014-4-20T17:4:29Z</time></trkpt>
<trkpt lat="46.31079102" lon="8.60707283"><ele></ele><time>2014-4-20T17:4:32Z</time></trkpt>
<trkpt lat="46.31116867" lon="8.60680580"><ele></ele><time>2014-4-20T17:4:35Z</time></trkpt>
<trkpt lat="46.31168365" lon="8.60646915"><ele></ele><time>2014-4-20T17:4:38Z</time></trkpt>
<trkpt lat="46.31334686" lon="8.60506821"><ele></ele><time>2014-4-20T17:4:41Z</time></trkpt>
<trkpt lat="46.31379700" lon="8.60468960"><ele></ele><time>2014-4-20T17:4:44Z</time></trkpt>
<trkpt lat="46.31431198" lon="8.60425186"><ele></ele><time>2014-4-20T17:4:47Z</time></trkpt>
<trkpt lat="46.31487274" lon="8.60377979"><ele></ele><time>2014-4-20T17:4:50Z</time></trkpt>
<trkpt lat="46.31550980" lon="8.60328102"><ele></ele><time>2014-4-20T17:4:53Z</time></trkpt>
<trkpt lat="46.31611633" lon="8.60293961"><ele></ele><time>2014-4-20T17:4:56Z</time></trkpt>
<trkpt lat="46.31664658" lon="8.60272884"><ele></ele><time>2014-4-20T17:4:59Z</time></trkpt>
<trkpt lat="46.31708145" lon="8.60258007"><ele></ele><time>2014-4-20T17:5:2Z</time></trkpt>
<trkpt lat="46.31766891" lon="8.60238361"><ele></ele><time>2014-4-20T17:5:5Z</time></trkpt>
<trkpt lat="46.31819916" lon="8.60227299"><ele></ele><time>2014-4-20T17:5:8Z</time></trkpt>
<trkpt lat="46.31874084" lon="8.60229111"><ele></ele><time>2014-4-20T17:5:11Z</time></trkpt>
<trkpt lat="46.31947327" lon="8.60236835"><ele></ele><time>2014-4-20T17:5:14Z</time></trkpt>
<trkpt lat="46.32012558" lon="8.60243130"><ele></ele><time>2014-4-20T17:5:17Z</time></trkpt>
<trkpt lat="46.32079697" lon="8.60247326"><ele></ele><time>2014-4-20T17:5:20Z</time></trkpt>
<trkpt lat="46.32135773" lon="8.60254002"><ele></ele><time>2014-4-20T17:5:23Z</time></trkpt>
<trkpt lat="46.32192612" lon="8.60268784"><ele></ele><time>2014-4-20T17:5:26Z</time></trkpt>
<trkpt lat="46.32259369" lon="8.60289764"><ele></ele><time>2014-4-20T17:5:29Z</time></trkpt>
<trkpt lat="46.32288742" lon="8.60311508"><ele></ele><time>2014-4-20T17:5:32Z</time></trkpt>
<trkpt lat="46.32346344" lon="8.60357857"><ele></ele><time>2014-4-20T17:5:35Z</time></trkpt>
<trkpt lat="46.32401276" lon="8.60403919"><ele></ele><time>2014-4-20T17:5:38Z</time></trkpt>
<trkpt lat="46.32453918" lon="8.60446262"><ele></ele><time>2014-4-20T17:5:41Z</time></trkpt>
<trkpt lat="46.32513046" lon="8.60496140"><ele></ele><time>2014-4-20T17:5:44Z</time></trkpt>
<trkpt lat="46.32554245" lon="8.60531902"><ele></ele><time>2014-4-20T17:5:47Z</time></trkpt>
<trkpt lat="46.32584000" lon="8.60555267"><ele></ele><time>2014-4-20T17:5:50Z</time></trkpt>
<trkpt lat="46.32606506" lon="8.60561562"><ele></ele><time>2014-4-20T17:5:53Z</time></trkpt>
<trkpt lat="46.32611847" lon="8.60562515"><ele></ele><time>2014-4-20T17:5:56Z</time></trkpt>
<trkpt lat="46.32646942" lon="8.60567284"><ele></ele><time>2014-4-20T17:5:59Z</time></trkpt>
<trkpt lat="46.32689285" lon="8.60571957"><ele></ele><time>2014-4-20T17:6:2Z</time></trkpt>
<trkpt lat="46.32711029" lon="8.60577774"><ele></ele><time>2014-4-20T17:6:5Z</time></trkpt>
<trkpt lat="46.32765961" lon="8.60608578"><ele></ele><time>2014-4-20T17:6:8Z</time></trkpt>
<trkpt lat="46.32820892" lon="8.60640717"><ele></ele><time>2014-4-20T17:6:11Z</time></trkpt>
<trkpt lat="46.32855606" lon="8.60656166"><ele></ele><time>2014-4-20T17:6:14Z</time></trkpt>
<trkpt lat="46.32894516" lon="8.60664845"><ele></ele><time>2014-4-20T17:6:17Z</time></trkpt>
<trkpt lat="46.32941818" lon="8.60673523"><ele></ele><time>2014-4-20T17:6:20Z</time></trkpt>
<trkpt lat="46.33001328" lon="8.60678101"><ele></ele><time>2014-4-20T17:6:23Z</time></trkpt>
<trkpt lat="46.33069229" lon="8.60672855"><ele></ele><time>2014-4-20T17:6:26Z</time></trkpt>
<trkpt lat="46.33131027" lon="8.60666847"><ele></ele><time>2014-4-20T17:6:29Z</time></trkpt>
<trkpt lat="46.33204651" lon="8.60657978"><ele></ele><time>2014-4-20T17:6:32Z</time></trkpt>
<trkpt lat="46.33267975" lon="8.60651112"><ele></ele><time>2014-4-20T17:6:35Z</time></trkpt>
<trkpt lat="46.33312225" lon="8.60644245"><ele></ele><time>2014-4-20T17:6:38Z</time></trkpt>
<trkpt lat="46.33366776" lon="8.60641098"><ele></ele><time>2014-4-20T17:6:41Z</time></trkpt>
<trkpt lat="46.33407211" lon="8.60640430"><ele></ele><time>2014-4-20T17:6:44Z</time></trkpt>
<trkpt lat="46.33460236" lon="8.60641670"><ele></ele><time>2014-4-20T17:6:47Z</time></trkpt>
<trkpt lat="46.33492661" lon="8.60642242"><ele></ele><time>2014-4-20T17:6:50Z</time></trkpt>
<trkpt lat="46.33532715" lon="8.60642910"><ele></ele><time>2014-4-20T17:6:53Z</time></trkpt>
<trkpt lat="46.33569336" lon="8.60647488"><ele></ele><time>2014-4-20T17:6:56Z</time></trkpt>
<trkpt lat="46.33613205" lon="8.60651302"><ele></ele><time>2014-4-20T17:6:59Z</time></trkpt>
<trkpt lat="46.33659363" lon="8.60659599"><ele></ele><time>2014-4-20T17:7:2Z</time></trkpt>
<trkpt lat="46.33708191" lon="8.60670757"><ele></ele><time>2014-4-20T17:7:5Z</time></trkpt>
<trkpt lat="46.33752823" lon="8.60678196"><ele></ele><time>2014-4-20T17:7:8Z</time></trkpt>
<trkpt lat="46.33789825" lon="8.60694027"><ele></ele><time>2014-4-20T17:7:11Z</time></trkpt>
<trkpt lat="46.33844757" lon="8.60722828"><ele></ele><time>2014-4-20T17:7:14Z</time></trkpt>
<trkpt lat="46.33888245" lon="8.60743237"><ele></ele><time>2014-4-20T17:7:17Z</time></trkpt>
<trkpt lat="46.33932114" lon="8.60758877"><ele></ele><time>2014-4-20T17:7:20Z</time></trkpt>
<trkpt lat="46.33972168" lon="8.60765553"><ele></ele><time>2014-4-20T17:7:23Z</time></trkpt>
<trkpt lat="46.34011078" lon="8.60764694"><ele></ele><time>2014-4-20T17:7:26Z</time></trkpt>
<trkpt lat="46.34037781" lon="8.60768604"><ele></ele><time>2014-4-20T17:7:29Z</time></trkpt>
<trkpt lat="46.34046936" lon="8.60783195"><ele></ele><time>2014-4-20T17:7:32Z</time></trkpt>
<trkpt lat="46.34058380" lon="8.60822392"><ele></ele><time>2014-4-20T17:7:35Z</time></trkpt>
<trkpt lat="46.34067535" lon="8.60851383"><ele></ele><time>2014-4-20T17:7:38Z</time></trkpt>
<trkpt lat="46.34080887" lon="8.60886478"><ele></ele><time>2014-4-20T17:7:41Z</time></trkpt>
<trkpt lat="46.34098434" lon="8.60904312"><ele></ele><time>2014-4-20T17:7:44Z</time></trkpt>
<trkpt lat="46.34116745" lon="8.60926437"><ele></ele><time>2014-4-20T17:7:47Z</time></trkpt>
<trkpt lat="46.34143066" lon="8.60947609"><ele></ele><time>2014-4-20T17:7:50Z</time></trkpt>
<trkpt lat="46.34171295" lon="8.60961246"><ele></ele><time>2014-4-20T17:7:53Z</time></trkpt>
<trkpt lat="46.34196472" lon="8.60964870"><ele></ele><time>2014-4-20T17:7:56Z</time></trkpt>
<trkpt lat="46.34221649" lon="8.60966587"><ele></ele><time>2014-4-20T17:7:59Z</time></trkpt>
<trkpt lat="46.34248734" lon="8.60970497"><ele></ele><time>2014-4-20T17:8:2Z</time></trkpt>
<trkpt lat="46.34278107" lon="8.60980225"><ele></ele><time>2014-4-20T17:8:5Z</time></trkpt>
<trkpt lat="46.34303665" lon="8.60990429"><ele></ele><time>2014-4-20T17:8:8Z</time></trkpt>
<trkpt lat="46.34326553" lon="8.61001301"><ele></ele><time>2014-4-20T17:8:11Z</time></trkpt>
<trkpt lat="46.34348679" lon="8.61016941"><ele></ele><time>2014-4-20T17:8:14Z</time></trkpt>
<trkpt lat="46.34367371" lon="8.61031914"><ele></ele><time>2014-4-20T17:8:17Z</time></trkpt>
<trkpt lat="46.34381866" lon="8.61043167"><ele></ele><time>2014-4-20T17:8:20Z</time></trkpt>
<trkpt lat="46.34383011" lon="8.61043644"><ele></ele><time>2014-4-20T17:8:23Z</time></trkpt>
<trkpt lat="46.34383011" lon="8.61046696"><ele></ele><time>2014-4-20T17:8:26Z</time></trkpt>
<trkpt lat="46.34398270" lon="8.61054420"><ele></ele><time>2014-4-20T17:8:29Z</time></trkpt>
<trkpt lat="46.34419632" lon="8.61066914"><ele></ele><time>2014-4-20T17:8:32Z</time></trkpt>
<trkpt lat="46.34450150" lon="8.61085033"><ele></ele><time>2014-4-20T17:8:35Z</time></trkpt>
<trkpt lat="46.34470367" lon="8.61098766"><ele></ele><time>2014-4-20T17:8:38Z</time></trkpt>
<trkpt lat="46.34493637" lon="8.61114597"><ele></ele><time>2014-4-20T17:8:41Z</time></trkpt>
<trkpt lat="46.34513855" lon="8.61127281"><ele></ele><time>2014-4-20T17:8:44Z</time></trkpt>
<trkpt lat="46.34538269" lon="8.61143112"><ele></ele><time>2014-4-20T17:8:47Z</time></trkpt>
<trkpt lat="46.34561920" lon="8.61159229"><ele></ele><time>2014-4-20T17:8:50Z</time></trkpt>
<trkpt lat="46.34580231" lon="8.61169815"><ele></ele><time>2014-4-20T17:8:53Z</time></trkpt>
<trkpt lat="46.34597015" lon="8.61180687"><ele></ele><time>2014-4-20T17:8:56Z</time></trkpt>
<trkpt lat="46.34620285" lon="8.61195374"><ele></ele><time>2014-4-20T17:8:59Z</time></trkpt>
<trkpt lat="46.34648514" lon="8.61213875"><ele></ele><time>2014-4-20T17:9:2Z</time></trkpt>
<trkpt lat="46.34682083" lon="8.61236286"><ele></ele><time>2014-4-20T17:9:5Z</time></trkpt>
<trkpt lat="46.34710312" lon="8.61254597"><ele></ele><time>2014-4-20T17:9:8Z</time></trkpt>
<trkpt lat="46.34726715" lon="8.61265278"><ele></ele><time>2014-4-20T17:9:11Z</time></trkpt>
<trkpt lat="46.34737778" lon="8.61276531"><ele></ele><time>2014-4-20T17:9:14Z</time></trkpt>
<trkpt lat="46.34749985" lon="8.61290932"><ele></ele><time>2014-4-20T17:9:17Z</time></trkpt>
<trkpt lat="46.34774017" lon="8.61320972"><ele></ele><time>2014-4-20T17:9:20Z</time></trkpt>
<trkpt lat="46.34786224" lon="8.61344910"><ele></ele><time>2014-4-20T17:9:23Z</time></trkpt>
<trkpt lat="46.34792709" lon="8.61366367"><ele></ele><time>2014-4-20T17:9:26Z</time></trkpt>
<trkpt lat="46.34801865" lon="8.61392593"><ele></ele><time>2014-4-20T17:9:29Z</time></trkpt>
<trkpt lat="46.34812164" lon="8.61410904"><ele></ele><time>2014-4-20T17:9:32Z</time></trkpt>
<trkpt lat="46.34825897" lon="8.61435795"><ele></ele><time>2014-4-20T17:9:35Z</time></trkpt>
<trkpt lat="46.34838104" lon="8.61456871"><ele></ele><time>2014-4-20T17:9:38Z</time></trkpt>
<trkpt lat="46.34849548" lon="8.61478806"><ele></ele><time>2014-4-20T17:9:41Z</time></trkpt>
<trkpt lat="46.34838104" lon="8.61505222"><ele></ele><time>2014-4-20T17:9:44Z</time></trkpt>
<trkpt lat="46.34830856" lon="8.61526775"><ele></ele><time>2014-4-20T17:9:47Z</time></trkpt>
<trkpt lat="46.34825134" lon="8.61547184"><ele></ele><time>2014-4-20T17:9:50Z</time></trkpt>
<trkpt lat="46.34833145" lon="8.61581898"><ele></ele><time>2014-4-20T17:9:53Z</time></trkpt>
<trkpt lat="46.34846115" lon="8.61603069"><ele></ele><time>2014-4-20T17:9:56Z</time></trkpt>
<trkpt lat="46.34859848" lon="8.61616421"><ele></ele><time>2014-4-20T17:9:59Z</time></trkpt>
<trkpt lat="46.34876633" lon="8.61633492"><ele></ele><time>2014-4-20T17:10:2Z</time></trkpt>
<trkpt lat="46.34894943" lon="8.61652374"><ele></ele><time>2014-4-20T17:10:5Z</time></trkpt>
<trkpt lat="46.34911346" lon="8.61671352"><ele></ele><time>2014-4-20T17:10:8Z</time></trkpt>
<trkpt lat="46.34925461" lon="8.61682510"><ele></ele><time>2014-4-20T17:10:11Z</time></trkpt>
<trkpt lat="46.34944153" lon="8.61699009"><ele></ele><time>2014-4-20T17:10:14Z</time></trkpt>
<trkpt lat="46.34955215" lon="8.61706257"><ele></ele><time>2014-4-20T17:10:17Z</time></trkpt>
<trkpt lat="46.34962082" lon="8.61707783"><ele></ele><time>2014-4-20T17:10:20Z</time></trkpt>
<trkpt lat="46.34968567" lon="8.61710644"><ele></ele><time>2014-4-20T17:10:23Z</time></trkpt>
<trkpt lat="46.34978104" lon="8.61716843"><ele></ele><time>2014-4-20T17:10:26Z</time></trkpt>
<trkpt lat="46.34985733" lon="8.61719036"><ele></ele><time>2014-4-20T17:10:29Z</time></trkpt>
<trkpt lat="46.34990311" lon="8.61710644"><ele></ele><time>2014-4-20T17:10:32Z</time></trkpt>
<trkpt lat="46.34981537" lon="8.61703873"><ele></ele><time>2014-4-20T17:10:35Z</time></trkpt>
<trkpt lat="46.34980011" lon="8.61702824"><ele></ele><time>2014-4-20T17:10:38Z</time></trkpt>
<trkpt lat="46.34964371" lon="8.61688805"><ele></ele><time>2014-4-20T17:10:41Z</time></trkpt>
<trkpt lat="46.34956360" lon="8.61681080"><ele></ele><time>2014-4-20T17:10:44Z</time></trkpt>
<trkpt lat="46.34957123" lon="8.61672306"><ele></ele><time>2014-4-20T17:10:47Z</time></trkpt>
<trkpt lat="46.34962463" lon="8.61677837"><ele></ele><time>2014-4-20T17:10:50Z</time></trkpt>
<trkpt lat="46.34965515" lon="8.61680984"><ele></ele><time>2014-4-20T17:10:53Z</time></trkpt>
<trkpt lat="46.34981918" lon="8.61691093"><ele></ele><time>2014-4-20T17:10:56Z</time></trkpt>
<trkpt lat="46.35000992" lon="8.61705685"><ele></ele><time>2014-4-20T17:10:59Z</time></trkpt>
<trkpt lat="46.35007858" lon="8.61710835"><ele></ele><time>2014-4-20T17:11:2Z</time></trkpt>
<trkpt lat="46.35015488" lon="8.61716461"><ele></ele><time>2014-4-20T17:11:5Z</time></trkpt>
<trkpt lat="46.35026550" lon="8.61726856"><ele></ele><time>2014-4-20T17:11:8Z</time></trkpt>
<trkpt lat="46.35034180" lon="8.61734104"><ele></ele><time>2014-4-20T17:11:11Z</time></trkpt>
<trkpt lat="46.35047531" lon="8.61745930"><ele></ele><time>2014-4-20T17:11:14Z</time></trkpt>
<trkpt lat="46.35060501" lon="8.61758041"><ele></ele><time>2014-4-20T17:11:17Z</time></trkpt>
<trkpt lat="46.35076141" lon="8.61773205"><ele></ele><time>2014-4-20T17:11:20Z</time></trkpt>
<trkpt lat="46.35086441" lon="8.61783600"><ele></ele><time>2014-4-20T17:11:23Z</time></trkpt>
<trkpt lat="46.35099411" lon="8.61801243"><ele></ele><time>2014-4-20T17:11:26Z</time></trkpt>
<trkpt lat="46.35105515" lon="8.61813068"><ele></ele><time>2014-4-20T17:11:29Z</time></trkpt>
<trkpt lat="46.35114288" lon="8.61827755"><ele></ele><time>2014-4-20T17:11:32Z</time></trkpt>
<trkpt lat="46.35126495" lon="8.61849022"><ele></ele><time>2014-4-20T17:11:35Z</time></trkpt>
<trkpt lat="46.35139465" lon="8.61861324"><ele></ele><time>2014-4-20T17:11:38Z</time></trkpt>
<trkpt lat="46.35159683" lon="8.61870193"><ele></ele><time>2014-4-20T17:11:41Z</time></trkpt>
<trkpt lat="46.35168457" lon="8.61885929"><ele></ele><time>2014-4-20T17:11:44Z</time></trkpt>
<trkpt lat="46.35177612" lon="8.61903667"><ele></ele><time>2014-4-20T17:11:47Z</time></trkpt>
<trkpt lat="46.35190582" lon="8.61926937"><ele></ele><time>2014-4-20T17:11:50Z</time></trkpt>
<trkpt lat="46.35193253" lon="8.61952019"><ele></ele><time>2014-4-20T17:11:53Z</time></trkpt>
<trkpt lat="46.35198212" lon="8.61980343"><ele></ele><time>2014-4-20T17:11:56Z</time></trkpt>
<trkpt lat="46.35209274" lon="8.62001801"><ele></ele><time>2014-4-20T17:11:59Z</time></trkpt>
<trkpt lat="46.35224915" lon="8.62023354"><ele></ele><time>2014-4-20T17:12:2Z</time></trkpt>
<trkpt lat="46.35240555" lon="8.62047482"><ele></ele><time>2014-4-20T17:12:5Z</time></trkpt>
<trkpt lat="46.35252380" lon="8.62079334"><ele></ele><time>2014-4-20T17:12:8Z</time></trkpt>
<trkpt lat="46.35255051" lon="8.62092876"><ele></ele><time>2014-4-20T17:12:11Z</time></trkpt>
<trkpt lat="46.35251617" lon="8.62114525"><ele></ele><time>2014-4-20T17:12:14Z</time></trkpt>
<trkpt lat="46.35248184" lon="8.62129402"><ele></ele><time>2014-4-20T17:12:17Z</time></trkpt>
<trkpt lat="46.35247040" lon="8.62131882"><ele></ele><time>2014-4-20T17:12:20Z</time></trkpt>
<trkpt lat="46.35251617" lon="8.62147617"><ele></ele><time>2014-4-20T17:12:23Z</time></trkpt>
<trkpt lat="46.35257339" lon="8.62159538"><ele></ele><time>2014-4-20T17:12:26Z</time></trkpt>
<trkpt lat="46.35258865" lon="8.62162876"><ele></ele><time>2014-4-20T17:12:29Z</time></trkpt>
<trkpt lat="46.35260391" lon="8.62172413"><ele></ele><time>2014-4-20T17:12:32Z</time></trkpt>
<trkpt lat="46.35264587" lon="8.62185955"><ele></ele><time>2014-4-20T17:12:35Z</time></trkpt>
<trkpt lat="46.35271072" lon="8.62199497"><ele></ele><time>2014-4-20T17:12:38Z</time></trkpt>
<trkpt lat="46.35279083" lon="8.62216759"><ele></ele><time>2014-4-20T17:12:41Z</time></trkpt>
<trkpt lat="46.35284805" lon="8.62235069"><ele></ele><time>2014-4-20T17:12:44Z</time></trkpt>
<trkpt lat="46.35288620" lon="8.62247944"><ele></ele><time>2014-4-20T17:12:47Z</time></trkpt>
<trkpt lat="46.35289764" lon="8.62259483"><ele></ele><time>2014-4-20T17:12:50Z</time></trkpt>
<trkpt lat="46.35287857" lon="8.62270641"><ele></ele><time>2014-4-20T17:12:53Z</time></trkpt>
<trkpt lat="46.35279465" lon="8.62283039"><ele></ele><time>2014-4-20T17:12:56Z</time></trkpt>
<trkpt lat="46.35269928" lon="8.62298870"><ele></ele><time>2014-4-20T17:12:59Z</time></trkpt>
<trkpt lat="46.35265350" lon="8.62317944"><ele></ele><time>2014-4-20T17:13:2Z</time></trkpt>
<trkpt lat="46.35259628" lon="8.62339973"><ele></ele><time>2014-4-20T17:13:5Z</time></trkpt>
<trkpt lat="46.35257721" lon="8.62354279"><ele></ele><time>2014-4-20T17:13:8Z</time></trkpt>
<trkpt lat="46.35258102" lon="8.62358093"><ele></ele><time>2014-4-20T17:13:11Z</time></trkpt>
<trkpt lat="46.35267258" lon="8.62381554"><ele></ele><time>2014-4-20T17:13:14Z</time></trkpt>
<trkpt lat="46.35274124" lon="8.62398624"><ele></ele><time>2014-4-20T17:13:17Z</time></trkpt>
<trkpt lat="46.35280991" lon="8.62417889"><ele></ele><time>2014-4-20T17:13:20Z</time></trkpt>
<trkpt lat="46.35284042" lon="8.62431622"><ele></ele><time>2014-4-20T17:13:23Z</time></trkpt>
<trkpt lat="46.35281372" lon="8.62450981"><ele></ele><time>2014-4-20T17:13:26Z</time></trkpt>
<trkpt lat="46.35276413" lon="8.62471581"><ele></ele><time>2014-4-20T17:13:29Z</time></trkpt>
<trkpt lat="46.35269165" lon="8.62493324"><ele></ele><time>2014-4-20T17:13:32Z</time></trkpt>
<trkpt lat="46.35264206" lon="8.62509918"><ele></ele><time>2014-4-20T17:13:35Z</time></trkpt>
<trkpt lat="46.35267258" lon="8.62515354"><ele></ele><time>2014-4-20T17:13:38Z</time></trkpt>
<trkpt lat="46.35269165" lon="8.62515926"><ele></ele><time>2014-4-20T17:13:41Z</time></trkpt>
<trkpt lat="46.35269165" lon="8.62515926"><ele></ele><time>2014-4-20T17:13:44Z</time></trkpt>
<trkpt lat="46.35288620" lon="8.62521744"><ele></ele><time>2014-4-20T17:13:47Z</time></trkpt>
<trkpt lat="46.35285187" lon="8.62541199"><ele></ele><time>2014-4-20T17:13:50Z</time></trkpt>
<trkpt lat="46.35280228" lon="8.62568665"><ele></ele><time>2014-4-20T17:13:53Z</time></trkpt>
<trkpt lat="46.35281372" lon="8.62604427"><ele></ele><time>2014-4-20T17:13:56Z</time></trkpt>
<trkpt lat="46.35285187" lon="8.62627125"><ele></ele><time>2014-4-20T17:13:59Z</time></trkpt>
<trkpt lat="46.35290146" lon="8.62645435"><ele></ele><time>2014-4-20T17:14:2Z</time></trkpt>
<trkpt lat="46.35290146" lon="8.62646198"><ele></ele><time>2014-4-20T17:14:5Z</time></trkpt>
<trkpt lat="46.35293961" lon="8.62660217"><ele></ele><time>2014-4-20T17:14:8Z</time></trkpt>
<trkpt lat="46.35298920" lon="8.62681007"><ele></ele><time>2014-4-20T17:14:11Z</time></trkpt>
<trkpt lat="46.35302353" lon="8.62701035"><ele></ele><time>2014-4-20T17:14:14Z</time></trkpt>
<trkpt lat="46.35308838" lon="8.62728310"><ele></ele><time>2014-4-20T17:14:17Z</time></trkpt>
<trkpt lat="46.35308075" lon="8.62755871"><ele></ele><time>2014-4-20T17:14:20Z</time></trkpt>
<trkpt lat="46.35301971" lon="8.62777424"><ele></ele><time>2014-4-20T17:14:23Z</time></trkpt>
<trkpt lat="46.35299683" lon="8.62821770"><ele></ele><time>2014-4-20T17:14:26Z</time></trkpt>
<trkpt lat="46.35303497" lon="8.62843132"><ele></ele><time>2014-4-20T17:14:29Z</time></trkpt>
<trkpt lat="46.35323715" lon="8.62922668"><ele></ele><time>2014-4-20T17:14:32Z</time></trkpt>
<trkpt lat="46.35345078" lon="8.62964535"><ele></ele><time>2014-4-20T17:14:35Z</time></trkpt>
<trkpt lat="46.35355377" lon="8.62988186"><ele></ele><time>2014-4-20T17:14:38Z</time></trkpt>
<trkpt lat="46.35371017" lon="8.63040733"><ele></ele><time>2014-4-20T17:14:41Z</time></trkpt>
<trkpt lat="46.35374832" lon="8.63096333"><ele></ele><time>2014-4-20T17:14:44Z</time></trkpt>
<trkpt lat="46.35373688" lon="8.63175297"><ele></ele><time>2014-4-20T17:14:47Z</time></trkpt>
<trkpt lat="46.35377884" lon="8.63211155"><ele></ele><time>2014-4-20T17:14:50Z</time></trkpt>
<trkpt lat="46.35396576" lon="8.63255978"><ele></ele><time>2014-4-20T17:14:53Z</time></trkpt>
<trkpt lat="46.35419083" lon="8.63301373"><ele></ele><time>2014-4-20T17:14:56Z</time></trkpt>
<trkpt lat="46.35437775" lon="8.63340664"><ele></ele><time>2014-4-20T17:14:59Z</time></trkpt>
<trkpt lat="46.35454941" lon="8.63377285"><ele></ele><time>2014-4-20T17:15:2Z</time></trkpt>
<trkpt lat="46.35474396" lon="8.63418293"><ele></ele><time>2014-4-20T17:15:5Z</time></trkpt>
<trkpt lat="46.35489273" lon="8.63460636"><ele></ele><time>2014-4-20T17:15:8Z</time></trkpt>
<trkpt lat="46.35497284" lon="8.63500214"><ele></ele><time>2014-4-20T17:15:11Z</time></trkpt>
<trkpt lat="46.35511017" lon="8.63541603"><ele></ele><time>2014-4-20T17:15:14Z</time></trkpt>
<trkpt lat="46.35524368" lon="8.63579369"><ele></ele><time>2014-4-20T17:15:17Z</time></trkpt>
<trkpt lat="46.35536575" lon="8.63616657"><ele></ele><time>2014-4-20T17:15:20Z</time></trkpt>
<trkpt lat="46.35553360" lon="8.63652420"><ele></ele><time>2014-4-20T17:15:23Z</time></trkpt>
<trkpt lat="46.35575104" lon="8.63681698"><ele></ele><time>2014-4-20T17:15:26Z</time></trkpt>
<trkpt lat="46.35602570" lon="8.63718796"><ele></ele><time>2014-4-20T17:15:29Z</time></trkpt>
<trkpt lat="46.35624313" lon="8.63750744"><ele></ele><time>2014-4-20T17:15:32Z</time></trkpt>
<trkpt lat="46.35661316" lon="8.63801003"><ele></ele><time>2014-4-20T17:15:35Z</time></trkpt>
<trkpt lat="46.35686874" lon="8.63830566"><ele></ele><time>2014-4-20T17:15:38Z</time></trkpt>
<trkpt lat="46.35705948" lon="8.63867855"><ele></ele><time>2014-4-20T17:15:41Z</time></trkpt>
<trkpt lat="46.35725021" lon="8.63929081"><ele></ele><time>2014-4-20T17:15:44Z</time></trkpt>
<trkpt lat="46.35746002" lon="8.63965511"><ele></ele><time>2014-4-20T17:15:47Z</time></trkpt>
<trkpt lat="46.35779572" lon="8.64016342"><ele></ele><time>2014-4-20T17:15:50Z</time></trkpt>
<trkpt lat="46.35807419" lon="8.64062119"><ele></ele><time>2014-4-20T17:15:53Z</time></trkpt>
<trkpt lat="46.35824585" lon="8.64092922"><ele></ele><time>2014-4-20T17:15:56Z</time></trkpt>
<trkpt lat="46.35836029" lon="8.64118576"><ele></ele><time>2014-4-20T17:15:59Z</time></trkpt>
<trkpt lat="46.35848999" lon="8.64150620"><ele></ele><time>2014-4-20T17:16:2Z</time></trkpt>
<trkpt lat="46.35862350" lon="8.64186764"><ele></ele><time>2014-4-20T17:16:5Z</time></trkpt>
<trkpt lat="46.35866165" lon="8.64208984"><ele></ele><time>2014-4-20T17:16:8Z</time></trkpt>
<trkpt lat="46.35867691" lon="8.64247417"><ele></ele><time>2014-4-20T17:16:11Z</time></trkpt>
<trkpt lat="46.35863876" lon="8.64283085"><ele></ele><time>2014-4-20T17:16:14Z</time></trkpt>
<trkpt lat="46.35858536" lon="8.64311695"><ele></ele><time>2014-4-20T17:16:17Z</time></trkpt>
<trkpt lat="46.35863113" lon="8.64337635"><ele></ele><time>2014-4-20T17:16:20Z</time></trkpt>
<trkpt lat="46.35877228" lon="8.64363670"><ele></ele><time>2014-4-20T17:16:23Z</time></trkpt>
<trkpt lat="46.35893250" lon="8.64389420"><ele></ele><time>2014-4-20T17:16:26Z</time></trkpt>
<trkpt lat="46.35912323" lon="8.64424038"><ele></ele><time>2014-4-20T17:16:29Z</time></trkpt>
<trkpt lat="46.35932159" lon="8.64466667"><ele></ele><time>2014-4-20T17:16:32Z</time></trkpt>
<trkpt lat="46.35939026" lon="8.64505100"><ele></ele><time>2014-4-20T17:16:35Z</time></trkpt>
<trkpt lat="46.35936356" lon="8.64545059"><ele></ele><time>2014-4-20T17:16:38Z</time></trkpt>
<trkpt lat="46.35933685" lon="8.64592266"><ele></ele><time>2014-4-20T17:16:41Z</time></trkpt>
<trkpt lat="46.35935211" lon="8.64625740"><ele></ele><time>2014-4-20T17:16:44Z</time></trkpt>
<trkpt lat="46.35939026" lon="8.64663029"><ele></ele><time>2014-4-20T17:16:47Z</time></trkpt>
<trkpt lat="46.35945129" lon="8.64699364"><ele></ele><time>2014-4-20T17:16:50Z</time></trkpt>
<trkpt lat="46.35953522" lon="8.64729786"><ele></ele><time>2014-4-20T17:16:53Z</time></trkpt>
<trkpt lat="46.35962677" lon="8.64757061"><ele></ele><time>2014-4-20T17:16:56Z</time></trkpt>
<trkpt lat="46.35982513" lon="8.64789200"><ele></ele><time>2014-4-20T17:16:59Z</time></trkpt>
<trkpt lat="46.35995483" lon="8.64809418"><ele></ele><time>2014-4-20T17:17:2Z</time></trkpt>
<trkpt lat="46.36012268" lon="8.64833069"><ele></ele><time>2014-4-20T17:17:5Z</time></trkpt>
<trkpt lat="46.36022949" lon="8.64848804"><ele></ele><time>2014-4-20T17:17:8Z</time></trkpt>
<trkpt lat="46.36040115" lon="8.64868641"><ele></ele><time>2014-4-20T17:17:11Z</time></trkpt>
<trkpt lat="46.36067200" lon="8.64893627"><ele></ele><time>2014-4-20T17:17:14Z</time></trkpt>
<trkpt lat="46.36096954" lon="8.64915466"><ele></ele><time>2014-4-20T17:17:17Z</time></trkpt>
<trkpt lat="46.36129761" lon="8.64934444"><ele></ele><time>2014-4-20T17:17:20Z</time></trkpt>
<trkpt lat="46.36167526" lon="8.64956760"><ele></ele><time>2014-4-20T17:17:23Z</time></trkpt>
<trkpt lat="46.36209488" lon="8.64986515"><ele></ele><time>2014-4-20T17:17:26Z</time></trkpt>
<trkpt lat="46.36249924" lon="8.65021229"><ele></ele><time>2014-4-20T17:17:29Z</time></trkpt>
<trkpt lat="46.36294937" lon="8.65067005"><ele></ele><time>2014-4-20T17:17:32Z</time></trkpt>
<trkpt lat="46.36329269" lon="8.65111542"><ele></ele><time>2014-4-20T17:17:35Z</time></trkpt>
<trkpt lat="46.36367798" lon="8.65162373"><ele></ele><time>2014-4-20T17:17:38Z</time></trkpt>
<trkpt lat="46.36404419" lon="8.65217876"><ele></ele><time>2014-4-20T17:17:41Z</time></trkpt>
<trkpt lat="46.36437225" lon="8.65268326"><ele></ele><time>2014-4-20T17:17:44Z</time></trkpt>
<trkpt lat="46.36476898" lon="8.65329266"><ele></ele><time>2014-4-20T17:17:47Z</time></trkpt>
<trkpt lat="46.36510468" lon="8.65379810"><ele></ele><time>2014-4-20T17:17:50Z</time></trkpt>
<trkpt lat="46.36537933" lon="8.65411758"><ele></ele><time>2014-4-20T17:17:53Z</time></trkpt>
<trkpt lat="46.36563492" lon="8.65433884"><ele></ele><time>2014-4-20T17:17:56Z</time></trkpt>
<trkpt lat="46.36598969" lon="8.65465069"><ele></ele><time>2014-4-20T17:17:59Z</time></trkpt>
<trkpt lat="46.36627579" lon="8.65488434"><ele></ele><time>2014-4-20T17:18:2Z</time></trkpt>
<trkpt lat="46.36652756" lon="8.65506077"><ele></ele><time>2014-4-20T17:18:5Z</time></trkpt>
<trkpt lat="46.36676407" lon="8.65522480"><ele></ele><time>2014-4-20T17:18:8Z</time></trkpt>
<trkpt lat="46.36697769" lon="8.65537262"><ele></ele><time>2014-4-20T17:18:11Z</time></trkpt>
<trkpt lat="46.36723709" lon="8.65555286"><ele></ele><time>2014-4-20T17:18:14Z</time></trkpt>
<trkpt lat="46.36751556" lon="8.65575504"><ele></ele><time>2014-4-20T17:18:17Z</time></trkpt>
<trkpt lat="46.36783981" lon="8.65596008"><ele></ele><time>2014-4-20T17:18:20Z</time></trkpt>
<trkpt lat="46.36813354" lon="8.65612698"><ele></ele><time>2014-4-20T17:18:23Z</time></trkpt>
<trkpt lat="46.36842728" lon="8.65630054"><ele></ele><time>2014-4-20T17:18:26Z</time></trkpt>
<trkpt lat="46.36860275" lon="8.65641594"><ele></ele><time>2014-4-20T17:18:29Z</time></trkpt>
<trkpt lat="46.36879730" lon="8.65652657"><ele></ele><time>2014-4-20T17:18:32Z</time></trkpt>
<trkpt lat="46.36897278" lon="8.65663147"><ele></ele><time>2014-4-20T17:18:35Z</time></trkpt>
<trkpt lat="46.36911011" lon="8.65672588"><ele></ele><time>2014-4-20T17:18:38Z</time></trkpt>
<trkpt lat="46.36930466" lon="8.65690422"><ele></ele><time>2014-4-20T17:18:41Z</time></trkpt>
<trkpt lat="46.36952209" lon="8.65709400"><ele></ele><time>2014-4-20T17:18:44Z</time></trkpt>
<trkpt lat="46.36969376" lon="8.65723324"><ele></ele><time>2014-4-20T17:18:47Z</time></trkpt>
<trkpt lat="46.36984253" lon="8.65734196"><ele></ele><time>2014-4-20T17:18:50Z</time></trkpt>
<trkpt lat="46.37000275" lon="8.65743732"><ele></ele><time>2014-4-20T17:18:53Z</time></trkpt>
<trkpt lat="46.37010574" lon="8.65748310"><ele></ele><time>2014-4-20T17:18:56Z</time></trkpt>
<trkpt lat="46.37026596" lon="8.65758228"><ele></ele><time>2014-4-20T17:18:59Z</time></trkpt>
<trkpt lat="46.37047577" lon="8.65772820"><ele></ele><time>2014-4-20T17:19:2Z</time></trkpt>
<trkpt lat="46.37062836" lon="8.65783882"><ele></ele><time>2014-4-20T17:19:5Z</time></trkpt>
<trkpt lat="46.37080383" lon="8.65794086"><ele></ele><time>2014-4-20T17:19:8Z</time></trkpt>
<trkpt lat="46.37092209" lon="8.65800858"><ele></ele><time>2014-4-20T17:19:11Z</time></trkpt>
<trkpt lat="46.37106705" lon="8.65806675"><ele></ele><time>2014-4-20T17:19:14Z</time></trkpt>
<trkpt lat="46.37122726" lon="8.65813637"><ele></ele><time>2014-4-20T17:19:17Z</time></trkpt>
<trkpt lat="46.37147141" lon="8.65825367"><ele></ele><time>2014-4-20T17:19:20Z</time></trkpt>
<trkpt lat="46.37163925" lon="8.65833282"><ele></ele><time>2014-4-20T17:19:23Z</time></trkpt>
<trkpt lat="46.37182236" lon="8.65842342"><ele></ele><time>2014-4-20T17:19:26Z</time></trkpt>
<trkpt lat="46.37208557" lon="8.65856361"><ele></ele><time>2014-4-20T17:19:29Z</time></trkpt>
<trkpt lat="46.37235260" lon="8.65869236"><ele></ele><time>2014-4-20T17:19:32Z</time></trkpt>
<trkpt lat="46.37252808" lon="8.65880871"><ele></ele><time>2014-4-20T17:19:35Z</time></trkpt>
<trkpt lat="46.37273788" lon="8.65896702"><ele></ele><time>2014-4-20T17:19:38Z</time></trkpt>
<trkpt lat="46.37294388" lon="8.65911102"><ele></ele><time>2014-4-20T17:19:41Z</time></trkpt>
<trkpt lat="46.37317657" lon="8.65921307"><ele></ele><time>2014-4-20T17:19:44Z</time></trkpt>
<trkpt lat="46.37340927" lon="8.65931225"><ele></ele><time>2014-4-20T17:19:47Z</time></trkpt>
<trkpt lat="46.37356949" lon="8.65936375"><ele></ele><time>2014-4-20T17:19:50Z</time></trkpt>
<trkpt lat="46.37370300" lon="8.65941238"><ele></ele><time>2014-4-20T17:19:53Z</time></trkpt>
<trkpt lat="46.37396622" lon="8.65953541"><ele></ele><time>2014-4-20T17:19:56Z</time></trkpt>
<trkpt lat="46.37417984" lon="8.65959930"><ele></ele><time>2014-4-20T17:19:59Z</time></trkpt>
<trkpt lat="46.37440872" lon="8.65965080"><ele></ele><time>2014-4-20T17:20:2Z</time></trkpt>
<trkpt lat="46.37460709" lon="8.65969181"><ele></ele><time>2014-4-20T17:20:5Z</time></trkpt>
<trkpt lat="46.37480545" lon="8.65974045"><ele></ele><time>2014-4-20T17:20:8Z</time></trkpt>
<trkpt lat="46.37509155" lon="8.65980530"><ele></ele><time>2014-4-20T17:20:11Z</time></trkpt>
<trkpt lat="46.37528229" lon="8.65980339"><ele></ele><time>2014-4-20T17:20:14Z</time></trkpt>
<trkpt lat="46.37549973" lon="8.65983582"><ele></ele><time>2014-4-20T17:20:17Z</time></trkpt>
<trkpt lat="46.37568283" lon="8.65985298"><ele></ele><time>2014-4-20T17:20:20Z</time></trkpt>
<trkpt lat="46.37589264" lon="8.65983200"><ele></ele><time>2014-4-20T17:20:23Z</time></trkpt>
<trkpt lat="46.37612152" lon="8.65988159"><ele></ele><time>2014-4-20T17:20:26Z</time></trkpt>
<trkpt lat="46.37639618" lon="8.66001034"><ele></ele><time>2014-4-20T17:20:29Z</time></trkpt>
<trkpt lat="46.37655258" lon="8.66007614"><ele></ele><time>2014-4-20T17:20:32Z</time></trkpt>
<trkpt lat="46.37669754" lon="8.66009235"><ele></ele><time>2014-4-20T17:20:35Z</time></trkpt>
<trkpt lat="46.37686539" lon="8.66016006"><ele></ele><time>2014-4-20T17:20:38Z</time></trkpt>
<trkpt lat="46.37709045" lon="8.66028118"><ele></ele><time>2014-4-20T17:20:41Z</time></trkpt>
<trkpt lat="46.37715912" lon="8.66032219"><ele></ele><time>2014-4-20T17:20:44Z</time></trkpt>
<trkpt lat="46.37759399" lon="8.66051483"><ele></ele><time>2014-4-20T17:20:47Z</time></trkpt>
<trkpt lat="46.37820435" lon="8.66077518"><ele></ele><time>2014-4-20T17:20:50Z</time></trkpt>
<trkpt lat="46.37870789" lon="8.66098213"><ele></ele><time>2014-4-20T17:20:53Z</time></trkpt>
<trkpt lat="46.37922668" lon="8.66118813"><ele></ele><time>2014-4-20T17:20:56Z</time></trkpt>
<trkpt lat="46.37959290" lon="8.66133499"><ele></ele><time>2014-4-20T17:20:59Z</time></trkpt>
<trkpt lat="46.37997437" lon="8.66148663"><ele></ele><time>2014-4-20T17:21:2Z</time></trkpt>
<trkpt lat="46.38048935" lon="8.66168308"><ele></ele><time>2014-4-20T17:21:5Z</time></trkpt>
<trkpt lat="46.38084793" lon="8.66182327"><ele></ele><time>2014-4-20T17:21:8Z</time></trkpt>
<trkpt lat="46.38125229" lon="8.66197205"><ele></ele><time>2014-4-20T17:21:11Z</time></trkpt>
<trkpt lat="46.38177490" lon="8.66217709"><ele></ele><time>2014-4-20T17:21:14Z</time></trkpt>
<trkpt lat="46.38208771" lon="8.66230869"><ele></ele><time>2014-4-20T17:21:17Z</time></trkpt>
<trkpt lat="46.38233185" lon="8.66240025"><ele></ele><time>2014-4-20T17:21:20Z</time></trkpt>
<trkpt lat="46.38265610" lon="8.66252518"><ele></ele><time>2014-4-20T17:21:23Z</time></trkpt>
<trkpt lat="46.38327789" lon="8.66276073"><ele></ele><time>2014-4-20T17:21:26Z</time></trkpt>
<trkpt lat="46.38391876" lon="8.66296673"><ele></ele><time>2014-4-20T17:21:29Z</time></trkpt>
<trkpt lat="46.38444138" lon="8.66303444"><ele></ele><time>2014-4-20T17:21:32Z</time></trkpt>
<trkpt lat="46.38489151" lon="8.66305447"><ele></ele><time>2014-4-20T17:21:35Z</time></trkpt>
<trkpt lat="46.38522720" lon="8.66313267"><ele></ele><time>2014-4-20T17:21:38Z</time></trkpt>
<trkpt lat="46.38557053" lon="8.66319275"><ele></ele><time>2014-4-20T17:21:41Z</time></trkpt>
<trkpt lat="46.38584518" lon="8.66318321"><ele></ele><time>2014-4-20T17:21:44Z</time></trkpt>
<trkpt lat="46.38606644" lon="8.66312122"><ele></ele><time>2014-4-20T17:21:47Z</time></trkpt>
<trkpt lat="46.38631821" lon="8.66299534"><ele></ele><time>2014-4-20T17:21:50Z</time></trkpt>
<trkpt lat="46.38662338" lon="8.66276932"><ele></ele><time>2014-4-20T17:21:53Z</time></trkpt>
<trkpt lat="46.38688660" lon="8.66252708"><ele></ele><time>2014-4-20T17:21:56Z</time></trkpt>
<trkpt lat="46.38712692" lon="8.66231632"><ele></ele><time>2014-4-20T17:21:59Z</time></trkpt>
<trkpt lat="46.38742065" lon="8.66213417"><ele></ele><time>2014-4-20T17:22:2Z</time></trkpt>
<trkpt lat="46.38772583" lon="8.66197300"><ele></ele><time>2014-4-20T17:22:5Z</time></trkpt>
<trkpt lat="46.38791656" lon="8.66186237"><ele></ele><time>2014-4-20T17:22:8Z</time></trkpt>
<trkpt lat="46.38807678" lon="8.66178513"><ele></ele><time>2014-4-20T17:22:11Z</time></trkpt>
<trkpt lat="46.38840866" lon="8.66163826"><ele></ele><time>2014-4-20T17:22:14Z</time></trkpt>
<trkpt lat="46.38863373" lon="8.66157532"><ele></ele><time>2014-4-20T17:22:17Z</time></trkpt>
<trkpt lat="46.38888168" lon="8.66148186"><ele></ele><time>2014-4-20T17:22:20Z</time></trkpt>
<trkpt lat="46.38909531" lon="8.66142368"><ele></ele><time>2014-4-20T17:22:23Z</time></trkpt>
<trkpt lat="46.38930130" lon="8.66135979"><ele></ele><time>2014-4-20T17:22:26Z</time></trkpt>
<trkpt lat="46.38949966" lon="8.66122532"><ele></ele><time>2014-4-20T17:22:29Z</time></trkpt>
<trkpt lat="46.38980865" lon="8.66095161"><ele></ele><time>2014-4-20T17:22:32Z</time></trkpt>
<trkpt lat="46.39007187" lon="8.66075134"><ele></ele><time>2014-4-20T17:22:35Z</time></trkpt>
<trkpt lat="46.39030075" lon="8.66056728"><ele></ele><time>2014-4-20T17:22:38Z</time></trkpt>
<trkpt lat="46.39047623" lon="8.66039562"><ele></ele><time>2014-4-20T17:22:41Z</time></trkpt>
<trkpt lat="46.39067078" lon="8.66017246"><ele></ele><time>2014-4-20T17:22:44Z</time></trkpt>
<trkpt lat="46.39089203" lon="8.65991783"><ele></ele><time>2014-4-20T17:22:47Z</time></trkpt>
<trkpt lat="46.39113617" lon="8.65960312"><ele></ele><time>2014-4-20T17:22:50Z</time></trkpt>
<trkpt lat="46.39132690" lon="8.65935135"><ele></ele><time>2014-4-20T17:22:53Z</time></trkpt>
<trkpt lat="46.39149094" lon="8.65915012"><ele></ele><time>2014-4-20T17:22:56Z</time></trkpt>
<trkpt lat="46.39170074" lon="8.65896893"><ele></ele><time>2014-4-20T17:22:59Z</time></trkpt>
<trkpt lat="46.39189529" lon="8.65882301"><ele></ele><time>2014-4-20T17:23:2Z</time></trkpt>
<trkpt lat="46.39225006" lon="8.65853500"><ele></ele><time>2014-4-20T17:23:5Z</time></trkpt>
<trkpt lat="46.39250946" lon="8.65832710"><ele></ele><time>2014-4-20T17:23:8Z</time></trkpt>
<trkpt lat="46.39284134" lon="8.65802670"><ele></ele><time>2014-4-20T17:23:11Z</time></trkpt>
<trkpt lat="46.39317322" lon="8.65767479"><ele></ele><time>2014-4-20T17:23:14Z</time></trkpt>
<trkpt lat="46.39340973" lon="8.65737343"><ele></ele><time>2014-4-20T17:23:17Z</time></trkpt>
<trkpt lat="46.39356613" lon="8.65710354"><ele></ele><time>2014-4-20T17:23:20Z</time></trkpt>
<trkpt lat="46.39368439" lon="8.65688610"><ele></ele><time>2014-4-20T17:23:23Z</time></trkpt>
<trkpt lat="46.39384079" lon="8.65659714"><ele></ele><time>2014-4-20T17:23:26Z</time></trkpt>
<trkpt lat="46.39397812" lon="8.65634632"><ele></ele><time>2014-4-20T17:23:29Z</time></trkpt>
<trkpt lat="46.39411163" lon="8.65608311"><ele></ele><time>2014-4-20T17:23:32Z</time></trkpt>
<trkpt lat="46.39426804" lon="8.65576839"><ele></ele><time>2014-4-20T17:23:35Z</time></trkpt>
<trkpt lat="46.39431381" lon="8.65567780"><ele></ele><time>2014-4-20T17:23:38Z</time></trkpt>
<trkpt lat="46.39430618" lon="8.65565014"><ele></ele><time>2014-4-20T17:23:41Z</time></trkpt>
<trkpt lat="46.39431381" lon="8.65554047"><ele></ele><time>2014-4-20T17:23:44Z</time></trkpt>
<trkpt lat="46.39450073" lon="8.65515232"><ele></ele><time>2014-4-20T17:23:47Z</time></trkpt>
<trkpt lat="46.39451981" lon="8.65513706"><ele></ele><time>2014-4-20T17:23:50Z</time></trkpt>
<trkpt lat="46.39460373" lon="8.65514469"><ele></ele><time>2014-4-20T17:23:53Z</time></trkpt>
<trkpt lat="46.39484406" lon="8.65530109"><ele></ele><time>2014-4-20T17:23:56Z</time></trkpt>
<trkpt lat="46.39500809" lon="8.65530300"><ele></ele><time>2014-4-20T17:23:59Z</time></trkpt>
<trkpt lat="46.39518356" lon="8.65511131"><ele></ele><time>2014-4-20T17:24:2Z</time></trkpt>
<trkpt lat="46.39531708" lon="8.65486717"><ele></ele><time>2014-4-20T17:24:5Z</time></trkpt>
<trkpt lat="46.39543533" lon="8.65475464"><ele></ele><time>2014-4-20T17:24:8Z</time></trkpt>
<trkpt lat="46.39560318" lon="8.65458584"><ele></ele><time>2014-4-20T17:24:11Z</time></trkpt>
<trkpt lat="46.39588547" lon="8.65436172"><ele></ele><time>2014-4-20T17:24:14Z</time></trkpt>
<trkpt lat="46.39612198" lon="8.65423584"><ele></ele><time>2014-4-20T17:24:17Z</time></trkpt>
<trkpt lat="46.39629364" lon="8.65423203"><ele></ele><time>2014-4-20T17:24:20Z</time></trkpt>
<trkpt lat="46.39638519" lon="8.65425205"><ele></ele><time>2014-4-20T17:24:23Z</time></trkpt>
<trkpt lat="46.39656448" lon="8.65424442"><ele></ele><time>2014-4-20T17:24:26Z</time></trkpt>
<trkpt lat="46.39701462" lon="8.65406322"><ele></ele><time>2014-4-20T17:24:29Z</time></trkpt>
<trkpt lat="46.39725876" lon="8.65393639"><ele></ele><time>2014-4-20T17:24:32Z</time></trkpt>
<trkpt lat="46.39757156" lon="8.65385818"><ele></ele><time>2014-4-20T17:24:35Z</time></trkpt>
<trkpt lat="46.39787674" lon="8.65378761"><ele></ele><time>2014-4-20T17:24:38Z</time></trkpt>
<trkpt lat="46.39818573" lon="8.65364456"><ele></ele><time>2014-4-20T17:24:41Z</time></trkpt>
<trkpt lat="46.39855576" lon="8.65347672"><ele></ele><time>2014-4-20T17:24:44Z</time></trkpt>
<trkpt lat="46.39886475" lon="8.65334415"><ele></ele><time>2014-4-20T17:24:47Z</time></trkpt>
<trkpt lat="46.39924240" lon="8.65318108"><ele></ele><time>2014-4-20T17:24:50Z</time></trkpt>
<trkpt lat="46.39954758" lon="8.65297031"><ele></ele><time>2014-4-20T17:24:53Z</time></trkpt>
<trkpt lat="46.39981079" lon="8.65275288"><ele></ele><time>2014-4-20T17:24:56Z</time></trkpt>
<trkpt lat="46.39999008" lon="8.65254021"><ele></ele><time>2014-4-20T17:24:59Z</time></trkpt>
<trkpt lat="46.40014648" lon="8.65230656"><ele></ele><time>2014-4-20T17:25:2Z</time></trkpt>
<trkpt lat="46.40038681" lon="8.65195465"><ele></ele><time>2014-4-20T17:25:5Z</time></trkpt>
<trkpt lat="46.40061188" lon="8.65163040"><ele></ele><time>2014-4-20T17:25:8Z</time></trkpt>
<trkpt lat="46.40077591" lon="8.65143681"><ele></ele><time>2014-4-20T17:25:11Z</time></trkpt>
<trkpt lat="46.40090942" lon="8.65130234"><ele></ele><time>2014-4-20T17:25:14Z</time></trkpt>
<trkpt lat="46.40113449" lon="8.65103054"><ele></ele><time>2014-4-20T17:25:17Z</time></trkpt>
<trkpt lat="46.40134430" lon="8.65085125"><ele></ele><time>2014-4-20T17:25:20Z</time></trkpt>
<trkpt lat="46.40149689" lon="8.65075493"><ele></ele><time>2014-4-20T17:25:23Z</time></trkpt>
<trkpt lat="46.40163040" lon="8.65070343"><ele></ele><time>2014-4-20T17:25:26Z</time></trkpt>
<trkpt lat="46.40182114" lon="8.65062141"><ele></ele><time>2014-4-20T17:25:29Z</time></trkpt>
<trkpt lat="46.40206146" lon="8.65052795"><ele></ele><time>2014-4-20T17:25:32Z</time></trkpt>
<trkpt lat="46.40219116" lon="8.65043259"><ele></ele><time>2014-4-20T17:25:35Z</time></trkpt>
<trkpt lat="46.40232086" lon="8.65027905"><ele></ele><time>2014-4-20T17:25:38Z</time></trkpt>
<trkpt lat="46.40247345" lon="8.65005684"><ele></ele><time>2014-4-20T17:25:41Z</time></trkpt>
<trkpt lat="46.40256882" lon="8.64992809"><ele></ele><time>2014-4-20T17:25:44Z</time></trkpt>
<trkpt lat="46.40271378" lon="8.64972210"><ele></ele><time>2014-4-20T17:25:47Z</time></trkpt>
<trkpt lat="46.40280151" lon="8.64961624"><ele></ele><time>2014-4-20T17:25:50Z</time></trkpt>
<trkpt lat="46.40291595" lon="8.64947128"><ele></ele><time>2014-4-20T17:25:53Z</time></trkpt>
<trkpt lat="46.40300751" lon="8.64935589"><ele></ele><time>2014-4-20T17:25:56Z</time></trkpt>
<trkpt lat="46.40312576" lon="8.64920616"><ele></ele><time>2014-4-20T17:25:59Z</time></trkpt>
<trkpt lat="46.40325928" lon="8.64911079"><ele></ele><time>2014-4-20T17:26:2Z</time></trkpt>
<trkpt lat="46.40338898" lon="8.64906120"><ele></ele><time>2014-4-20T17:26:5Z</time></trkpt>
<trkpt lat="46.40357590" lon="8.64899635"><ele></ele><time>2014-4-20T17:26:8Z</time></trkpt>
<trkpt lat="46.40371704" lon="8.64897919"><ele></ele><time>2014-4-20T17:26:11Z</time></trkpt>
<trkpt lat="46.40383148" lon="8.64896107"><ele></ele><time>2014-4-20T17:26:14Z</time></trkpt>
<trkpt lat="46.40398026" lon="8.64892960"><ele></ele><time>2014-4-20T17:26:17Z</time></trkpt>
<trkpt lat="46.40414047" lon="8.64891434"><ele></ele><time>2014-4-20T17:26:20Z</time></trkpt>
<trkpt lat="46.40433884" lon="8.64892006"><ele></ele><time>2014-4-20T17:26:23Z</time></trkpt>
<trkpt lat="46.40447235" lon="8.64899826"><ele></ele><time>2014-4-20T17:26:26Z</time></trkpt>
<trkpt lat="46.40461349" lon="8.64904976"><ele></ele><time>2014-4-20T17:26:29Z</time></trkpt>
<trkpt lat="46.40470505" lon="8.64907646"><ele></ele><time>2014-4-20T17:26:32Z</time></trkpt>
<trkpt lat="46.40471268" lon="8.64907455"><ele></ele><time>2014-4-20T17:26:35Z</time></trkpt>
<trkpt lat="46.40481186" lon="8.64899826"><ele></ele><time>2014-4-20T17:26:38Z</time></trkpt>
<trkpt lat="46.40489197" lon="8.64888763"><ele></ele><time>2014-4-20T17:26:41Z</time></trkpt>
<trkpt lat="46.40489960" lon="8.64887428"><ele></ele><time>2014-4-20T17:26:44Z</time></trkpt>
<trkpt lat="46.40494156" lon="8.64874077"><ele></ele><time>2014-4-20T17:26:47Z</time></trkpt>
<trkpt lat="46.40501785" lon="8.64856815"><ele></ele><time>2014-4-20T17:26:50Z</time></trkpt>
<trkpt lat="46.40511703" lon="8.64835358"><ele></ele><time>2014-4-20T17:26:53Z</time></trkpt>
<trkpt lat="46.40523148" lon="8.64823914"><ele></ele><time>2014-4-20T17:26:56Z</time></trkpt>
<trkpt lat="46.40539932" lon="8.64813709"><ele></ele><time>2014-4-20T17:26:59Z</time></trkpt>
<trkpt lat="46.40555954" lon="8.64802647"><ele></ele><time>2014-4-20T17:27:2Z</time></trkpt>
<trkpt lat="46.40569305" lon="8.64794540"><ele></ele><time>2014-4-20T17:27:5Z</time></trkpt>
<trkpt lat="46.40580750" lon="8.64788342"><ele></ele><time>2014-4-20T17:27:8Z</time></trkpt>
<trkpt lat="46.40592194" lon="8.64793682"><ele></ele><time>2014-4-20T17:27:11Z</time></trkpt>
<trkpt lat="46.40604401" lon="8.64799213"><ele></ele><time>2014-4-20T17:27:14Z</time></trkpt>
<trkpt lat="46.40604401" lon="8.64799309"><ele></ele><time>2014-4-20T17:27:17Z</time></trkpt>
<trkpt lat="46.40619659" lon="8.64795971"><ele></ele><time>2014-4-20T17:27:20Z</time></trkpt>
<trkpt lat="46.40630722" lon="8.64799976"><ele></ele><time>2014-4-20T17:27:23Z</time></trkpt>
<trkpt lat="46.40643692" lon="8.64798546"><ele></ele><time>2014-4-20T17:27:26Z</time></trkpt>
<trkpt lat="46.40653229" lon="8.64790154"><ele></ele><time>2014-4-20T17:27:29Z</time></trkpt>
<trkpt lat="46.40661240" lon="8.64781666"><ele></ele><time>2014-4-20T17:27:32Z</time></trkpt>
<trkpt lat="46.40667343" lon="8.64768791"><ele></ele><time>2014-4-20T17:27:35Z</time></trkpt>
<trkpt lat="46.40679932" lon="8.64757061"><ele></ele><time>2014-4-20T17:27:38Z</time></trkpt>
<trkpt lat="46.40691757" lon="8.64751053"><ele></ele><time>2014-4-20T17:27:41Z</time></trkpt>
<trkpt lat="46.40702438" lon="8.64743614"><ele></ele><time>2014-4-20T17:27:44Z</time></trkpt>
<trkpt lat="46.40714645" lon="8.64734554"><ele></ele><time>2014-4-20T17:27:47Z</time></trkpt>
<trkpt lat="46.40727615" lon="8.64726830"><ele></ele><time>2014-4-20T17:27:50Z</time></trkpt>
<trkpt lat="46.40737534" lon="8.64726257"><ele></ele><time>2014-4-20T17:27:53Z</time></trkpt>
<trkpt lat="46.40748596" lon="8.64728928"><ele></ele><time>2014-4-20T17:27:56Z</time></trkpt>
<trkpt lat="46.40756226" lon="8.64731598"><ele></ele><time>2014-4-20T17:27:59Z</time></trkpt>
<trkpt lat="46.40760803" lon="8.64736462"><ele></ele><time>2014-4-20T17:28:2Z</time></trkpt>
<trkpt lat="46.40758514" lon="8.64748383"><ele></ele><time>2014-4-20T17:28:5Z</time></trkpt>
<trkpt lat="46.40753937" lon="8.64762497"><ele></ele><time>2014-4-20T17:28:8Z</time></trkpt>
<trkpt lat="46.40753174" lon="8.64781857"><ele></ele><time>2014-4-20T17:28:11Z</time></trkpt>
<trkpt lat="46.40748596" lon="8.64795780"><ele></ele><time>2014-4-20T17:28:14Z</time></trkpt>
<trkpt lat="46.40746307" lon="8.64803314"><ele></ele><time>2014-4-20T17:28:17Z</time></trkpt>
<trkpt lat="46.40739822" lon="8.64813137"><ele></ele><time>2014-4-20T17:28:20Z</time></trkpt>
<trkpt lat="46.40742493" lon="8.64825630"><ele></ele><time>2014-4-20T17:28:23Z</time></trkpt>
<trkpt lat="46.40746689" lon="8.64825726"><ele></ele><time>2014-4-20T17:28:26Z</time></trkpt>
<trkpt lat="46.40761566" lon="8.64814186"><ele></ele><time>2014-4-20T17:28:29Z</time></trkpt>
<trkpt lat="46.40773010" lon="8.64805222"><ele></ele><time>2014-4-20T17:28:32Z</time></trkpt>
<trkpt lat="46.40790939" lon="8.64800072"><ele></ele><time>2014-4-20T17:28:35Z</time></trkpt>
<trkpt lat="46.40801239" lon="8.64798355"><ele></ele><time>2014-4-20T17:28:38Z</time></trkpt>
<trkpt lat="46.40819931" lon="8.64795589"><ele></ele><time>2014-4-20T17:28:41Z</time></trkpt>
<trkpt lat="46.40840912" lon="8.64794731"><ele></ele><time>2014-4-20T17:28:44Z</time></trkpt>
<trkpt lat="46.40848160" lon="8.64799976"><ele></ele><time>2014-4-20T17:28:47Z</time></trkpt>
<trkpt lat="46.40844345" lon="8.64809608"><ele></ele><time>2014-4-20T17:28:50Z</time></trkpt>
<trkpt lat="46.40838242" lon="8.64822102"><ele></ele><time>2014-4-20T17:28:53Z</time></trkpt>
<trkpt lat="46.40832520" lon="8.64833832"><ele></ele><time>2014-4-20T17:28:56Z</time></trkpt>
<trkpt lat="46.40823364" lon="8.64847946"><ele></ele><time>2014-4-20T17:28:59Z</time></trkpt>
<trkpt lat="46.40816879" lon="8.64862442"><ele></ele><time>2014-4-20T17:29:2Z</time></trkpt>
<trkpt lat="46.40811157" lon="8.64876556"><ele></ele><time>2014-4-20T17:29:5Z</time></trkpt>
<trkpt lat="46.40803146" lon="8.64891815"><ele></ele><time>2014-4-20T17:29:8Z</time></trkpt>
<trkpt lat="46.40798569" lon="8.64900875"><ele></ele><time>2014-4-20T17:29:11Z</time></trkpt>
<trkpt lat="46.40790558" lon="8.64912987"><ele></ele><time>2014-4-20T17:29:14Z</time></trkpt>
<trkpt lat="46.40779114" lon="8.64916992"><ele></ele><time>2014-4-20T17:29:17Z</time></trkpt>
<trkpt lat="46.40769958" lon="8.64922237"><ele></ele><time>2014-4-20T17:29:20Z</time></trkpt>
<trkpt lat="46.40769196" lon="8.64931583"><ele></ele><time>2014-4-20T17:29:23Z</time></trkpt>
<trkpt lat="46.40775299" lon="8.64936447"><ele></ele><time>2014-4-20T17:29:26Z</time></trkpt>
<trkpt lat="46.40788651" lon="8.64942074"><ele></ele><time>2014-4-20T17:29:29Z</time></trkpt>
<trkpt lat="46.40797424" lon="8.64948463"><ele></ele><time>2014-4-20T17:29:32Z</time></trkpt>
<trkpt lat="46.40807343" lon="8.64949417"><ele></ele><time>2014-4-20T17:29:35Z</time></trkpt>
<trkpt lat="46.40819550" lon="8.64947033"><ele></ele><time>2014-4-20T17:29:38Z</time></trkpt>
<trkpt lat="46.40831375" lon="8.64936829"><ele></ele><time>2014-4-20T17:29:41Z</time></trkpt>
<trkpt lat="46.40843201" lon="8.64929008"><ele></ele><time>2014-4-20T17:29:44Z</time></trkpt>
<trkpt lat="46.40858841" lon="8.64919090"><ele></ele><time>2014-4-20T17:29:47Z</time></trkpt>
<trkpt lat="46.40874481" lon="8.64909267"><ele></ele><time>2014-4-20T17:29:50Z</time></trkpt>
<trkpt lat="46.40885544" lon="8.64900017"><ele></ele><time>2014-4-20T17:29:53Z</time></trkpt>
<trkpt lat="46.40889740" lon="8.64897823"><ele></ele><time>2014-4-20T17:29:56Z</time></trkpt>
<trkpt lat="46.40892029" lon="8.64904308"><ele></ele><time>2014-4-20T17:29:59Z</time></trkpt>
<trkpt lat="46.40877151" lon="8.64917374"><ele></ele><time>2014-4-20T17:30:2Z</time></trkpt>
<trkpt lat="46.40869522" lon="8.64927292"><ele></ele><time>2014-4-20T17:30:5Z</time></trkpt>
<trkpt lat="46.40864944" lon="8.64941692"><ele></ele><time>2014-4-20T17:30:8Z</time></trkpt>
<trkpt lat="46.40858459" lon="8.64960098"><ele></ele><time>2014-4-20T17:30:11Z</time></trkpt>
<trkpt lat="46.40848541" lon="8.64974689"><ele></ele><time>2014-4-20T17:30:14Z</time></trkpt>
<trkpt lat="46.40835953" lon="8.64982510"><ele></ele><time>2014-4-20T17:30:17Z</time></trkpt>
<trkpt lat="46.40825272" lon="8.64993286"><ele></ele><time>2014-4-20T17:30:20Z</time></trkpt>
<trkpt lat="46.40809250" lon="8.64996433"><ele></ele><time>2014-4-20T17:30:23Z</time></trkpt>
<trkpt lat="46.40794754" lon="8.64996243"><ele></ele><time>2014-4-20T17:30:26Z</time></trkpt>
<trkpt lat="46.40784836" lon="8.64994240"><ele></ele><time>2014-4-20T17:30:29Z</time></trkpt>
<trkpt lat="46.40771866" lon="8.64983177"><ele></ele><time>2014-4-20T17:30:32Z</time></trkpt>
<trkpt lat="46.40762711" lon="8.64984131"><ele></ele><time>2014-4-20T17:30:35Z</time></trkpt>
<trkpt lat="46.40762711" lon="8.64997959"><ele></ele><time>2014-4-20T17:30:38Z</time></trkpt>
<trkpt lat="46.40768814" lon="8.65001583"><ele></ele><time>2014-4-20T17:30:41Z</time></trkpt>
<trkpt lat="46.40771866" lon="8.65001488"><ele></ele><time>2014-4-20T17:30:44Z</time></trkpt>
<trkpt lat="46.40783310" lon="8.65005589"><ele></ele><time>2014-4-20T17:30:47Z</time></trkpt>
<trkpt lat="46.40797043" lon="8.65008163"><ele></ele><time>2014-4-20T17:30:50Z</time></trkpt>
<trkpt lat="46.40810013" lon="8.65012074"><ele></ele><time>2014-4-20T17:30:53Z</time></trkpt>
<trkpt lat="46.40825272" lon="8.65012455"><ele></ele><time>2014-4-20T17:30:56Z</time></trkpt>
<trkpt lat="46.40845871" lon="8.65011120"><ele></ele><time>2014-4-20T17:30:59Z</time></trkpt>
<trkpt lat="46.40857697" lon="8.65015316"><ele></ele><time>2014-4-20T17:31:2Z</time></trkpt>
<trkpt lat="46.40866852" lon="8.65019417"><ele></ele><time>2014-4-20T17:31:5Z</time></trkpt>
<trkpt lat="46.40881348" lon="8.65021515"><ele></ele><time>2014-4-20T17:31:8Z</time></trkpt>
<trkpt lat="46.40894318" lon="8.65018559"><ele></ele><time>2014-4-20T17:31:11Z</time></trkpt>
<trkpt lat="46.40905762" lon="8.65014362"><ele></ele><time>2014-4-20T17:31:14Z</time></trkpt>
<trkpt lat="46.40920258" lon="8.65006733"><ele></ele><time>2014-4-20T17:31:17Z</time></trkpt>
<trkpt lat="46.40933228" lon="8.64999962"><ele></ele><time>2014-4-20T17:31:20Z</time></trkpt>
<trkpt lat="46.40945053" lon="8.64993000"><ele></ele><time>2014-4-20T17:31:23Z</time></trkpt>
<trkpt lat="46.40957260" lon="8.64980793"><ele></ele><time>2014-4-20T17:31:26Z</time></trkpt>
<trkpt lat="46.40958405" lon="8.64986801"><ele></ele><time>2014-4-20T17:31:29Z</time></trkpt>
<trkpt lat="46.40956879" lon="8.64987946"><ele></ele><time>2014-4-20T17:31:32Z</time></trkpt>
<trkpt lat="46.40940857" lon="8.65000439"><ele></ele><time>2014-4-20T17:31:35Z</time></trkpt>
<trkpt lat="46.40932846" lon="8.65014553"><ele></ele><time>2014-4-20T17:31:38Z</time></trkpt>
<trkpt lat="46.40929794" lon="8.65021992"><ele></ele><time>2014-4-20T17:31:41Z</time></trkpt>
<trkpt lat="46.40922546" lon="8.65034676"><ele></ele><time>2014-4-20T17:31:44Z</time></trkpt>
<trkpt lat="46.40920639" lon="8.65038967"><ele></ele><time>2014-4-20T17:31:47Z</time></trkpt>
<trkpt lat="46.40914917" lon="8.65043640"><ele></ele><time>2014-4-20T17:31:50Z</time></trkpt>
<trkpt lat="46.40906525" lon="8.65043926"><ele></ele><time>2014-4-20T17:31:53Z</time></trkpt>
<trkpt lat="46.40895462" lon="8.65044022"><ele></ele><time>2014-4-20T17:31:56Z</time></trkpt>
<trkpt lat="46.40892792" lon="8.65053082"><ele></ele><time>2014-4-20T17:31:59Z</time></trkpt>
<trkpt lat="46.40900040" lon="8.65058327"><ele></ele><time>2014-4-20T17:32:2Z</time></trkpt>
<trkpt lat="46.40917206" lon="8.65055656"><ele></ele><time>2014-4-20T17:32:5Z</time></trkpt>
<trkpt lat="46.40927887" lon="8.65052128"><ele></ele><time>2014-4-20T17:32:8Z</time></trkpt>
<trkpt lat="46.40941238" lon="8.65050602"><ele></ele><time>2014-4-20T17:32:11Z</time></trkpt>
<trkpt lat="46.40950775" lon="8.65044689"><ele></ele><time>2014-4-20T17:32:14Z</time></trkpt>
<trkpt lat="46.40962601" lon="8.65034008"><ele></ele><time>2014-4-20T17:32:17Z</time></trkpt>
<trkpt lat="46.40975189" lon="8.65019035"><ele></ele><time>2014-4-20T17:32:20Z</time></trkpt>
<trkpt lat="46.40982819" lon="8.65004826"><ele></ele><time>2014-4-20T17:32:23Z</time></trkpt>
<trkpt lat="46.40991592" lon="8.64987469"><ele></ele><time>2014-4-20T17:32:26Z</time></trkpt>
<trkpt lat="46.40993118" lon="8.64984035"><ele></ele><time>2014-4-20T17:32:29Z</time></trkpt>
<trkpt lat="46.40995789" lon="8.64986515"><ele></ele><time>2014-4-20T17:32:32Z</time></trkpt>
<trkpt lat="46.40994263" lon="8.64988422"><ele></ele><time>2014-4-20T17:32:35Z</time></trkpt>
<trkpt lat="46.40985107" lon="8.65005589"><ele></ele><time>2014-4-20T17:32:38Z</time></trkpt>
<trkpt lat="46.40981674" lon="8.65023232"><ele></ele><time>2014-4-20T17:32:41Z</time></trkpt>
<trkpt lat="46.40975952" lon="8.65043163"><ele></ele><time>2014-4-20T17:32:44Z</time></trkpt>
<trkpt lat="46.40970230" lon="8.65053368"><ele></ele><time>2014-4-20T17:32:47Z</time></trkpt>
<trkpt lat="46.40960693" lon="8.65073872"><ele></ele><time>2014-4-20T17:32:50Z</time></trkpt>
<trkpt lat="46.40955353" lon="8.65091038"><ele></ele><time>2014-4-20T17:32:53Z</time></trkpt>
<trkpt lat="46.40946579" lon="8.65098572"><ele></ele><time>2014-4-20T17:32:56Z</time></trkpt>
<trkpt lat="46.40931320" lon="8.65096855"><ele></ele><time>2014-4-20T17:32:59Z</time></trkpt>
<trkpt lat="46.40917206" lon="8.65093899"><ele></ele><time>2014-4-20T17:33:2Z</time></trkpt>
<trkpt lat="46.40902710" lon="8.65087318"><ele></ele><time>2014-4-20T17:33:5Z</time></trkpt>
<trkpt lat="46.40895081" lon="8.65088177"><ele></ele><time>2014-4-20T17:33:8Z</time></trkpt>
<trkpt lat="46.40894318" lon="8.65101624"><ele></ele><time>2014-4-20T17:33:11Z</time></trkpt>
<trkpt lat="46.40901947" lon="8.65105343"><ele></ele><time>2014-4-20T17:33:14Z</time></trkpt>
<trkpt lat="46.40906906" lon="8.65102768"><ele></ele><time>2014-4-20T17:33:17Z</time></trkpt>
<trkpt lat="46.40919876" lon="8.65101147"><ele></ele><time>2014-4-20T17:33:20Z</time></trkpt>
<trkpt lat="46.40922546" lon="8.65100670"><ele></ele><time>2014-4-20T17:33:23Z</time></trkpt>
<trkpt lat="46.40930557" lon="8.65104103"><ele></ele><time>2014-4-20T17:33:26Z</time></trkpt>
<trkpt lat="46.40939331" lon="8.65102482"><ele></ele><time>2014-4-20T17:33:29Z</time></trkpt>
<trkpt lat="46.40946960" lon="8.65104580"><ele></ele><time>2014-4-20T17:33:32Z</time></trkpt>
<trkpt lat="46.40956497" lon="8.65105724"><ele></ele><time>2014-4-20T17:33:35Z</time></trkpt>
<trkpt lat="46.40960312" lon="8.65107727"><ele></ele><time>2014-4-20T17:33:38Z</time></trkpt>
<trkpt lat="46.40975571" lon="8.65107536"><ele></ele><time>2014-4-20T17:33:41Z</time></trkpt>
<trkpt lat="46.40986252" lon="8.65102577"><ele></ele><time>2014-4-20T17:33:44Z</time></trkpt>
<trkpt lat="46.40997314" lon="8.65091324"><ele></ele><time>2014-4-20T17:33:47Z</time></trkpt>
<trkpt lat="46.41008759" lon="8.65080261"><ele></ele><time>2014-4-20T17:33:50Z</time></trkpt>
<trkpt lat="46.41016388" lon="8.65068245"><ele></ele><time>2014-4-20T17:33:53Z</time></trkpt>
<trkpt lat="46.41027451" lon="8.65055466"><ele></ele><time>2014-4-20T17:33:56Z</time></trkpt>
<trkpt lat="46.41028976" lon="8.65054893"><ele></ele><time>2014-4-20T17:33:59Z</time></trkpt>
<trkpt lat="46.41030502" lon="8.65060329"><ele></ele><time>2014-4-20T17:34:2Z</time></trkpt>
<trkpt lat="46.41029358" lon="8.65061474"><ele></ele><time>2014-4-20T17:34:5Z</time></trkpt>
<trkpt lat="46.41019821" lon="8.65073109"><ele></ele><time>2014-4-20T17:34:8Z</time></trkpt>
<trkpt lat="46.41013336" lon="8.65086746"><ele></ele><time>2014-4-20T17:34:11Z</time></trkpt>
<trkpt lat="46.41006088" lon="8.65101528"><ele></ele><time>2014-4-20T17:34:14Z</time></trkpt>
<trkpt lat="46.40998459" lon="8.65117741"><ele></ele><time>2014-4-20T17:34:17Z</time></trkpt>
<trkpt lat="46.40991974" lon="8.65129375"><ele></ele><time>2014-4-20T17:34:20Z</time></trkpt>
<trkpt lat="46.40982056" lon="8.65137672"><ele></ele><time>2014-4-20T17:34:23Z</time></trkpt>
<trkpt lat="46.40975571" lon="8.65148258"><ele></ele><time>2014-4-20T17:34:26Z</time></trkpt>
<trkpt lat="46.40977478" lon="8.65155125"><ele></ele><time>2014-4-20T17:34:29Z</time></trkpt>
<trkpt lat="46.40987396" lon="8.65155888"><ele></ele><time>2014-4-20T17:34:32Z</time></trkpt>
<trkpt lat="46.40997314" lon="8.65145493"><ele></ele><time>2014-4-20T17:34:35Z</time></trkpt>
<trkpt lat="46.41011810" lon="8.65131187"><ele></ele><time>2014-4-20T17:34:38Z</time></trkpt>
<trkpt lat="46.41026688" lon="8.65117645"><ele></ele><time>2014-4-20T17:34:41Z</time></trkpt>
<trkpt lat="46.41040039" lon="8.65104389"><ele></ele><time>2014-4-20T17:34:44Z</time></trkpt>
<trkpt lat="46.41053009" lon="8.65096569"><ele></ele><time>2014-4-20T17:34:47Z</time></trkpt>
<trkpt lat="46.41072464" lon="8.65085411"><ele></ele><time>2014-4-20T17:34:50Z</time></trkpt>
<trkpt lat="46.41085052" lon="8.65073681"><ele></ele><time>2014-4-20T17:34:53Z</time></trkpt>
<trkpt lat="46.41094971" lon="8.65063763"><ele></ele><time>2014-4-20T17:34:56Z</time></trkpt>
<trkpt lat="46.41102982" lon="8.65061283"><ele></ele><time>2014-4-20T17:34:59Z</time></trkpt>
<trkpt lat="46.41112518" lon="8.65065861"><ele></ele><time>2014-4-20T17:35:2Z</time></trkpt>
<trkpt lat="46.41122437" lon="8.65071964"><ele></ele><time>2014-4-20T17:35:5Z</time></trkpt>
<trkpt lat="46.41134644" lon="8.65078640"><ele></ele><time>2014-4-20T17:35:8Z</time></trkpt>
<trkpt lat="46.41146469" lon="8.65078259"><ele></ele><time>2014-4-20T17:35:11Z</time></trkpt>
<trkpt lat="46.41146469" lon="8.65078735"><ele></ele><time>2014-4-20T17:35:14Z</time></trkpt>
<trkpt lat="46.41152573" lon="8.65075016"><ele></ele><time>2014-4-20T17:35:17Z</time></trkpt>
<trkpt lat="46.41161346" lon="8.65082359"><ele></ele><time>2014-4-20T17:35:20Z</time></trkpt>
<trkpt lat="46.41172409" lon="8.65088558"><ele></ele><time>2014-4-20T17:35:23Z</time></trkpt>
<trkpt lat="46.41186142" lon="8.65087891"><ele></ele><time>2014-4-20T17:35:26Z</time></trkpt>
<trkpt lat="46.41195679" lon="8.65086842"><ele></ele><time>2014-4-20T17:35:29Z</time></trkpt>
<trkpt lat="46.41196823" lon="8.65087318"><ele></ele><time>2014-4-20T17:35:32Z</time></trkpt>
<trkpt lat="46.41196442" lon="8.65094852"><ele></ele><time>2014-4-20T17:35:35Z</time></trkpt>
<trkpt lat="46.41193771" lon="8.65096760"><ele></ele><time>2014-4-20T17:35:38Z</time></trkpt>
<trkpt lat="46.41181564" lon="8.65105343"><ele></ele><time>2014-4-20T17:35:41Z</time></trkpt>
<trkpt lat="46.41170120" lon="8.65106773"><ele></ele><time>2014-4-20T17:35:44Z</time></trkpt>
<trkpt lat="46.41156387" lon="8.65102482"><ele></ele><time>2014-4-20T17:35:47Z</time></trkpt>
<trkpt lat="46.41146469" lon="8.65098858"><ele></ele><time>2014-4-20T17:35:50Z</time></trkpt>
<trkpt lat="46.41131973" lon="8.65094280"><ele></ele><time>2014-4-20T17:35:53Z</time></trkpt>
<trkpt lat="46.41129303" lon="8.65095997"><ele></ele><time>2014-4-20T17:35:56Z</time></trkpt>
<trkpt lat="46.41128922" lon="8.65108681"><ele></ele><time>2014-4-20T17:35:59Z</time></trkpt>
<trkpt lat="46.41135025" lon="8.65111446"><ele></ele><time>2014-4-20T17:36:2Z</time></trkpt>
<trkpt lat="46.41152954" lon="8.65111542"><ele></ele><time>2014-4-20T17:36:5Z</time></trkpt>
<trkpt lat="46.41163635" lon="8.65118122"><ele></ele><time>2014-4-20T17:36:8Z</time></trkpt>
<trkpt lat="46.41178513" lon="8.65127277"><ele></ele><time>2014-4-20T17:36:11Z</time></trkpt>
<trkpt lat="46.41192627" lon="8.65130615"><ele></ele><time>2014-4-20T17:36:14Z</time></trkpt>
<trkpt lat="46.41208267" lon="8.65129757"><ele></ele><time>2014-4-20T17:36:17Z</time></trkpt>
<trkpt lat="46.41223907" lon="8.65126896"><ele></ele><time>2014-4-20T17:36:20Z</time></trkpt>
<trkpt lat="46.41242218" lon="8.65127182"><ele></ele><time>2014-4-20T17:36:23Z</time></trkpt>
<trkpt lat="46.41253281" lon="8.65132046"><ele></ele><time>2014-4-20T17:36:26Z</time></trkpt>
<trkpt lat="46.41266251" lon="8.65138817"><ele></ele><time>2014-4-20T17:36:29Z</time></trkpt>
<trkpt lat="46.41276169" lon="8.65143681"><ele></ele><time>2014-4-20T17:36:32Z</time></trkpt>
<trkpt lat="46.41283417" lon="8.65147209"><ele></ele><time>2014-4-20T17:36:35Z</time></trkpt>
<trkpt lat="46.41292953" lon="8.65146828"><ele></ele><time>2014-4-20T17:36:38Z</time></trkpt>
<trkpt lat="46.41305161" lon="8.65143394"><ele></ele><time>2014-4-20T17:36:41Z</time></trkpt>
<trkpt lat="46.41313553" lon="8.65140724"><ele></ele><time>2014-4-20T17:36:44Z</time></trkpt>
<trkpt lat="46.41324615" lon="8.65137672"><ele></ele><time>2014-4-20T17:36:47Z</time></trkpt>
<trkpt lat="46.41333008" lon="8.65135479"><ele></ele><time>2014-4-20T17:36:50Z</time></trkpt>
<trkpt lat="46.41344452" lon="8.65127468"><ele></ele><time>2014-4-20T17:36:53Z</time></trkpt>
<trkpt lat="46.41352844" lon="8.65120506"><ele></ele><time>2014-4-20T17:36:56Z</time></trkpt>
<trkpt lat="46.41356659" lon="8.65116787"><ele></ele><time>2014-4-20T17:36:59Z</time></trkpt>
<trkpt lat="46.41367340" lon="8.65105343"><ele></ele><time>2014-4-20T17:37:2Z</time></trkpt>
<trkpt lat="46.41373444" lon="8.65094090"><ele></ele><time>2014-4-20T17:37:5Z</time></trkpt>
<trkpt lat="46.41381073" lon="8.65081692"><ele></ele><time>2014-4-20T17:37:8Z</time></trkpt>
<trkpt lat="46.41388702" lon="8.65070629"><ele></ele><time>2014-4-20T17:37:11Z</time></trkpt>
<trkpt lat="46.41397095" lon="8.65058517"><ele></ele><time>2014-4-20T17:37:14Z</time></trkpt>
<trkpt lat="46.41407394" lon="8.65048313"><ele></ele><time>2014-4-20T17:37:17Z</time></trkpt>
<trkpt lat="46.41419601" lon="8.65039539"><ele></ele><time>2014-4-20T17:37:20Z</time></trkpt>
<trkpt lat="46.41427994" lon="8.65035820"><ele></ele><time>2014-4-20T17:37:23Z</time></trkpt>
<trkpt lat="46.41440964" lon="8.65032101"><ele></ele><time>2014-4-20T17:37:26Z</time></trkpt>
<trkpt lat="46.41444397" lon="8.65030384"><ele></ele><time>2014-4-20T17:37:29Z</time></trkpt>
<trkpt lat="46.41455078" lon="8.65024757"><ele></ele><time>2014-4-20T17:37:32Z</time></trkpt>
<trkpt lat="46.41456985" lon="8.65032768"><ele></ele><time>2014-4-20T17:37:35Z</time></trkpt>
<trkpt lat="46.41455078" lon="8.65036106"><ele></ele><time>2014-4-20T17:37:38Z</time></trkpt>
<trkpt lat="46.41448212" lon="8.65038395"><ele></ele><time>2014-4-20T17:37:41Z</time></trkpt>
<trkpt lat="46.41439438" lon="8.65042019"><ele></ele><time>2014-4-20T17:37:44Z</time></trkpt>
<trkpt lat="46.41428757" lon="8.65048790"><ele></ele><time>2014-4-20T17:37:47Z</time></trkpt>
<trkpt lat="46.41415405" lon="8.65050030"><ele></ele><time>2014-4-20T17:37:50Z</time></trkpt>
<trkpt lat="46.41406250" lon="8.65056419"><ele></ele><time>2014-4-20T17:37:53Z</time></trkpt>
<trkpt lat="46.41404343" lon="8.65063763"><ele></ele><time>2014-4-20T17:37:56Z</time></trkpt>
<trkpt lat="46.41410065" lon="8.65070915"><ele></ele><time>2014-4-20T17:37:59Z</time></trkpt>
<trkpt lat="46.41419983" lon="8.65065861"><ele></ele><time>2014-4-20T17:38:2Z</time></trkpt>
<trkpt lat="46.41427231" lon="8.65057564"><ele></ele><time>2014-4-20T17:38:5Z</time></trkpt>
<trkpt lat="46.41445160" lon="8.65051270"><ele></ele><time>2014-4-20T17:38:8Z</time></trkpt>
<trkpt lat="46.41463852" lon="8.65044308"><ele></ele><time>2014-4-20T17:38:11Z</time></trkpt>
<trkpt lat="46.41483688" lon="8.65038586"><ele></ele><time>2014-4-20T17:38:14Z</time></trkpt>
<trkpt lat="46.41504288" lon="8.65036297"><ele></ele><time>2014-4-20T17:38:17Z</time></trkpt>
<trkpt lat="46.41515732" lon="8.65035057"><ele></ele><time>2014-4-20T17:38:20Z</time></trkpt>
<trkpt lat="46.41526794" lon="8.65036678"><ele></ele><time>2014-4-20T17:38:23Z</time></trkpt>
<trkpt lat="46.41540146" lon="8.65040207"><ele></ele><time>2014-4-20T17:38:26Z</time></trkpt>
<trkpt lat="46.41550827" lon="8.65043736"><ele></ele><time>2014-4-20T17:38:29Z</time></trkpt>
<trkpt lat="46.41560745" lon="8.65046501"><ele></ele><time>2014-4-20T17:38:32Z</time></trkpt>
<trkpt lat="46.41570663" lon="8.65054226"><ele></ele><time>2014-4-20T17:38:35Z</time></trkpt>
<trkpt lat="46.41581726" lon="8.65063763"><ele></ele><time>2014-4-20T17:38:38Z</time></trkpt>
<trkpt lat="46.41596985" lon="8.65072441"><ele></ele><time>2014-4-20T17:38:41Z</time></trkpt>
<trkpt lat="46.41611862" lon="8.65066242"><ele></ele><time>2014-4-20T17:38:44Z</time></trkpt>
<trkpt lat="46.41627884" lon="8.65052509"><ele></ele><time>2014-4-20T17:38:47Z</time></trkpt>
<trkpt lat="46.41641235" lon="8.65043545"><ele></ele><time>2014-4-20T17:38:50Z</time></trkpt>
<trkpt lat="46.41654968" lon="8.65040207"><ele></ele><time>2014-4-20T17:38:53Z</time></trkpt>
<trkpt lat="46.41667938" lon="8.65040779"><ele></ele><time>2014-4-20T17:38:56Z</time></trkpt>
<trkpt lat="46.41681671" lon="8.65039921"><ele></ele><time>2014-4-20T17:38:59Z</time></trkpt>
<trkpt lat="46.41697311" lon="8.65050030"><ele></ele><time>2014-4-20T17:39:2Z</time></trkpt>
<trkpt lat="46.41708755" lon="8.65060616"><ele></ele><time>2014-4-20T17:39:5Z</time></trkpt>
<trkpt lat="46.41719818" lon="8.65082073"><ele></ele><time>2014-4-20T17:39:8Z</time></trkpt>
<trkpt lat="46.41727066" lon="8.65094185"><ele></ele><time>2014-4-20T17:39:11Z</time></trkpt>
<trkpt lat="46.41735458" lon="8.65107727"><ele></ele><time>2014-4-20T17:39:14Z</time></trkpt>
<trkpt lat="46.41747284" lon="8.65122128"><ele></ele><time>2014-4-20T17:39:17Z</time></trkpt>
<trkpt lat="46.41757202" lon="8.65131378"><ele></ele><time>2014-4-20T17:39:20Z</time></trkpt>
<trkpt lat="46.41766357" lon="8.65137672"><ele></ele><time>2014-4-20T17:39:23Z</time></trkpt>
<trkpt lat="46.41779327" lon="8.65144730"><ele></ele><time>2014-4-20T17:39:26Z</time></trkpt>
<trkpt lat="46.41792297" lon="8.65148258"><ele></ele><time>2014-4-20T17:39:29Z</time></trkpt>
<trkpt lat="46.41803741" lon="8.65152359"><ele></ele><time>2014-4-20T17:39:32Z</time></trkpt>
<trkpt lat="46.41827393" lon="8.65157890"><ele></ele><time>2014-4-20T17:39:35Z</time></trkpt>
<trkpt lat="46.41840363" lon="8.65170956"><ele></ele><time>2014-4-20T17:39:38Z</time></trkpt>
<trkpt lat="46.41850662" lon="8.65183640"><ele></ele><time>2014-4-20T17:39:41Z</time></trkpt>
<trkpt lat="46.41859436" lon="8.65195370"><ele></ele><time>2014-4-20T17:39:44Z</time></trkpt>
<trkpt lat="46.41871643" lon="8.65211487"><ele></ele><time>2014-4-20T17:39:47Z</time></trkpt>
<trkpt lat="46.41883469" lon="8.65224743"><ele></ele><time>2014-4-20T17:39:50Z</time></trkpt>
<trkpt lat="46.41897202" lon="8.65226269"><ele></ele><time>2014-4-20T17:39:53Z</time></trkpt>
<trkpt lat="46.41915512" lon="8.65221596"><ele></ele><time>2014-4-20T17:39:56Z</time></trkpt>
<trkpt lat="46.41925812" lon="8.65229416"><ele></ele><time>2014-4-20T17:39:59Z</time></trkpt>
<trkpt lat="46.41935730" lon="8.65244102"><ele></ele><time>2014-4-20T17:40:2Z</time></trkpt>
<trkpt lat="46.41946411" lon="8.65261269"><ele></ele><time>2014-4-20T17:40:5Z</time></trkpt>
<trkpt lat="46.41957474" lon="8.65275192"><ele></ele><time>2014-4-20T17:40:8Z</time></trkpt>
<trkpt lat="46.41969299" lon="8.65287971"><ele></ele><time>2014-4-20T17:40:11Z</time></trkpt>
<trkpt lat="46.41982651" lon="8.65298080"><ele></ele><time>2014-4-20T17:40:14Z</time></trkpt>
<trkpt lat="46.41993332" lon="8.65301991"><ele></ele><time>2014-4-20T17:40:17Z</time></trkpt>
<trkpt lat="46.42008591" lon="8.65304756"><ele></ele><time>2014-4-20T17:40:20Z</time></trkpt>
<trkpt lat="46.42029190" lon="8.65307045"><ele></ele><time>2014-4-20T17:40:23Z</time></trkpt>
<trkpt lat="46.42043304" lon="8.65320396"><ele></ele><time>2014-4-20T17:40:26Z</time></trkpt>
<trkpt lat="46.42057037" lon="8.65329456"><ele></ele><time>2014-4-20T17:40:29Z</time></trkpt>
<trkpt lat="46.42079926" lon="8.65331268"><ele></ele><time>2014-4-20T17:40:32Z</time></trkpt>
<trkpt lat="46.42097092" lon="8.65332317"><ele></ele><time>2014-4-20T17:40:35Z</time></trkpt>
<trkpt lat="46.42113876" lon="8.65342426"><ele></ele><time>2014-4-20T17:40:38Z</time></trkpt>
<trkpt lat="46.42129517" lon="8.65364170"><ele></ele><time>2014-4-20T17:40:41Z</time></trkpt>
<trkpt lat="46.42145538" lon="8.65388775"><ele></ele><time>2014-4-20T17:40:44Z</time></trkpt>
<trkpt lat="46.42162704" lon="8.65414047"><ele></ele><time>2014-4-20T17:40:47Z</time></trkpt>
<trkpt lat="46.42184830" lon="8.65447140"><ele></ele><time>2014-4-20T17:40:50Z</time></trkpt>
<trkpt lat="46.42202377" lon="8.65474319"><ele></ele><time>2014-4-20T17:40:53Z</time></trkpt>
<trkpt lat="46.42226028" lon="8.65512371"><ele></ele><time>2014-4-20T17:40:56Z</time></trkpt>
<trkpt lat="46.42237091" lon="8.65528488"><ele></ele><time>2014-4-20T17:40:59Z</time></trkpt>
<trkpt lat="46.42258072" lon="8.65546322"><ele></ele><time>2014-4-20T17:41:2Z</time></trkpt>
<trkpt lat="46.42302704" lon="8.65558910"><ele></ele><time>2014-4-20T17:41:5Z</time></trkpt>
<trkpt lat="46.42327881" lon="8.65564632"><ele></ele><time>2014-4-20T17:41:8Z</time></trkpt>
<trkpt lat="46.42363739" lon="8.65577316"><ele></ele><time>2014-4-20T17:41:11Z</time></trkpt>
<trkpt lat="46.42395782" lon="8.65581226"><ele></ele><time>2014-4-20T17:41:14Z</time></trkpt>
<trkpt lat="46.42423630" lon="8.65573311"><ele></ele><time>2014-4-20T17:41:17Z</time></trkpt>
<trkpt lat="46.42451477" lon="8.65568924"><ele></ele><time>2014-4-20T17:41:20Z</time></trkpt>
<trkpt lat="46.42471313" lon="8.65579319"><ele></ele><time>2014-4-20T17:41:23Z</time></trkpt>
<trkpt lat="46.42491531" lon="8.65590858"><ele></ele><time>2014-4-20T17:41:26Z</time></trkpt>
<trkpt lat="46.42509079" lon="8.65595341"><ele></ele><time>2014-4-20T17:41:29Z</time></trkpt>
<trkpt lat="46.42527771" lon="8.65596771"><ele></ele><time>2014-4-20T17:41:32Z</time></trkpt>
<trkpt lat="46.42546082" lon="8.65604115"><ele></ele><time>2014-4-20T17:41:35Z</time></trkpt>
<trkpt lat="46.42562485" lon="8.65608692"><ele></ele><time>2014-4-20T17:41:38Z</time></trkpt>
<trkpt lat="46.42574310" lon="8.65613461"><ele></ele><time>2014-4-20T17:41:41Z</time></trkpt>
<trkpt lat="46.42598343" lon="8.65618706"><ele></ele><time>2014-4-20T17:41:44Z</time></trkpt>
<trkpt lat="46.42613602" lon="8.65609837"><ele></ele><time>2014-4-20T17:41:47Z</time></trkpt>
<trkpt lat="46.42622375" lon="8.65603447"><ele></ele><time>2014-4-20T17:41:50Z</time></trkpt>
<trkpt lat="46.42635727" lon="8.65599346"><ele></ele><time>2014-4-20T17:41:53Z</time></trkpt>
<trkpt lat="46.42644882" lon="8.65598202"><ele></ele><time>2014-4-20T17:41:56Z</time></trkpt>
<trkpt lat="46.42653275" lon="8.65596199"><ele></ele><time>2014-4-20T17:41:59Z</time></trkpt>
<trkpt lat="46.42665863" lon="8.65590763"><ele></ele><time>2014-4-20T17:42:2Z</time></trkpt>
<trkpt lat="46.42678833" lon="8.65584469"><ele></ele><time>2014-4-20T17:42:5Z</time></trkpt>
<trkpt lat="46.42691040" lon="8.65580177"><ele></ele><time>2014-4-20T17:42:8Z</time></trkpt>
<trkpt lat="46.42705917" lon="8.65575600"><ele></ele><time>2014-4-20T17:42:11Z</time></trkpt>
<trkpt lat="46.42710876" lon="8.65573883"><ele></ele><time>2014-4-20T17:42:14Z</time></trkpt>
<trkpt lat="46.42724228" lon="8.65581036"><ele></ele><time>2014-4-20T17:42:17Z</time></trkpt>
<trkpt lat="46.42731857" lon="8.65595245"><ele></ele><time>2014-4-20T17:42:20Z</time></trkpt>
<trkpt lat="46.42735672" lon="8.65612984"><ele></ele><time>2014-4-20T17:42:23Z</time></trkpt>
<trkpt lat="46.42737961" lon="8.65626240"><ele></ele><time>2014-4-20T17:42:26Z</time></trkpt>
<trkpt lat="46.42740250" lon="8.65643597"><ele></ele><time>2014-4-20T17:42:29Z</time></trkpt>
<trkpt lat="46.42744064" lon="8.65657711"><ele></ele><time>2014-4-20T17:42:32Z</time></trkpt>
<trkpt lat="46.42749405" lon="8.65675831"><ele></ele><time>2014-4-20T17:42:35Z</time></trkpt>
<trkpt lat="46.42752838" lon="8.65678406"><ele></ele><time>2014-4-20T17:42:38Z</time></trkpt>
<trkpt lat="46.42763901" lon="8.65682602"><ele></ele><time>2014-4-20T17:42:41Z</time></trkpt>
<trkpt lat="46.42768860" lon="8.65703106"><ele></ele><time>2014-4-20T17:42:44Z</time></trkpt>
<trkpt lat="46.42779160" lon="8.65723896"><ele></ele><time>2014-4-20T17:42:47Z</time></trkpt>
<trkpt lat="46.42790985" lon="8.65723991"><ele></ele><time>2014-4-20T17:42:50Z</time></trkpt>
<trkpt lat="46.42800903" lon="8.65718269"><ele></ele><time>2014-4-20T17:42:53Z</time></trkpt>
<trkpt lat="46.42800903" lon="8.65718269"><ele></ele><time>2014-4-20T17:42:56Z</time></trkpt>
<trkpt lat="46.42810822" lon="8.65715027"><ele></ele><time>2014-4-20T17:42:59Z</time></trkpt>
<trkpt lat="46.42815781" lon="8.65716171"><ele></ele><time>2014-4-20T17:43:2Z</time></trkpt>
<trkpt lat="46.42830276" lon="8.65728664"><ele></ele><time>2014-4-20T17:43:5Z</time></trkpt>
<trkpt lat="46.42837524" lon="8.65736961"><ele></ele><time>2014-4-20T17:43:8Z</time></trkpt>
<trkpt lat="46.42852020" lon="8.65753746"><ele></ele><time>2014-4-20T17:43:11Z</time></trkpt>
<trkpt lat="46.42865753" lon="8.65775776"><ele></ele><time>2014-4-20T17:43:14Z</time></trkpt>
<trkpt lat="46.42873764" lon="8.65792370"><ele></ele><time>2014-4-20T17:43:17Z</time></trkpt>
<trkpt lat="46.42878723" lon="8.65817165"><ele></ele><time>2014-4-20T17:43:20Z</time></trkpt>
<trkpt lat="46.42884445" lon="8.65840435"><ele></ele><time>2014-4-20T17:43:23Z</time></trkpt>
<trkpt lat="46.42895889" lon="8.65854836"><ele></ele><time>2014-4-20T17:43:26Z</time></trkpt>
<trkpt lat="46.42914963" lon="8.65871525"><ele></ele><time>2014-4-20T17:43:29Z</time></trkpt>
<trkpt lat="46.42929459" lon="8.65882397"><ele></ele><time>2014-4-20T17:43:32Z</time></trkpt>
<trkpt lat="46.42953110" lon="8.65888309"><ele></ele><time>2014-4-20T17:43:35Z</time></trkpt>
<trkpt lat="46.42988205" lon="8.65888214"><ele></ele><time>2014-4-20T17:43:38Z</time></trkpt>
<trkpt lat="46.43015289" lon="8.65904522"><ele></ele><time>2014-4-20T17:43:41Z</time></trkpt>
<trkpt lat="46.43057632" lon="8.65951347"><ele></ele><time>2014-4-20T17:43:44Z</time></trkpt>
<trkpt lat="46.43092728" lon="8.65991879"><ele></ele><time>2014-4-20T17:43:47Z</time></trkpt>
<trkpt lat="46.43121338" lon="8.66022682"><ele></ele><time>2014-4-20T17:43:50Z</time></trkpt>
<trkpt lat="46.43134689" lon="8.66038418"><ele></ele><time>2014-4-20T17:43:53Z</time></trkpt>
<trkpt lat="46.43143845" lon="8.66050339"><ele></ele><time>2014-4-20T17:43:56Z</time></trkpt>
<trkpt lat="46.43143845" lon="8.66050339"><ele></ele><time>2014-4-20T17:43:59Z</time></trkpt>
<trkpt lat="46.43150711" lon="8.66059208"><ele></ele><time>2014-4-20T17:44:2Z</time></trkpt>
<trkpt lat="46.43153381" lon="8.66062546"><ele></ele><time>2014-4-20T17:44:5Z</time></trkpt>
<trkpt lat="46.43167496" lon="8.66073036"><ele></ele><time>2014-4-20T17:44:8Z</time></trkpt>
<trkpt lat="46.43176270" lon="8.66075420"><ele></ele><time>2014-4-20T17:44:11Z</time></trkpt>
<trkpt lat="46.43212891" lon="8.66073895"><ele></ele><time>2014-4-20T17:44:14Z</time></trkpt>
<trkpt lat="46.43236542" lon="8.66077900"><ele></ele><time>2014-4-20T17:44:17Z</time></trkpt>
<trkpt lat="46.43260956" lon="8.66095543"><ele></ele><time>2014-4-20T17:44:20Z</time></trkpt>
<trkpt lat="46.43290329" lon="8.66125488"><ele></ele><time>2014-4-20T17:44:23Z</time></trkpt>
<trkpt lat="46.43309021" lon="8.66148090"><ele></ele><time>2014-4-20T17:44:26Z</time></trkpt>
<trkpt lat="46.43321609" lon="8.66169357"><ele></ele><time>2014-4-20T17:44:29Z</time></trkpt>
<trkpt lat="46.43321609" lon="8.66197300"><ele></ele><time>2014-4-20T17:44:32Z</time></trkpt>
<trkpt lat="46.43310165" lon="8.66241264"><ele></ele><time>2014-4-20T17:44:35Z</time></trkpt>
<trkpt lat="46.43314743" lon="8.66259575"><ele></ele><time>2014-4-20T17:44:38Z</time></trkpt>
<trkpt lat="46.43332291" lon="8.66282368"><ele></ele><time>2014-4-20T17:44:41Z</time></trkpt>
<trkpt lat="46.43340683" lon="8.66294956"><ele></ele><time>2014-4-20T17:44:44Z</time></trkpt>
<trkpt lat="46.43358994" lon="8.66316605"><ele></ele><time>2014-4-20T17:44:47Z</time></trkpt>
<trkpt lat="46.43374634" lon="8.66335106"><ele></ele><time>2014-4-20T17:44:50Z</time></trkpt>
<trkpt lat="46.43390274" lon="8.66344547"><ele></ele><time>2014-4-20T17:44:53Z</time></trkpt>
<trkpt lat="46.43407822" lon="8.66341782"><ele></ele><time>2014-4-20T17:44:56Z</time></trkpt>
<trkpt lat="46.43429565" lon="8.66334248"><ele></ele><time>2014-4-20T17:44:59Z</time></trkpt>
<trkpt lat="46.43444824" lon="8.66333771"><ele></ele><time>2014-4-20T17:45:2Z</time></trkpt>
<trkpt lat="46.43462372" lon="8.66332436"><ele></ele><time>2014-4-20T17:45:5Z</time></trkpt>
<trkpt lat="46.43477631" lon="8.66334057"><ele></ele><time>2014-4-20T17:45:8Z</time></trkpt>
<trkpt lat="46.43487167" lon="8.66324329"><ele></ele><time>2014-4-20T17:45:11Z</time></trkpt>
<trkpt lat="46.43501663" lon="8.66319942"><ele></ele><time>2014-4-20T17:45:14Z</time></trkpt>
<trkpt lat="46.43513489" lon="8.66320133"><ele></ele><time>2014-4-20T17:45:17Z</time></trkpt>
<trkpt lat="46.43527222" lon="8.66312218"><ele></ele><time>2014-4-20T17:45:20Z</time></trkpt>
<trkpt lat="46.43544388" lon="8.66300964"><ele></ele><time>2014-4-20T17:45:23Z</time></trkpt>
<trkpt lat="46.43560791" lon="8.66299534"><ele></ele><time>2014-4-20T17:45:26Z</time></trkpt>
<trkpt lat="46.43573761" lon="8.66309643"><ele></ele><time>2014-4-20T17:45:29Z</time></trkpt>
<trkpt lat="46.43587112" lon="8.66324234"><ele></ele><time>2014-4-20T17:45:32Z</time></trkpt>
<trkpt lat="46.43607330" lon="8.66343784"><ele></ele><time>2014-4-20T17:45:35Z</time></trkpt>
<trkpt lat="46.43625641" lon="8.66349125"><ele></ele><time>2014-4-20T17:45:38Z</time></trkpt>
<trkpt lat="46.43655014" lon="8.66348362"><ele></ele><time>2014-4-20T17:45:41Z</time></trkpt>
<trkpt lat="46.43682861" lon="8.66348553"><ele></ele><time>2014-4-20T17:45:44Z</time></trkpt>
<trkpt lat="46.43704224" lon="8.66343021"><ele></ele><time>2014-4-20T17:45:47Z</time></trkpt>
<trkpt lat="46.43723297" lon="8.66335392"><ele></ele><time>2014-4-20T17:45:50Z</time></trkpt>
<trkpt lat="46.43740845" lon="8.66327667"><ele></ele><time>2014-4-20T17:45:53Z</time></trkpt>
<trkpt lat="46.43754959" lon="8.66320133"><ele></ele><time>2014-4-20T17:45:56Z</time></trkpt>
<trkpt lat="46.43769455" lon="8.66304111"><ele></ele><time>2014-4-20T17:45:59Z</time></trkpt>
<trkpt lat="46.43779755" lon="8.66286659"><ele></ele><time>2014-4-20T17:46:2Z</time></trkpt>
<trkpt lat="46.43791580" lon="8.66267109"><ele></ele><time>2014-4-20T17:46:5Z</time></trkpt>
<trkpt lat="46.43802261" lon="8.66249943"><ele></ele><time>2014-4-20T17:46:8Z</time></trkpt>
<trkpt lat="46.43814850" lon="8.66228104"><ele></ele><time>2014-4-20T17:46:11Z</time></trkpt>
<trkpt lat="46.43820190" lon="8.66206932"><ele></ele><time>2014-4-20T17:46:14Z</time></trkpt>
<trkpt lat="46.43818665" lon="8.66200924"><ele></ele><time>2014-4-20T17:46:17Z</time></trkpt>
<trkpt lat="46.43810654" lon="8.66188812"><ele></ele><time>2014-4-20T17:46:20Z</time></trkpt>
<trkpt lat="46.43801117" lon="8.66177273"><ele></ele><time>2014-4-20T17:46:23Z</time></trkpt>
<trkpt lat="46.43797302" lon="8.66167831"><ele></ele><time>2014-4-20T17:46:26Z</time></trkpt>
<trkpt lat="46.43795013" lon="8.66153908"><ele></ele><time>2014-4-20T17:46:29Z</time></trkpt>
<trkpt lat="46.43793869" lon="8.66133118"><ele></ele><time>2014-4-20T17:46:32Z</time></trkpt>
<trkpt lat="46.43797302" lon="8.66132736"><ele></ele><time>2014-4-20T17:46:35Z</time></trkpt>
<trkpt lat="46.43795013" lon="8.66138935"><ele></ele><time>2014-4-20T17:46:38Z</time></trkpt>
<trkpt lat="46.43798447" lon="8.66158867"><ele></ele><time>2014-4-20T17:46:41Z</time></trkpt>
<trkpt lat="46.43806458" lon="8.66175461"><ele></ele><time>2014-4-20T17:46:44Z</time></trkpt>
<trkpt lat="46.43819046" lon="8.66176891"><ele></ele><time>2014-4-20T17:46:47Z</time></trkpt>
<trkpt lat="46.43829727" lon="8.66170597"><ele></ele><time>2014-4-20T17:46:50Z</time></trkpt>
<trkpt lat="46.43839645" lon="8.66164207"><ele></ele><time>2014-4-20T17:46:53Z</time></trkpt>
<trkpt lat="46.43849564" lon="8.66158962"><ele></ele><time>2014-4-20T17:46:56Z</time></trkpt>
<trkpt lat="46.43860245" lon="8.66154385"><ele></ele><time>2014-4-20T17:46:59Z</time></trkpt>
<trkpt lat="46.43870926" lon="8.66149807"><ele></ele><time>2014-4-20T17:47:2Z</time></trkpt>
<trkpt lat="46.43884277" lon="8.66146183"><ele></ele><time>2014-4-20T17:47:5Z</time></trkpt>
<trkpt lat="46.43897629" lon="8.66142273"><ele></ele><time>2014-4-20T17:47:8Z</time></trkpt>
<trkpt lat="46.43904877" lon="8.66139889"><ele></ele><time>2014-4-20T17:47:11Z</time></trkpt>
<trkpt lat="46.43916702" lon="8.66137600"><ele></ele><time>2014-4-20T17:47:14Z</time></trkpt>
<trkpt lat="46.43923569" lon="8.66130543"><ele></ele><time>2014-4-20T17:47:17Z</time></trkpt>
<trkpt lat="46.43923187" lon="8.66125679"><ele></ele><time>2014-4-20T17:47:20Z</time></trkpt>
<trkpt lat="46.43912888" lon="8.66118336"><ele></ele><time>2014-4-20T17:47:23Z</time></trkpt>
<trkpt lat="46.43905258" lon="8.66122627"><ele></ele><time>2014-4-20T17:47:26Z</time></trkpt>
<trkpt lat="46.43903351" lon="8.66123104"><ele></ele><time>2014-4-20T17:47:29Z</time></trkpt>
<trkpt lat="46.43888092" lon="8.66126156"><ele></ele><time>2014-4-20T17:47:32Z</time></trkpt>
<trkpt lat="46.43873978" lon="8.66126156"><ele></ele><time>2014-4-20T17:47:35Z</time></trkpt>
<trkpt lat="46.43861008" lon="8.66126537"><ele></ele><time>2014-4-20T17:47:38Z</time></trkpt>
<trkpt lat="46.43849564" lon="8.66121769"><ele></ele><time>2014-4-20T17:47:41Z</time></trkpt>
<trkpt lat="46.43839645" lon="8.66114426"><ele></ele><time>2014-4-20T17:47:44Z</time></trkpt>
<trkpt lat="46.43833160" lon="8.66107655"><ele></ele><time>2014-4-20T17:47:47Z</time></trkpt>
<trkpt lat="46.43837357" lon="8.66106129"><ele></ele><time>2014-4-20T17:47:50Z</time></trkpt>
<trkpt lat="46.43849182" lon="8.66118717"><ele></ele><time>2014-4-20T17:47:53Z</time></trkpt>
<trkpt lat="46.43860245" lon="8.66118813"><ele></ele><time>2014-4-20T17:47:56Z</time></trkpt>
<trkpt lat="46.43872070" lon="8.66111565"><ele></ele><time>2014-4-20T17:47:59Z</time></trkpt>
<trkpt lat="46.43880844" lon="8.66104984"><ele></ele><time>2014-4-20T17:48:2Z</time></trkpt>
<trkpt lat="46.43889618" lon="8.66097260"><ele></ele><time>2014-4-20T17:48:5Z</time></trkpt>
<trkpt lat="46.43899155" lon="8.66092587"><ele></ele><time>2014-4-20T17:48:8Z</time></trkpt>
<trkpt lat="46.43910980" lon="8.66084957"><ele></ele><time>2014-4-20T17:48:11Z</time></trkpt>
<trkpt lat="46.43921280" lon="8.66074562"><ele></ele><time>2014-4-20T17:48:14Z</time></trkpt>
<trkpt lat="46.43931961" lon="8.66067314"><ele></ele><time>2014-4-20T17:48:17Z</time></trkpt>
<trkpt lat="46.43942261" lon="8.66060638"><ele></ele><time>2014-4-20T17:48:20Z</time></trkpt>
<trkpt lat="46.43945313" lon="8.66058445"><ele></ele><time>2014-4-20T17:48:23Z</time></trkpt>
<trkpt lat="46.43952942" lon="8.66056442"><ele></ele><time>2014-4-20T17:48:26Z</time></trkpt>
<trkpt lat="46.43963242" lon="8.66056824"><ele></ele><time>2014-4-20T17:48:29Z</time></trkpt>
<trkpt lat="46.43974686" lon="8.66058064"><ele></ele><time>2014-4-20T17:48:32Z</time></trkpt>
<trkpt lat="46.43988800" lon="8.66055679"><ele></ele><time>2014-4-20T17:48:35Z</time></trkpt>
<trkpt lat="46.44004059" lon="8.66051388"><ele></ele><time>2014-4-20T17:48:38Z</time></trkpt>
<trkpt lat="46.44017792" lon="8.66046906"><ele></ele><time>2014-4-20T17:48:41Z</time></trkpt>
<trkpt lat="46.44029236" lon="8.66043854"><ele></ele><time>2014-4-20T17:48:44Z</time></trkpt>
<trkpt lat="46.44043732" lon="8.66043758"><ele></ele><time>2014-4-20T17:48:47Z</time></trkpt>
<trkpt lat="46.44057465" lon="8.66041565"><ele></ele><time>2014-4-20T17:48:50Z</time></trkpt>
<trkpt lat="46.44076538" lon="8.66048908"><ele></ele><time>2014-4-20T17:48:53Z</time></trkpt>
<trkpt lat="46.44084930" lon="8.66055965"><ele></ele><time>2014-4-20T17:48:56Z</time></trkpt>
<trkpt lat="46.44094086" lon="8.66070938"><ele></ele><time>2014-4-20T17:48:59Z</time></trkpt>
<trkpt lat="46.44098663" lon="8.66085529"><ele></ele><time>2014-4-20T17:49:2Z</time></trkpt>
<trkpt lat="46.44099808" lon="8.66106510"><ele></ele><time>2014-4-20T17:49:5Z</time></trkpt>
<trkpt lat="46.44100952" lon="8.66134262"><ele></ele><time>2014-4-20T17:49:8Z</time></trkpt>
<trkpt lat="46.44106293" lon="8.66162968"><ele></ele><time>2014-4-20T17:49:11Z</time></trkpt>
<trkpt lat="46.44112778" lon="8.66184139"><ele></ele><time>2014-4-20T17:49:14Z</time></trkpt>
<trkpt lat="46.44121933" lon="8.66201019"><ele></ele><time>2014-4-20T17:49:17Z</time></trkpt>
<trkpt lat="46.44137573" lon="8.66221905"><ele></ele><time>2014-4-20T17:49:20Z</time></trkpt>
<trkpt lat="46.44149780" lon="8.66234493"><ele></ele><time>2014-4-20T17:49:23Z</time></trkpt>
<trkpt lat="46.44168091" lon="8.66238022"><ele></ele><time>2014-4-20T17:49:26Z</time></trkpt>
<trkpt lat="46.44190979" lon="8.66238213"><ele></ele><time>2014-4-20T17:49:29Z</time></trkpt>
<trkpt lat="46.44208527" lon="8.66236782"><ele></ele><time>2014-4-20T17:49:32Z</time></trkpt>
<trkpt lat="46.44225311" lon="8.66239452"><ele></ele><time>2014-4-20T17:49:35Z</time></trkpt>
<trkpt lat="46.44227982" lon="8.66238594"><ele></ele><time>2014-4-20T17:49:38Z</time></trkpt>
<trkpt lat="46.44227600" lon="8.66244698"><ele></ele><time>2014-4-20T17:49:41Z</time></trkpt>
<trkpt lat="46.44238663" lon="8.66250801"><ele></ele><time>2014-4-20T17:49:44Z</time></trkpt>
<trkpt lat="46.44242477" lon="8.66252232"><ele></ele><time>2014-4-20T17:49:47Z</time></trkpt>
<trkpt lat="46.44253540" lon="8.66259861"><ele></ele><time>2014-4-20T17:49:50Z</time></trkpt>
<trkpt lat="46.44269180" lon="8.66278839"><ele></ele><time>2014-4-20T17:49:53Z</time></trkpt>
<trkpt lat="46.44285965" lon="8.66300297"><ele></ele><time>2014-4-20T17:49:56Z</time></trkpt>
<trkpt lat="46.44304276" lon="8.66307545"><ele></ele><time>2014-4-20T17:49:59Z</time></trkpt>
<trkpt lat="46.44319916" lon="8.66310215"><ele></ele><time>2014-4-20T17:50:2Z</time></trkpt>
<trkpt lat="46.44340897" lon="8.66308689"><ele></ele><time>2014-4-20T17:50:5Z</time></trkpt>
<trkpt lat="46.44358444" lon="8.66311264"><ele></ele><time>2014-4-20T17:50:8Z</time></trkpt>
<trkpt lat="46.44363785" lon="8.66324425"><ele></ele><time>2014-4-20T17:50:11Z</time></trkpt>
<trkpt lat="46.44362640" lon="8.66344547"><ele></ele><time>2014-4-20T17:50:14Z</time></trkpt>
<trkpt lat="46.44356918" lon="8.66347790"><ele></ele><time>2014-4-20T17:50:17Z</time></trkpt>
<trkpt lat="46.44357300" lon="8.66343117"><ele></ele><time>2014-4-20T17:50:20Z</time></trkpt>
<trkpt lat="46.44358826" lon="8.66324902"><ele></ele><time>2014-4-20T17:50:23Z</time></trkpt>
<trkpt lat="46.44358826" lon="8.66322517"><ele></ele><time>2014-4-20T17:50:26Z</time></trkpt>
<trkpt lat="46.44353104" lon="8.66320324"><ele></ele><time>2014-4-20T17:50:29Z</time></trkpt>
<trkpt lat="46.44353867" lon="8.66324425"><ele></ele><time>2014-4-20T17:50:32Z</time></trkpt>
<trkpt lat="46.44357300" lon="8.66337109"><ele></ele><time>2014-4-20T17:50:35Z</time></trkpt>
<trkpt lat="46.44357300" lon="8.66368198"><ele></ele><time>2014-4-20T17:50:38Z</time></trkpt>
<trkpt lat="46.44358826" lon="8.66377354"><ele></ele><time>2014-4-20T17:50:41Z</time></trkpt>
<trkpt lat="46.44362640" lon="8.66376209"><ele></ele><time>2014-4-20T17:50:44Z</time></trkpt>
<trkpt lat="46.44363022" lon="8.66365337"><ele></ele><time>2014-4-20T17:50:47Z</time></trkpt>
<trkpt lat="46.44363403" lon="8.66340542"><ele></ele><time>2014-4-20T17:50:50Z</time></trkpt>
<trkpt lat="46.44366074" lon="8.66321182"><ele></ele><time>2014-4-20T17:50:53Z</time></trkpt>
<trkpt lat="46.44366455" lon="8.66307163"><ele></ele><time>2014-4-20T17:50:56Z</time></trkpt>
<trkpt lat="46.44363785" lon="8.66307068"><ele></ele><time>2014-4-20T17:50:59Z</time></trkpt>
<trkpt lat="46.44358826" lon="8.66307735"><ele></ele><time>2014-4-20T17:51:2Z</time></trkpt>
<trkpt lat="46.44355011" lon="8.66306496"><ele></ele><time>2014-4-20T17:51:5Z</time></trkpt>
<trkpt lat="46.44343948" lon="8.66305447"><ele></ele><time>2014-4-20T17:51:8Z</time></trkpt>
<trkpt lat="46.44333267" lon="8.66306782"><ele></ele><time>2014-4-20T17:51:11Z</time></trkpt>
<trkpt lat="46.44308472" lon="8.66309166"><ele></ele><time>2014-4-20T17:51:14Z</time></trkpt>
<trkpt lat="46.44297409" lon="8.66306686"><ele></ele><time>2014-4-20T17:51:17Z</time></trkpt>
<trkpt lat="46.44273376" lon="8.66283226"><ele></ele><time>2014-4-20T17:51:20Z</time></trkpt>
<trkpt lat="46.44258881" lon="8.66263294"><ele></ele><time>2014-4-20T17:51:23Z</time></trkpt>
<trkpt lat="46.44228745" lon="8.66244507"><ele></ele><time>2014-4-20T17:51:26Z</time></trkpt>
<trkpt lat="46.44190979" lon="8.66234398"><ele></ele><time>2014-4-20T17:51:29Z</time></trkpt>
<trkpt lat="46.44164658" lon="8.66232109"><ele></ele><time>2014-4-20T17:51:32Z</time></trkpt>
<trkpt lat="46.44140244" lon="8.66214466"><ele></ele><time>2014-4-20T17:51:35Z</time></trkpt>
<trkpt lat="46.44116974" lon="8.66173077"><ele></ele><time>2014-4-20T17:51:38Z</time></trkpt>
<trkpt lat="46.44102859" lon="8.66108990"><ele></ele><time>2014-4-20T17:51:41Z</time></trkpt>
<trkpt lat="46.44098282" lon="8.66081715"><ele></ele><time>2014-4-20T17:51:44Z</time></trkpt>
<trkpt lat="46.44089890" lon="8.66056728"><ele></ele><time>2014-4-20T17:51:47Z</time></trkpt>
<trkpt lat="46.44070816" lon="8.66038990"><ele></ele><time>2014-4-20T17:51:50Z</time></trkpt>
<trkpt lat="46.43998718" lon="8.66062355"><ele></ele><time>2014-4-20T17:51:53Z</time></trkpt>
<trkpt lat="46.43945694" lon="8.66063118"><ele></ele><time>2014-4-20T17:51:56Z</time></trkpt>
<trkpt lat="46.43920135" lon="8.66073513"><ele></ele><time>2014-4-20T17:51:59Z</time></trkpt>
<trkpt lat="46.43862152" lon="8.66112614"><ele></ele><time>2014-4-20T17:52:2Z</time></trkpt>
<trkpt lat="46.43840790" lon="8.66110134"><ele></ele><time>2014-4-20T17:52:5Z</time></trkpt>
<trkpt lat="46.43830490" lon="8.66110134"><ele></ele><time>2014-4-20T17:52:8Z</time></trkpt>
<trkpt lat="46.43839645" lon="8.66126060"><ele></ele><time>2014-4-20T17:52:11Z</time></trkpt>
<trkpt lat="46.43856812" lon="8.66132641"><ele></ele><time>2014-4-20T17:52:14Z</time></trkpt>
<trkpt lat="46.43864822" lon="8.66132259"><ele></ele><time>2014-4-20T17:52:17Z</time></trkpt>
<trkpt lat="46.43907547" lon="8.66129589"><ele></ele><time>2014-4-20T17:52:20Z</time></trkpt>
<trkpt lat="46.43913651" lon="8.66137409"><ele></ele><time>2014-4-20T17:52:23Z</time></trkpt>
<trkpt lat="46.43905640" lon="8.66140556"><ele></ele><time>2014-4-20T17:52:26Z</time></trkpt>
<trkpt lat="46.43870926" lon="8.66147900"><ele></ele><time>2014-4-20T17:52:29Z</time></trkpt>
<trkpt lat="46.43819427" lon="8.66174316"><ele></ele><time>2014-4-20T17:52:32Z</time></trkpt>
<trkpt lat="46.43800735" lon="8.66170311"><ele></ele><time>2014-4-20T17:52:35Z</time></trkpt>
<trkpt lat="46.43798828" lon="8.66138268"><ele></ele><time>2014-4-20T17:52:38Z</time></trkpt>
<trkpt lat="46.43796539" lon="8.66129208"><ele></ele><time>2014-4-20T17:52:41Z</time></trkpt>
<trkpt lat="46.43790817" lon="8.66136456"><ele></ele><time>2014-4-20T17:52:44Z</time></trkpt>
<trkpt lat="46.43786240" lon="8.66157246"><ele></ele><time>2014-4-20T17:52:47Z</time></trkpt>
<trkpt lat="46.43791962" lon="8.66184521"><ele></ele><time>2014-4-20T17:52:50Z</time></trkpt>
<trkpt lat="46.43802643" lon="8.66221714"><ele></ele><time>2014-4-20T17:52:53Z</time></trkpt>
<trkpt lat="46.43794632" lon="8.66246796"><ele></ele><time>2014-4-20T17:52:56Z</time></trkpt>
<trkpt lat="46.43787384" lon="8.66257668"><ele></ele><time>2014-4-20T17:52:59Z</time></trkpt>
<trkpt lat="46.43756866" lon="8.66304016"><ele></ele><time>2014-4-20T17:53:2Z</time></trkpt>
<trkpt lat="46.43717957" lon="8.66338921"><ele></ele><time>2014-4-20T17:53:5Z</time></trkpt>
<trkpt lat="46.43696213" lon="8.66350079"><ele></ele><time>2014-4-20T17:53:8Z</time></trkpt>
<trkpt lat="46.43638229" lon="8.66356182"><ele></ele><time>2014-4-20T17:53:11Z</time></trkpt>
<trkpt lat="46.43625641" lon="8.66355324"><ele></ele><time>2014-4-20T17:53:14Z</time></trkpt>
<trkpt lat="46.43585587" lon="8.66332817"><ele></ele><time>2014-4-20T17:53:17Z</time></trkpt>
<trkpt lat="46.43561554" lon="8.66309166"><ele></ele><time>2014-4-20T17:53:20Z</time></trkpt>
<trkpt lat="46.43535233" lon="8.66304970"><ele></ele><time>2014-4-20T17:53:23Z</time></trkpt>
<trkpt lat="46.43522263" lon="8.66320324"><ele></ele><time>2014-4-20T17:53:26Z</time></trkpt>
<trkpt lat="46.43508530" lon="8.66338730"><ele></ele><time>2014-4-20T17:53:29Z</time></trkpt>
<trkpt lat="46.43480682" lon="8.66351700"><ele></ele><time>2014-4-20T17:53:32Z</time></trkpt>
<trkpt lat="46.43470383" lon="8.66348934"><ele></ele><time>2014-4-20T17:53:35Z</time></trkpt>
<trkpt lat="46.43438339" lon="8.66337395"><ele></ele><time>2014-4-20T17:53:38Z</time></trkpt>
<trkpt lat="46.43386841" lon="8.66335201"><ele></ele><time>2014-4-20T17:53:41Z</time></trkpt>
<trkpt lat="46.43351364" lon="8.66321278"><ele></ele><time>2014-4-20T17:53:44Z</time></trkpt>
<trkpt lat="46.43321609" lon="8.66288185"><ele></ele><time>2014-4-20T17:53:47Z</time></trkpt>
<trkpt lat="46.43289948" lon="8.66248417"><ele></ele><time>2014-4-20T17:53:50Z</time></trkpt>
<trkpt lat="46.43253708" lon="8.66220474"><ele></ele><time>2014-4-20T17:53:53Z</time></trkpt>
<trkpt lat="46.43238831" lon="8.66228676"><ele></ele><time>2014-4-20T17:53:56Z</time></trkpt>
<trkpt lat="46.43234634" lon="8.66236401"><ele></ele><time>2014-4-20T17:53:59Z</time></trkpt>
<trkpt lat="46.43225098" lon="8.66256142"><ele></ele><time>2014-4-20T17:54:2Z</time></trkpt>
<trkpt lat="46.43209839" lon="8.66275692"><ele></ele><time>2014-4-20T17:54:5Z</time></trkpt>
<trkpt lat="46.43191528" lon="8.66296768"><ele></ele><time>2014-4-20T17:54:8Z</time></trkpt>
<trkpt lat="46.43168640" lon="8.66325188"><ele></ele><time>2014-4-20T17:54:11Z</time></trkpt>
<trkpt lat="46.43145752" lon="8.66346359"><ele></ele><time>2014-4-20T17:54:14Z</time></trkpt>
<trkpt lat="46.43124771" lon="8.66362858"><ele></ele><time>2014-4-20T17:54:17Z</time></trkpt>
<trkpt lat="46.43106461" lon="8.66371918"><ele></ele><time>2014-4-20T17:54:20Z</time></trkpt>
<trkpt lat="46.43090820" lon="8.66369343"><ele></ele><time>2014-4-20T17:54:23Z</time></trkpt>
<trkpt lat="46.43076706" lon="8.66356468"><ele></ele><time>2014-4-20T17:54:26Z</time></trkpt>
<trkpt lat="46.43068314" lon="8.66349316"><ele></ele><time>2014-4-20T17:54:29Z</time></trkpt>
<trkpt lat="46.43067932" lon="8.66349125"><ele></ele><time>2014-4-20T17:54:32Z</time></trkpt>
<trkpt lat="46.43081284" lon="8.66356087"><ele></ele><time>2014-4-20T17:54:35Z</time></trkpt>
<trkpt lat="46.43087769" lon="8.66364956"><ele></ele><time>2014-4-20T17:54:38Z</time></trkpt>
<trkpt lat="46.43103409" lon="8.66373825"><ele></ele><time>2014-4-20T17:54:41Z</time></trkpt>
<trkpt lat="46.43127441" lon="8.66368484"><ele></ele><time>2014-4-20T17:54:44Z</time></trkpt>
<trkpt lat="46.43132782" lon="8.66365242"><ele></ele><time>2014-4-20T17:54:47Z</time></trkpt>
<trkpt lat="46.43171310" lon="8.66332817"><ele></ele><time>2014-4-20T17:54:50Z</time></trkpt>
<trkpt lat="46.43179321" lon="8.66325283"><ele></ele><time>2014-4-20T17:54:53Z</time></trkpt>
<trkpt lat="46.43190765" lon="8.66311359"><ele></ele><time>2014-4-20T17:54:56Z</time></trkpt>
<trkpt lat="46.43203735" lon="8.66299057"><ele></ele><time>2014-4-20T17:54:59Z</time></trkpt>
<trkpt lat="46.43223953" lon="8.66280365"><ele></ele><time>2014-4-20T17:55:2Z</time></trkpt>
<trkpt lat="46.43254852" lon="8.66246605"><ele></ele><time>2014-4-20T17:55:5Z</time></trkpt>
<trkpt lat="46.43276978" lon="8.66227913"><ele></ele><time>2014-4-20T17:55:8Z</time></trkpt>
<trkpt lat="46.43290710" lon="8.66234016"><ele></ele><time>2014-4-20T17:55:11Z</time></trkpt>
<trkpt lat="46.43302155" lon="8.66232777"><ele></ele><time>2014-4-20T17:55:14Z</time></trkpt>
<trkpt lat="46.43312454" lon="8.66219330"><ele></ele><time>2014-4-20T17:55:17Z</time></trkpt>
<trkpt lat="46.43322372" lon="8.66185188"><ele></ele><time>2014-4-20T17:55:20Z</time></trkpt>
<trkpt lat="46.43316269" lon="8.66146755"><ele></ele><time>2014-4-20T17:55:23Z</time></trkpt>
<trkpt lat="46.43292618" lon="8.66115665"><ele></ele><time>2014-4-20T17:55:26Z</time></trkpt>
<trkpt lat="46.43284607" lon="8.66106892"><ele></ele><time>2014-4-20T17:55:29Z</time></trkpt>
<trkpt lat="46.43259811" lon="8.66083145"><ele></ele><time>2014-4-20T17:55:32Z</time></trkpt>
<trkpt lat="46.43224335" lon="8.66063404"><ele></ele><time>2014-4-20T17:55:35Z</time></trkpt>
<trkpt lat="46.43206024" lon="8.66062641"><ele></ele><time>2014-4-20T17:55:38Z</time></trkpt>
<trkpt lat="46.43187332" lon="8.66063404"><ele></ele><time>2014-4-20T17:55:41Z</time></trkpt>
<trkpt lat="46.43154526" lon="8.66049957"><ele></ele><time>2014-4-20T17:55:44Z</time></trkpt>
<trkpt lat="46.43114471" lon="8.66008091"><ele></ele><time>2014-4-20T17:55:47Z</time></trkpt>
<trkpt lat="46.43073654" lon="8.65966129"><ele></ele><time>2014-4-20T17:55:50Z</time></trkpt>
<trkpt lat="46.43019485" lon="8.65908241"><ele></ele><time>2014-4-20T17:55:53Z</time></trkpt>
<trkpt lat="46.42996979" lon="8.65885067"><ele></ele><time>2014-4-20T17:55:56Z</time></trkpt>
<trkpt lat="46.42978287" lon="8.65877724"><ele></ele><time>2014-4-20T17:55:59Z</time></trkpt>
<trkpt lat="46.42951584" lon="8.65878296"><ele></ele><time>2014-4-20T17:56:2Z</time></trkpt>
<trkpt lat="46.42927170" lon="8.65868759"><ele></ele><time>2014-4-20T17:56:5Z</time></trkpt>
<trkpt lat="46.42894363" lon="8.65841770"><ele></ele><time>2014-4-20T17:56:8Z</time></trkpt>
<trkpt lat="46.42888260" lon="8.65828896"><ele></ele><time>2014-4-20T17:56:11Z</time></trkpt>
<trkpt lat="46.42880249" lon="8.65793610"><ele></ele><time>2014-4-20T17:56:14Z</time></trkpt>
<trkpt lat="46.42868805" lon="8.65760040"><ele></ele><time>2014-4-20T17:56:17Z</time></trkpt>
<trkpt lat="46.42842865" lon="8.65724182"><ele></ele><time>2014-4-20T17:56:20Z</time></trkpt>
<trkpt lat="46.42836380" lon="8.65717793"><ele></ele><time>2014-4-20T17:56:23Z</time></trkpt>
<trkpt lat="46.42812347" lon="8.65712547"><ele></ele><time>2014-4-20T17:56:26Z</time></trkpt>
<trkpt lat="46.42785645" lon="8.65718555"><ele></ele><time>2014-4-20T17:56:29Z</time></trkpt>
<trkpt lat="46.42773819" lon="8.65701580"><ele></ele><time>2014-4-20T17:56:32Z</time></trkpt>
<trkpt lat="46.42764664" lon="8.65678692"><ele></ele><time>2014-4-20T17:56:35Z</time></trkpt>
<trkpt lat="46.42745209" lon="8.65644169"><ele></ele><time>2014-4-20T17:56:38Z</time></trkpt>
<trkpt lat="46.42740250" lon="8.65594101"><ele></ele><time>2014-4-20T17:56:41Z</time></trkpt>
<trkpt lat="46.42728043" lon="8.65579224"><ele></ele><time>2014-4-20T17:56:44Z</time></trkpt>
<trkpt lat="46.42701721" lon="8.65579128"><ele></ele><time>2014-4-20T17:56:47Z</time></trkpt>
<trkpt lat="46.42653275" lon="8.65606117"><ele></ele><time>2014-4-20T17:56:50Z</time></trkpt>
<trkpt lat="46.42615891" lon="8.65614033"><ele></ele><time>2014-4-20T17:56:53Z</time></trkpt>
<trkpt lat="46.42545319" lon="8.65602016"><ele></ele><time>2014-4-20T17:56:56Z</time></trkpt>
<trkpt lat="46.42475510" lon="8.65578461"><ele></ele><time>2014-4-20T17:56:59Z</time></trkpt>
<trkpt lat="46.42461777" lon="8.65571880"><ele></ele><time>2014-4-20T17:57:2Z</time></trkpt>
<trkpt lat="46.42408752" lon="8.65569782"><ele></ele><time>2014-4-20T17:57:5Z</time></trkpt>
<trkpt lat="46.42382050" lon="8.65572453"><ele></ele><time>2014-4-20T17:57:8Z</time></trkpt>
<trkpt lat="46.42318344" lon="8.65558243"><ele></ele><time>2014-4-20T17:57:11Z</time></trkpt>
<trkpt lat="46.42259979" lon="8.65538788"><ele></ele><time>2014-4-20T17:57:14Z</time></trkpt>
<trkpt lat="46.42222977" lon="8.65503025"><ele></ele><time>2014-4-20T17:57:17Z</time></trkpt>
<trkpt lat="46.42177582" lon="8.65432453"><ele></ele><time>2014-4-20T17:57:20Z</time></trkpt>
<trkpt lat="46.42141342" lon="8.65381622"><ele></ele><time>2014-4-20T17:57:23Z</time></trkpt>
<trkpt lat="46.42119598" lon="8.65348625"><ele></ele><time>2014-4-20T17:57:26Z</time></trkpt>
<trkpt lat="46.42101669" lon="8.65335560"><ele></ele><time>2014-4-20T17:57:29Z</time></trkpt>
<trkpt lat="46.42088318" lon="8.65335941"><ele></ele><time>2014-4-20T17:57:32Z</time></trkpt>
<trkpt lat="46.42045593" lon="8.65326023"><ele></ele><time>2014-4-20T17:57:35Z</time></trkpt>
<trkpt lat="46.42005157" lon="8.65311623"><ele></ele><time>2014-4-20T17:57:38Z</time></trkpt>
<trkpt lat="46.41996002" lon="8.65306759"><ele></ele><time>2014-4-20T17:57:41Z</time></trkpt>
<trkpt lat="46.41953659" lon="8.65266323"><ele></ele><time>2014-4-20T17:57:44Z</time></trkpt>
<trkpt lat="46.41928482" lon="8.65230370"><ele></ele><time>2014-4-20T17:57:47Z</time></trkpt>
<trkpt lat="46.41910934" lon="8.65225792"><ele></ele><time>2014-4-20T17:57:50Z</time></trkpt>
<trkpt lat="46.41890717" lon="8.65213490"><ele></ele><time>2014-4-20T17:57:53Z</time></trkpt>
<trkpt lat="46.41882324" lon="8.65203667"><ele></ele><time>2014-4-20T17:57:56Z</time></trkpt>
<trkpt lat="46.41858292" lon="8.65174866"><ele></ele><time>2014-4-20T17:57:59Z</time></trkpt>
<trkpt lat="46.41821289" lon="8.65148067"><ele></ele><time>2014-4-20T17:58:2Z</time></trkpt>
<trkpt lat="46.41790009" lon="8.65137959"><ele></ele><time>2014-4-20T17:58:5Z</time></trkpt>
<trkpt lat="46.41751862" lon="8.65106583"><ele></ele><time>2014-4-20T17:58:8Z</time></trkpt>
<trkpt lat="46.41743088" lon="8.65096188"><ele></ele><time>2014-4-20T17:58:11Z</time></trkpt>
<trkpt lat="46.41719818" lon="8.65060139"><ele></ele><time>2014-4-20T17:58:14Z</time></trkpt>
<trkpt lat="46.41685486" lon="8.65040302"><ele></ele><time>2014-4-20T17:58:17Z</time></trkpt>
<trkpt lat="46.41674042" lon="8.65038109"><ele></ele><time>2014-4-20T17:58:20Z</time></trkpt>
<trkpt lat="46.41629791" lon="8.65053368"><ele></ele><time>2014-4-20T17:58:23Z</time></trkpt>
<trkpt lat="46.41619492" lon="8.65061855"><ele></ele><time>2014-4-20T17:58:26Z</time></trkpt>
<trkpt lat="46.41585922" lon="8.65071106"><ele></ele><time>2014-4-20T17:58:29Z</time></trkpt>
<trkpt lat="46.41576767" lon="8.65065384"><ele></ele><time>2014-4-20T17:58:32Z</time></trkpt>
<trkpt lat="46.41524124" lon="8.65039158"><ele></ele><time>2014-4-20T17:58:35Z</time></trkpt>
<trkpt lat="46.41484070" lon="8.65037155"><ele></ele><time>2014-4-20T17:58:38Z</time></trkpt>
<trkpt lat="46.41444778" lon="8.65044498"><ele></ele><time>2014-4-20T17:58:41Z</time></trkpt>
<trkpt lat="46.41413116" lon="8.65059757"><ele></ele><time>2014-4-20T17:58:44Z</time></trkpt>
<trkpt lat="46.41404343" lon="8.65064526"><ele></ele><time>2014-4-20T17:58:47Z</time></trkpt>
<trkpt lat="46.41405869" lon="8.65054321"><ele></ele><time>2014-4-20T17:58:50Z</time></trkpt>
<trkpt lat="46.41416168" lon="8.65048695"><ele></ele><time>2014-4-20T17:58:53Z</time></trkpt>
<trkpt lat="46.41436386" lon="8.65039158"><ele></ele><time>2014-4-20T17:58:56Z</time></trkpt>
<trkpt lat="46.41445160" lon="8.65022373"><ele></ele><time>2014-4-20T17:58:59Z</time></trkpt>
<trkpt lat="46.41436005" lon="8.65021610"><ele></ele><time>2014-4-20T17:59:2Z</time></trkpt>
<trkpt lat="46.41429901" lon="8.65024090"><ele></ele><time>2014-4-20T17:59:5Z</time></trkpt>
<trkpt lat="46.41389084" lon="8.65043640"><ele></ele><time>2014-4-20T17:59:8Z</time></trkpt>
<trkpt lat="46.41354752" lon="8.65084743"><ele></ele><time>2014-4-20T17:59:11Z</time></trkpt>
<trkpt lat="46.41346741" lon="8.65096855"><ele></ele><time>2014-4-20T17:59:14Z</time></trkpt>
<trkpt lat="46.41301346" lon="8.65132141"><ele></ele><time>2014-4-20T17:59:17Z</time></trkpt>
<trkpt lat="46.41260910" lon="8.65138245"><ele></ele><time>2014-4-20T17:59:20Z</time></trkpt>
<trkpt lat="46.41247177" lon="8.65133381"><ele></ele><time>2014-4-20T17:59:23Z</time></trkpt>
<trkpt lat="46.41172791" lon="8.65124512"><ele></ele><time>2014-4-20T17:59:26Z</time></trkpt>
<trkpt lat="46.41133118" lon="8.65110874"><ele></ele><time>2014-4-20T17:59:29Z</time></trkpt>
<trkpt lat="46.41123581" lon="8.65105724"><ele></ele><time>2014-4-20T17:59:32Z</time></trkpt>
<trkpt lat="46.41116333" lon="8.65090561"><ele></ele><time>2014-4-20T17:59:35Z</time></trkpt>
<trkpt lat="46.41131592" lon="8.65094471"><ele></ele><time>2014-4-20T17:59:38Z</time></trkpt>
<trkpt lat="46.41139221" lon="8.65098095"><ele></ele><time>2014-4-20T17:59:41Z</time></trkpt>
<trkpt lat="46.41176605" lon="8.65098763"><ele></ele><time>2014-4-20T17:59:44Z</time></trkpt>
<trkpt lat="46.41188431" lon="8.65083122"><ele></ele><time>2014-4-20T17:59:47Z</time></trkpt>
<trkpt lat="46.41180420" lon="8.65082645"><ele></ele><time>2014-4-20T17:59:50Z</time></trkpt>
<trkpt lat="46.41142654" lon="8.65078163"><ele></ele><time>2014-4-20T17:59:53Z</time></trkpt>
<trkpt lat="46.41099548" lon="8.65055180"><ele></ele><time>2014-4-20T17:59:56Z</time></trkpt>
<trkpt lat="46.41069412" lon="8.65062523"><ele></ele><time>2014-4-20T17:59:59Z</time></trkpt>
<trkpt lat="46.41060638" lon="8.65071297"><ele></ele><time>2014-4-20T18:0:2Z</time></trkpt>
<trkpt lat="46.41032028" lon="8.65089607"><ele></ele><time>2014-4-20T18:0:5Z</time></trkpt>
<trkpt lat="46.40983963" lon="8.65131092"><ele></ele><time>2014-4-20T18:0:8Z</time></trkpt>
<trkpt lat="46.40975189" lon="8.65139198"><ele></ele><time>2014-4-20T18:0:11Z</time></trkpt>
<trkpt lat="46.40969467" lon="8.65141964"><ele></ele><time>2014-4-20T18:0:14Z</time></trkpt>
<trkpt lat="46.40980530" lon="8.65128231"><ele></ele><time>2014-4-20T18:0:17Z</time></trkpt>
<trkpt lat="46.40995789" lon="8.65098953"><ele></ele><time>2014-4-20T18:0:20Z</time></trkpt>
<trkpt lat="46.41001892" lon="8.65078259"><ele></ele><time>2014-4-20T18:0:23Z</time></trkpt>
<trkpt lat="46.41019440" lon="8.65042782"><ele></ele><time>2014-4-20T18:0:26Z</time></trkpt>
<trkpt lat="46.41012192" lon="8.65039825"><ele></ele><time>2014-4-20T18:0:29Z</time></trkpt>
<trkpt lat="46.41004562" lon="8.65049267"><ele></ele><time>2014-4-20T18:0:32Z</time></trkpt>
<trkpt lat="46.40980148" lon="8.65088463"><ele></ele><time>2014-4-20T18:0:35Z</time></trkpt>
<trkpt lat="46.40945816" lon="8.65114594"><ele></ele><time>2014-4-20T18:0:38Z</time></trkpt>
<trkpt lat="46.40922546" lon="8.65102673"><ele></ele><time>2014-4-20T18:0:41Z</time></trkpt>
<trkpt lat="46.40912628" lon="8.65093231"><ele></ele><time>2014-4-20T18:0:44Z</time></trkpt>
<trkpt lat="46.40904617" lon="8.65088177"><ele></ele><time>2014-4-20T18:0:47Z</time></trkpt>
<trkpt lat="46.40913010" lon="8.65084934"><ele></ele><time>2014-4-20T18:0:50Z</time></trkpt>
<trkpt lat="46.40933228" lon="8.65091038"><ele></ele><time>2014-4-20T18:0:53Z</time></trkpt>
<trkpt lat="46.40955734" lon="8.65083694"><ele></ele><time>2014-4-20T18:0:56Z</time></trkpt>
<trkpt lat="46.40962219" lon="8.65073395"><ele></ele><time>2014-4-20T18:0:59Z</time></trkpt>
<trkpt lat="46.40985107" lon="8.65003967"><ele></ele><time>2014-4-20T18:1:2Z</time></trkpt>
<trkpt lat="46.40993500" lon="8.64983940"><ele></ele><time>2014-4-20T18:1:5Z</time></trkpt>
<trkpt lat="46.40988159" lon="8.64972591"><ele></ele><time>2014-4-20T18:1:8Z</time></trkpt>
<trkpt lat="46.40980530" lon="8.64984894"><ele></ele><time>2014-4-20T18:1:11Z</time></trkpt>
<trkpt lat="46.40971756" lon="8.65002060"><ele></ele><time>2014-4-20T18:1:14Z</time></trkpt>
<trkpt lat="46.40940094" lon="8.65043354"><ele></ele><time>2014-4-20T18:1:17Z</time></trkpt>
<trkpt lat="46.40917969" lon="8.65050030"><ele></ele><time>2014-4-20T18:1:20Z</time></trkpt>
<trkpt lat="46.40906906" lon="8.65049934"><ele></ele><time>2014-4-20T18:1:23Z</time></trkpt>
<trkpt lat="46.40901184" lon="8.65041065"><ele></ele><time>2014-4-20T18:1:26Z</time></trkpt>
<trkpt lat="46.40911102" lon="8.65042305"><ele></ele><time>2014-4-20T18:1:29Z</time></trkpt>
<trkpt lat="46.40928268" lon="8.65037060"><ele></ele><time>2014-4-20T18:1:32Z</time></trkpt>
<trkpt lat="46.40939331" lon="8.65022564"><ele></ele><time>2014-4-20T18:1:35Z</time></trkpt>
<trkpt lat="46.40964127" lon="8.64982128"><ele></ele><time>2014-4-20T18:1:38Z</time></trkpt>
<trkpt lat="46.40955353" lon="8.64974880"><ele></ele><time>2014-4-20T18:1:41Z</time></trkpt>
<trkpt lat="46.40943146" lon="8.64981937"><ele></ele><time>2014-4-20T18:1:44Z</time></trkpt>
<trkpt lat="46.40898132" lon="8.65009499"><ele></ele><time>2014-4-20T18:1:47Z</time></trkpt>
<trkpt lat="46.40858459" lon="8.65012646"><ele></ele><time>2014-4-20T18:1:50Z</time></trkpt>
<trkpt lat="46.40846252" lon="8.65009308"><ele></ele><time>2014-4-20T18:1:53Z</time></trkpt>
<trkpt lat="46.40803528" lon="8.65004635"><ele></ele><time>2014-4-20T18:1:56Z</time></trkpt>
<trkpt lat="46.40771484" lon="8.64994335"><ele></ele><time>2014-4-20T18:1:59Z</time></trkpt>
<trkpt lat="46.40764999" lon="8.64982128"><ele></ele><time>2014-4-20T18:2:2Z</time></trkpt>
<trkpt lat="46.40777206" lon="8.64988041"><ele></ele><time>2014-4-20T18:2:5Z</time></trkpt>
<trkpt lat="46.40790939" lon="8.64991665"><ele></ele><time>2014-4-20T18:2:8Z</time></trkpt>
<trkpt lat="46.40808105" lon="8.64991570"><ele></ele><time>2014-4-20T18:2:11Z</time></trkpt>
<trkpt lat="46.40845490" lon="8.64973545"><ele></ele><time>2014-4-20T18:2:14Z</time></trkpt>
<trkpt lat="46.40869522" lon="8.64940643"><ele></ele><time>2014-4-20T18:2:17Z</time></trkpt>
<trkpt lat="46.40892029" lon="8.64908791"><ele></ele><time>2014-4-20T18:2:20Z</time></trkpt>
<trkpt lat="46.40896606" lon="8.64894295"><ele></ele><time>2014-4-20T18:2:23Z</time></trkpt>
<trkpt lat="46.40889359" lon="8.64890575"><ele></ele><time>2014-4-20T18:2:26Z</time></trkpt>
<trkpt lat="46.40884781" lon="8.64894009"><ele></ele><time>2014-4-20T18:2:29Z</time></trkpt>
<trkpt lat="46.40849686" lon="8.64921284"><ele></ele><time>2014-4-20T18:2:32Z</time></trkpt>
<trkpt lat="46.40832138" lon="8.64934254"><ele></ele><time>2014-4-20T18:2:35Z</time></trkpt>
<trkpt lat="46.40792084" lon="8.64939022"><ele></ele><time>2014-4-20T18:2:38Z</time></trkpt>
<trkpt lat="46.40782928" lon="8.64934444"><ele></ele><time>2014-4-20T18:2:41Z</time></trkpt>
<trkpt lat="46.40780258" lon="8.64913559"><ele></ele><time>2014-4-20T18:2:44Z</time></trkpt>
<trkpt lat="46.40786362" lon="8.64910507"><ele></ele><time>2014-4-20T18:2:47Z</time></trkpt>
<trkpt lat="46.40818024" lon="8.64867783"><ele></ele><time>2014-4-20T18:2:50Z</time></trkpt>
<trkpt lat="46.40846252" lon="8.64804840"><ele></ele><time>2014-4-20T18:2:53Z</time></trkpt>
<trkpt lat="46.40851212" lon="8.64795685"><ele></ele><time>2014-4-20T18:2:56Z</time></trkpt>
<trkpt lat="46.40841293" lon="8.64782906"><ele></ele><time>2014-4-20T18:2:59Z</time></trkpt>
<trkpt lat="46.40834808" lon="8.64783001"><ele></ele><time>2014-4-20T18:3:2Z</time></trkpt>
<trkpt lat="46.40791702" lon="8.64788914"><ele></ele><time>2014-4-20T18:3:5Z</time></trkpt>
<trkpt lat="46.40782166" lon="8.64791107"><ele></ele><time>2014-4-20T18:3:8Z</time></trkpt>
<trkpt lat="46.40749359" lon="8.64813042"><ele></ele><time>2014-4-20T18:3:11Z</time></trkpt>
<trkpt lat="46.40744400" lon="8.64806557"><ele></ele><time>2014-4-20T18:3:14Z</time></trkpt>
<trkpt lat="46.40749359" lon="8.64794159"><ele></ele><time>2014-4-20T18:3:17Z</time></trkpt>
<trkpt lat="46.40755844" lon="8.64778328"><ele></ele><time>2014-4-20T18:3:20Z</time></trkpt>
<trkpt lat="46.40764236" lon="8.64748001"><ele></ele><time>2014-4-20T18:3:23Z</time></trkpt>
<trkpt lat="46.40762711" lon="8.64724731"><ele></ele><time>2014-4-20T18:3:26Z</time></trkpt>
<trkpt lat="46.40737534" lon="8.64717197"><ele></ele><time>2014-4-20T18:3:29Z</time></trkpt>
<trkpt lat="46.40718460" lon="8.64726353"><ele></ele><time>2014-4-20T18:3:32Z</time></trkpt>
<trkpt lat="46.40678024" lon="8.64752197"><ele></ele><time>2014-4-20T18:3:35Z</time></trkpt>
<trkpt lat="46.40642929" lon="8.64787674"><ele></ele><time>2014-4-20T18:3:38Z</time></trkpt>
<trkpt lat="46.40613556" lon="8.64794731"><ele></ele><time>2014-4-20T18:3:41Z</time></trkpt>
<trkpt lat="46.40600586" lon="8.64789963"><ele></ele><time>2014-4-20T18:3:44Z</time></trkpt>
<trkpt lat="46.40559387" lon="8.64792919"><ele></ele><time>2014-4-20T18:3:47Z</time></trkpt>
<trkpt lat="46.40530396" lon="8.64815235"><ele></ele><time>2014-4-20T18:3:50Z</time></trkpt>
<trkpt lat="46.40493393" lon="8.64862728"><ele></ele><time>2014-4-20T18:3:53Z</time></trkpt>
<trkpt lat="46.40467453" lon="8.64898300"><ele></ele><time>2014-4-20T18:3:56Z</time></trkpt>
<trkpt lat="46.40444565" lon="8.64900303"><ele></ele><time>2014-4-20T18:3:59Z</time></trkpt>
<trkpt lat="46.40362930" lon="8.64894485"><ele></ele><time>2014-4-20T18:4:2Z</time></trkpt>
<trkpt lat="46.40350723" lon="8.64895916"><ele></ele><time>2014-4-20T18:4:5Z</time></trkpt>
<trkpt lat="46.40300369" lon="8.64922047"><ele></ele><time>2014-4-20T18:4:8Z</time></trkpt>
<trkpt lat="46.40287781" lon="8.64935780"><ele></ele><time>2014-4-20T18:4:11Z</time></trkpt>
<trkpt lat="46.40266800" lon="8.64960384"><ele></ele><time>2014-4-20T18:4:14Z</time></trkpt>
<trkpt lat="46.40217972" lon="8.65032768"><ele></ele><time>2014-4-20T18:4:17Z</time></trkpt>
<trkpt lat="46.40169907" lon="8.65063953"><ele></ele><time>2014-4-20T18:4:20Z</time></trkpt>
<trkpt lat="46.40145493" lon="8.65075111"><ele></ele><time>2014-4-20T18:4:23Z</time></trkpt>
<trkpt lat="46.40091324" lon="8.65126228"><ele></ele><time>2014-4-20T18:4:26Z</time></trkpt>
<trkpt lat="46.40034103" lon="8.65196037"><ele></ele><time>2014-4-20T18:4:29Z</time></trkpt>
<trkpt lat="46.39995193" lon="8.65254116"><ele></ele><time>2014-4-20T18:4:32Z</time></trkpt>
<trkpt lat="46.39960480" lon="8.65291119"><ele></ele><time>2014-4-20T18:4:35Z</time></trkpt>
<trkpt lat="46.39951706" lon="8.65299129"><ele></ele><time>2014-4-20T18:4:38Z</time></trkpt>
<trkpt lat="46.39894104" lon="8.65330029"><ele></ele><time>2014-4-20T18:4:41Z</time></trkpt>
<trkpt lat="46.39805984" lon="8.65369129"><ele></ele><time>2014-4-20T18:4:44Z</time></trkpt>
<trkpt lat="46.39735794" lon="8.65391254"><ele></ele><time>2014-4-20T18:4:47Z</time></trkpt>
<trkpt lat="46.39675140" lon="8.65413189"><ele></ele><time>2014-4-20T18:4:50Z</time></trkpt>
<trkpt lat="46.39635468" lon="8.65417767"><ele></ele><time>2014-4-20T18:4:53Z</time></trkpt>
<trkpt lat="46.39625931" lon="8.65417862"><ele></ele><time>2014-4-20T18:4:56Z</time></trkpt>
<trkpt lat="46.39592743" lon="8.65431881"><ele></ele><time>2014-4-20T18:4:59Z</time></trkpt>
<trkpt lat="46.39585495" lon="8.65438557"><ele></ele><time>2014-4-20T18:5:2Z</time></trkpt>
<trkpt lat="46.39529800" lon="8.65501213"><ele></ele><time>2014-4-20T18:5:5Z</time></trkpt>
<trkpt lat="46.39521790" lon="8.65509224"><ele></ele><time>2014-4-20T18:5:8Z</time></trkpt>
<trkpt lat="46.39490509" lon="8.65528679"><ele></ele><time>2014-4-20T18:5:11Z</time></trkpt>
<trkpt lat="46.39467239" lon="8.65517616"><ele></ele><time>2014-4-20T18:5:14Z</time></trkpt>
<trkpt lat="46.39448929" lon="8.65522194"><ele></ele><time>2014-4-20T18:5:17Z</time></trkpt>
<trkpt lat="46.39430618" lon="8.65555191"><ele></ele><time>2014-4-20T18:5:20Z</time></trkpt>
<trkpt lat="46.39425659" lon="8.65568542"><ele></ele><time>2014-4-20T18:5:23Z</time></trkpt>
<trkpt lat="46.39380646" lon="8.65662766"><ele></ele><time>2014-4-20T18:5:26Z</time></trkpt>
<trkpt lat="46.39344788" lon="8.65729141"><ele></ele><time>2014-4-20T18:5:29Z</time></trkpt>
<trkpt lat="46.39309311" lon="8.65774536"><ele></ele><time>2014-4-20T18:5:32Z</time></trkpt>
<trkpt lat="46.39262772" lon="8.65822792"><ele></ele><time>2014-4-20T18:5:35Z</time></trkpt>
<trkpt lat="46.39203644" lon="8.65870667"><ele></ele><time>2014-4-20T18:5:38Z</time></trkpt>
<trkpt lat="46.39136124" lon="8.65923691"><ele></ele><time>2014-4-20T18:5:41Z</time></trkpt>
<trkpt lat="46.39094925" lon="8.65975285"><ele></ele><time>2014-4-20T18:5:44Z</time></trkpt>
<trkpt lat="46.39084244" lon="8.65997410"><ele></ele><time>2014-4-20T18:5:47Z</time></trkpt>
<trkpt lat="46.39027023" lon="8.66051674"><ele></ele><time>2014-4-20T18:5:50Z</time></trkpt>
<trkpt lat="46.38957977" lon="8.66104794"><ele></ele><time>2014-4-20T18:5:53Z</time></trkpt>
<trkpt lat="46.38928986" lon="8.66137409"><ele></ele><time>2014-4-20T18:5:56Z</time></trkpt>
<trkpt lat="46.38883591" lon="8.66154957"><ele></ele><time>2014-4-20T18:5:59Z</time></trkpt>
<trkpt lat="46.38815689" lon="8.66176128"><ele></ele><time>2014-4-20T18:6:2Z</time></trkpt>
<trkpt lat="46.38761902" lon="8.66202545"><ele></ele><time>2014-4-20T18:6:5Z</time></trkpt>
<trkpt lat="46.38710403" lon="8.66229916"><ele></ele><time>2014-4-20T18:6:8Z</time></trkpt>
<trkpt lat="46.38702011" lon="8.66234970"><ele></ele><time>2014-4-20T18:6:11Z</time></trkpt>
<trkpt lat="46.38645554" lon="8.66279602"><ele></ele><time>2014-4-20T18:6:14Z</time></trkpt>
<trkpt lat="46.38624191" lon="8.66298103"><ele></ele><time>2014-4-20T18:6:17Z</time></trkpt>
<trkpt lat="46.38579559" lon="8.66311932"><ele></ele><time>2014-4-20T18:6:20Z</time></trkpt>
<trkpt lat="46.38528824" lon="8.66308689"><ele></ele><time>2014-4-20T18:6:23Z</time></trkpt>
<trkpt lat="46.38442612" lon="8.66295719"><ele></ele><time>2014-4-20T18:6:26Z</time></trkpt>
<trkpt lat="46.38397980" lon="8.66289520"><ele></ele><time>2014-4-20T18:6:29Z</time></trkpt>
<trkpt lat="46.38356400" lon="8.66277885"><ele></ele><time>2014-4-20T18:6:32Z</time></trkpt>
<trkpt lat="46.38312531" lon="8.66262054"><ele></ele><time>2014-4-20T18:6:35Z</time></trkpt>
<trkpt lat="46.38262939" lon="8.66242218"><ele></ele><time>2014-4-20T18:6:38Z</time></trkpt>
<trkpt lat="46.38250351" lon="8.66237545"><ele></ele><time>2014-4-20T18:6:41Z</time></trkpt>
<trkpt lat="46.38222504" lon="8.66226387"><ele></ele><time>2014-4-20T18:6:44Z</time></trkpt>
<trkpt lat="46.38211060" lon="8.66222191"><ele></ele><time>2014-4-20T18:6:47Z</time></trkpt>
<trkpt lat="46.38180161" lon="8.66209888"><ele></ele><time>2014-4-20T18:6:50Z</time></trkpt>
<trkpt lat="46.38153076" lon="8.66199970"><ele></ele><time>2014-4-20T18:6:53Z</time></trkpt>
<trkpt lat="46.38122177" lon="8.66189671"><ele></ele><time>2014-4-20T18:6:56Z</time></trkpt>
<trkpt lat="46.38092422" lon="8.66178036"><ele></ele><time>2014-4-20T18:6:59Z</time></trkpt>
<trkpt lat="46.38061523" lon="8.66166782"><ele></ele><time>2014-4-20T18:7:2Z</time></trkpt>
<trkpt lat="46.38035965" lon="8.66159821"><ele></ele><time>2014-4-20T18:7:5Z</time></trkpt>
<trkpt lat="46.37999344" lon="8.66145611"><ele></ele><time>2014-4-20T18:7:8Z</time></trkpt>
<trkpt lat="46.37965393" lon="8.66132641"><ele></ele><time>2014-4-20T18:7:11Z</time></trkpt>
<trkpt lat="46.37930298" lon="8.66118908"><ele></ele><time>2014-4-20T18:7:14Z</time></trkpt>
<trkpt lat="46.37899780" lon="8.66106415"><ele></ele><time>2014-4-20T18:7:17Z</time></trkpt>
<trkpt lat="46.37868118" lon="8.66094398"><ele></ele><time>2014-4-20T18:7:20Z</time></trkpt>
<trkpt lat="46.37836456" lon="8.66079712"><ele></ele><time>2014-4-20T18:7:23Z</time></trkpt>
<trkpt lat="46.37797928" lon="8.66063404"><ele></ele><time>2014-4-20T18:7:26Z</time></trkpt>
<trkpt lat="46.37762451" lon="8.66049004"><ele></ele><time>2014-4-20T18:7:29Z</time></trkpt>
<trkpt lat="46.37726593" lon="8.66034222"><ele></ele><time>2014-4-20T18:7:32Z</time></trkpt>
<trkpt lat="46.37722015" lon="8.66032505"><ele></ele><time>2014-4-20T18:7:35Z</time></trkpt>
<trkpt lat="46.37715912" lon="8.66029263"><ele></ele><time>2014-4-20T18:7:38Z</time></trkpt>
<trkpt lat="46.37704468" lon="8.66023636"><ele></ele><time>2014-4-20T18:7:41Z</time></trkpt>
<trkpt lat="46.37688065" lon="8.66013241"><ele></ele><time>2014-4-20T18:7:44Z</time></trkpt>
<trkpt lat="46.37676239" lon="8.66003704"><ele></ele><time>2014-4-20T18:7:47Z</time></trkpt>
<trkpt lat="46.37660980" lon="8.66001892"><ele></ele><time>2014-4-20T18:7:50Z</time></trkpt>
<trkpt lat="46.37622452" lon="8.65981579"><ele></ele><time>2014-4-20T18:7:53Z</time></trkpt>
<trkpt lat="46.37596130" lon="8.65973663"><ele></ele><time>2014-4-20T18:7:56Z</time></trkpt>
<trkpt lat="46.37577057" lon="8.65972424"><ele></ele><time>2014-4-20T18:7:59Z</time></trkpt>
<trkpt lat="46.37521362" lon="8.65969086"><ele></ele><time>2014-4-20T18:8:2Z</time></trkpt>
<trkpt lat="46.37475204" lon="8.65963078"><ele></ele><time>2014-4-20T18:8:5Z</time></trkpt>
<trkpt lat="46.37415314" lon="8.65948105"><ele></ele><time>2014-4-20T18:8:8Z</time></trkpt>
<trkpt lat="46.37375259" lon="8.65939045"><ele></ele><time>2014-4-20T18:8:11Z</time></trkpt>
<trkpt lat="46.37320328" lon="8.65918541"><ele></ele><time>2014-4-20T18:8:14Z</time></trkpt>
<trkpt lat="46.37263489" lon="8.65890789"><ele></ele><time>2014-4-20T18:8:17Z</time></trkpt>
<trkpt lat="46.37210846" lon="8.65853310"><ele></ele><time>2014-4-20T18:8:20Z</time></trkpt>
<trkpt lat="46.37168121" lon="8.65830612"><ele></ele><time>2014-4-20T18:8:23Z</time></trkpt>
<trkpt lat="46.37104416" lon="8.65802860"><ele></ele><time>2014-4-20T18:8:26Z</time></trkpt>
<trkpt lat="46.37050629" lon="8.65776253"><ele></ele><time>2014-4-20T18:8:29Z</time></trkpt>
<trkpt lat="46.36998749" lon="8.65745354"><ele></ele><time>2014-4-20T18:8:32Z</time></trkpt>
<trkpt lat="46.36919403" lon="8.65695095"><ele></ele><time>2014-4-20T18:8:35Z</time></trkpt>
<trkpt lat="46.36864090" lon="8.65648270"><ele></ele><time>2014-4-20T18:8:38Z</time></trkpt>
<trkpt lat="46.36814117" lon="8.65617561"><ele></ele><time>2014-4-20T18:8:41Z</time></trkpt>
<trkpt lat="46.36728668" lon="8.65566826"><ele></ele><time>2014-4-20T18:8:44Z</time></trkpt>
<trkpt lat="46.36677170" lon="8.65534019"><ele></ele><time>2014-4-20T18:8:47Z</time></trkpt>
<trkpt lat="46.36624527" lon="8.65495491"><ele></ele><time>2014-4-20T18:8:50Z</time></trkpt>
<trkpt lat="46.36548233" lon="8.65434837"><ele></ele><time>2014-4-20T18:8:53Z</time></trkpt>
<trkpt lat="46.36485672" lon="8.65371323"><ele></ele><time>2014-4-20T18:8:56Z</time></trkpt>
<trkpt lat="46.36449432" lon="8.65316582"><ele></ele><time>2014-4-20T18:8:59Z</time></trkpt>
<trkpt lat="46.36396027" lon="8.65225887"><ele></ele><time>2014-4-20T18:9:2Z</time></trkpt>
<trkpt lat="46.36354446" lon="8.65134335"><ele></ele><time>2014-4-20T18:9:5Z</time></trkpt>
<trkpt lat="46.36315536" lon="8.65077972"><ele></ele><time>2014-4-20T18:9:8Z</time></trkpt>
<trkpt lat="46.36261749" lon="8.65017414"><ele></ele><time>2014-4-20T18:9:11Z</time></trkpt>
<trkpt lat="46.36190414" lon="8.64956379"><ele></ele><time>2014-4-20T18:9:14Z</time></trkpt>
<trkpt lat="46.36140442" lon="8.64925671"><ele></ele><time>2014-4-20T18:9:17Z</time></trkpt>
<trkpt lat="46.36092377" lon="8.64898491"><ele></ele><time>2014-4-20T18:9:20Z</time></trkpt>
<trkpt lat="46.36052322" lon="8.64867401"><ele></ele><time>2014-4-20T18:9:23Z</time></trkpt>
<trkpt lat="46.36016846" lon="8.64825726"><ele></ele><time>2014-4-20T18:9:26Z</time></trkpt>
<trkpt lat="46.35978317" lon="8.64771461"><ele></ele><time>2014-4-20T18:9:29Z</time></trkpt>
<trkpt lat="46.35965347" lon="8.64750862"><ele></ele><time>2014-4-20T18:9:32Z</time></trkpt>
<trkpt lat="46.35944366" lon="8.64684772"><ele></ele><time>2014-4-20T18:9:35Z</time></trkpt>
<trkpt lat="46.35934830" lon="8.64608955"><ele></ele><time>2014-4-20T18:9:38Z</time></trkpt>
<trkpt lat="46.35932541" lon="8.64531136"><ele></ele><time>2014-4-20T18:9:41Z</time></trkpt>
<trkpt lat="46.35933304" lon="8.64499855"><ele></ele><time>2014-4-20T18:9:44Z</time></trkpt>
<trkpt lat="46.35867310" lon="8.64335442"><ele></ele><time>2014-4-20T18:9:47Z</time></trkpt>
<trkpt lat="46.35858917" lon="8.64294338"><ele></ele><time>2014-4-20T18:9:50Z</time></trkpt>
<trkpt lat="46.35864639" lon="8.64280987"><ele></ele><time>2014-4-20T18:9:53Z</time></trkpt>
<trkpt lat="46.35871124" lon="8.64204407"><ele></ele><time>2014-4-20T18:9:56Z</time></trkpt>
<trkpt lat="46.35859299" lon="8.64156818"><ele></ele><time>2014-4-20T18:9:59Z</time></trkpt>
<trkpt lat="46.35821533" lon="8.64067459"><ele></ele><time>2014-4-20T18:10:2Z</time></trkpt>
<trkpt lat="46.35773468" lon="8.63991737"><ele></ele><time>2014-4-20T18:10:5Z</time></trkpt>
<trkpt lat="46.35731888" lon="8.63936710"><ele></ele><time>2014-4-20T18:10:8Z</time></trkpt>
<trkpt lat="46.35721588" lon="8.63924694"><ele></ele><time>2014-4-20T18:10:11Z</time></trkpt>
<trkpt lat="46.35684967" lon="8.63847923"><ele></ele><time>2014-4-20T18:10:14Z</time></trkpt>
<trkpt lat="46.35679626" lon="8.63836193"><ele></ele><time>2014-4-20T18:10:17Z</time></trkpt>
<trkpt lat="46.35647964" lon="8.63789177"><ele></ele><time>2014-4-20T18:10:20Z</time></trkpt>
<trkpt lat="46.35615921" lon="8.63739109"><ele></ele><time>2014-4-20T18:10:23Z</time></trkpt>
<trkpt lat="46.35590744" lon="8.63690281"><ele></ele><time>2014-4-20T18:10:26Z</time></trkpt>
<trkpt lat="46.35561752" lon="8.63648129"><ele></ele><time>2014-4-20T18:10:29Z</time></trkpt>
<trkpt lat="46.35556412" lon="8.63639259"><ele></ele><time>2014-4-20T18:10:32Z</time></trkpt>
<trkpt lat="46.35535049" lon="8.63585281"><ele></ele><time>2014-4-20T18:10:35Z</time></trkpt>
<trkpt lat="46.35506821" lon="8.63509083"><ele></ele><time>2014-4-20T18:10:38Z</time></trkpt>
<trkpt lat="46.35485077" lon="8.63428974"><ele></ele><time>2014-4-20T18:10:41Z</time></trkpt>
<trkpt lat="46.35437012" lon="8.63323689"><ele></ele><time>2014-4-20T18:10:44Z</time></trkpt>
<trkpt lat="46.35396576" lon="8.63239384"><ele></ele><time>2014-4-20T18:10:47Z</time></trkpt>
<trkpt lat="46.35385513" lon="8.63214970"><ele></ele><time>2014-4-20T18:10:50Z</time></trkpt>
<trkpt lat="46.35373688" lon="8.63159561"><ele></ele><time>2014-4-20T18:10:53Z</time></trkpt>
<trkpt lat="46.35373306" lon="8.63093376"><ele></ele><time>2014-4-20T18:10:56Z</time></trkpt>
<trkpt lat="46.35374451" lon="8.63057899"><ele></ele><time>2014-4-20T18:10:59Z</time></trkpt>
<trkpt lat="46.35365677" lon="8.63005447"><ele></ele><time>2014-4-20T18:11:2Z</time></trkpt>
<trkpt lat="46.35353470" lon="8.62962246"><ele></ele><time>2014-4-20T18:11:5Z</time></trkpt>
<trkpt lat="46.35337830" lon="8.62932968"><ele></ele><time>2014-4-20T18:11:8Z</time></trkpt>
<trkpt lat="46.35335159" lon="8.62927246"><ele></ele><time>2014-4-20T18:11:11Z</time></trkpt>
<trkpt lat="46.35326004" lon="8.62887764"><ele></ele><time>2014-4-20T18:11:14Z</time></trkpt>
<trkpt lat="46.35325241" lon="8.62874699"><ele></ele><time>2014-4-20T18:11:17Z</time></trkpt>
<trkpt lat="46.35314941" lon="8.62814617"><ele></ele><time>2014-4-20T18:11:20Z</time></trkpt>
<trkpt lat="46.35313416" lon="8.62784290"><ele></ele><time>2014-4-20T18:11:23Z</time></trkpt>
<trkpt lat="46.35319138" lon="8.62748909"><ele></ele><time>2014-4-20T18:11:26Z</time></trkpt>
<trkpt lat="46.35322952" lon="8.62727165"><ele></ele><time>2014-4-20T18:11:29Z</time></trkpt>
<trkpt lat="46.35317230" lon="8.62699890"><ele></ele><time>2014-4-20T18:11:32Z</time></trkpt>
<trkpt lat="46.35309982" lon="8.62661076"><ele></ele><time>2014-4-20T18:11:35Z</time></trkpt>
<trkpt lat="46.35298157" lon="8.62619686"><ele></ele><time>2014-4-20T18:11:38Z</time></trkpt>
<trkpt lat="46.35294724" lon="8.62602043"><ele></ele><time>2014-4-20T18:11:41Z</time></trkpt>
<trkpt lat="46.35294724" lon="8.62551212"><ele></ele><time>2014-4-20T18:11:44Z</time></trkpt>
<trkpt lat="46.35296631" lon="8.62540817"><ele></ele><time>2014-4-20T18:11:47Z</time></trkpt>
<trkpt lat="46.35311890" lon="8.62486172"><ele></ele><time>2014-4-20T18:11:50Z</time></trkpt>
<trkpt lat="46.35311127" lon="8.62431145"><ele></ele><time>2014-4-20T18:11:53Z</time></trkpt>
<trkpt lat="46.35306549" lon="8.62416744"><ele></ele><time>2014-4-20T18:11:56Z</time></trkpt>
<trkpt lat="46.35292435" lon="8.62371254"><ele></ele><time>2014-4-20T18:11:59Z</time></trkpt>
<trkpt lat="46.35294342" lon="8.62324524"><ele></ele><time>2014-4-20T18:12:2Z</time></trkpt>
<trkpt lat="46.35308456" lon="8.62267399"><ele></ele><time>2014-4-20T18:12:5Z</time></trkpt>
<trkpt lat="46.35300827" lon="8.62239838"><ele></ele><time>2014-4-20T18:12:8Z</time></trkpt>
<trkpt lat="46.35268784" lon="8.62149906"><ele></ele><time>2014-4-20T18:12:11Z</time></trkpt>
<trkpt lat="46.35259628" lon="8.62096882"><ele></ele><time>2014-4-20T18:12:14Z</time></trkpt>
<trkpt lat="46.35242081" lon="8.62046528"><ele></ele><time>2014-4-20T18:12:17Z</time></trkpt>
<trkpt lat="46.35206604" lon="8.61988068"><ele></ele><time>2014-4-20T18:12:20Z</time></trkpt>
<trkpt lat="46.35188675" lon="8.61938286"><ele></ele><time>2014-4-20T18:12:23Z</time></trkpt>
<trkpt lat="46.35172272" lon="8.61889553"><ele></ele><time>2014-4-20T18:12:26Z</time></trkpt>
<trkpt lat="46.35146713" lon="8.61850166"><ele></ele><time>2014-4-20T18:12:29Z</time></trkpt>
<trkpt lat="46.35115051" lon="8.61824512"><ele></ele><time>2014-4-20T18:12:32Z</time></trkpt>
<trkpt lat="46.35106659" lon="8.61812210"><ele></ele><time>2014-4-20T18:12:35Z</time></trkpt>
<trkpt lat="46.35091400" lon="8.61785603"><ele></ele><time>2014-4-20T18:12:38Z</time></trkpt>
<trkpt lat="46.35040665" lon="8.61730862"><ele></ele><time>2014-4-20T18:12:41Z</time></trkpt>
<trkpt lat="46.34981155" lon="8.61681175"><ele></ele><time>2014-4-20T18:12:44Z</time></trkpt>
<trkpt lat="46.34951401" lon="8.61655903"><ele></ele><time>2014-4-20T18:12:47Z</time></trkpt>
<trkpt lat="46.34937668" lon="8.61663246"><ele></ele><time>2014-4-20T18:12:50Z</time></trkpt>
<trkpt lat="46.34949112" lon="8.61677265"><ele></ele><time>2014-4-20T18:12:53Z</time></trkpt>
<trkpt lat="46.34955978" lon="8.61681747"><ele></ele><time>2014-4-20T18:12:56Z</time></trkpt>
<trkpt lat="46.34969330" lon="8.61692238"><ele></ele><time>2014-4-20T18:12:59Z</time></trkpt>
<trkpt lat="46.34975433" lon="8.61706448"><ele></ele><time>2014-4-20T18:13:2Z</time></trkpt>
<trkpt lat="46.34968185" lon="8.61701965"><ele></ele><time>2014-4-20T18:13:5Z</time></trkpt>
<trkpt lat="46.34962845" lon="8.61698055"><ele></ele><time>2014-4-20T18:13:8Z</time></trkpt>
<trkpt lat="46.34925461" lon="8.61672688"><ele></ele><time>2014-4-20T18:13:11Z</time></trkpt>
<trkpt lat="46.34886551" lon="8.61640739"><ele></ele><time>2014-4-20T18:13:14Z</time></trkpt>
<trkpt lat="46.34849167" lon="8.61600971"><ele></ele><time>2014-4-20T18:13:17Z</time></trkpt>
<trkpt lat="46.34839630" lon="8.61563969"><ele></ele><time>2014-4-20T18:13:20Z</time></trkpt>
<trkpt lat="46.34842682" lon="8.61550713"><ele></ele><time>2014-4-20T18:13:23Z</time></trkpt>
<trkpt lat="46.34849548" lon="8.61523438"><ele></ele><time>2014-4-20T18:13:26Z</time></trkpt>
<trkpt lat="46.34841156" lon="8.61465263"><ele></ele><time>2014-4-20T18:13:29Z</time></trkpt>
<trkpt lat="46.34831238" lon="8.61451626"><ele></ele><time>2014-4-20T18:13:32Z</time></trkpt>
<trkpt lat="46.34794235" lon="8.61384487"><ele></ele><time>2014-4-20T18:13:35Z</time></trkpt>
<trkpt lat="46.34772110" lon="8.61323738"><ele></ele><time>2014-4-20T18:13:38Z</time></trkpt>
<trkpt lat="46.34740448" lon="8.61275482"><ele></ele><time>2014-4-20T18:13:41Z</time></trkpt>
<trkpt lat="46.34721756" lon="8.61255741"><ele></ele><time>2014-4-20T18:13:44Z</time></trkpt>
<trkpt lat="46.34644318" lon="8.61203480"><ele></ele><time>2014-4-20T18:13:47Z</time></trkpt>
<trkpt lat="46.34587097" lon="8.61167336"><ele></ele><time>2014-4-20T18:13:50Z</time></trkpt>
<trkpt lat="46.34540939" lon="8.61138344"><ele></ele><time>2014-4-20T18:13:53Z</time></trkpt>
<trkpt lat="46.34473801" lon="8.61095619"><ele></ele><time>2014-4-20T18:13:56Z</time></trkpt>
<trkpt lat="46.34411240" lon="8.61055660"><ele></ele><time>2014-4-20T18:13:59Z</time></trkpt>
<trkpt lat="46.34352493" lon="8.61017513"><ele></ele><time>2014-4-20T18:14:2Z</time></trkpt>
<trkpt lat="46.34292221" lon="8.60980225"><ele></ele><time>2014-4-20T18:14:5Z</time></trkpt>
<trkpt lat="46.34246445" lon="8.60961914"><ele></ele><time>2014-4-20T18:14:8Z</time></trkpt>
<trkpt lat="46.34188843" lon="8.60952854"><ele></ele><time>2014-4-20T18:14:11Z</time></trkpt>
<trkpt lat="46.34167862" lon="8.60951042"><ele></ele><time>2014-4-20T18:14:14Z</time></trkpt>
<trkpt lat="46.34118652" lon="8.60926056"><ele></ele><time>2014-4-20T18:14:17Z</time></trkpt>
<trkpt lat="46.34110641" lon="8.60917568"><ele></ele><time>2014-4-20T18:14:20Z</time></trkpt>
<trkpt lat="46.34081650" lon="8.60883045"><ele></ele><time>2014-4-20T18:14:23Z</time></trkpt>
<trkpt lat="46.34061813" lon="8.60839653"><ele></ele><time>2014-4-20T18:14:26Z</time></trkpt>
<trkpt lat="46.34052658" lon="8.60801888"><ele></ele><time>2014-4-20T18:14:29Z</time></trkpt>
<trkpt lat="46.34046936" lon="8.60769558"><ele></ele><time>2014-4-20T18:14:32Z</time></trkpt>
<trkpt lat="46.34031296" lon="8.60758877"><ele></ele><time>2014-4-20T18:14:35Z</time></trkpt>
<trkpt lat="46.33995056" lon="8.60758591"><ele></ele><time>2014-4-20T18:14:38Z</time></trkpt>
<trkpt lat="46.33943558" lon="8.60749722"><ele></ele><time>2014-4-20T18:14:41Z</time></trkpt>
<trkpt lat="46.33889008" lon="8.60731983"><ele></ele><time>2014-4-20T18:14:44Z</time></trkpt>
<trkpt lat="46.33833313" lon="8.60702515"><ele></ele><time>2014-4-20T18:14:47Z</time></trkpt>
<trkpt lat="46.33789063" lon="8.60679913"><ele></ele><time>2014-4-20T18:14:50Z</time></trkpt>
<trkpt lat="46.33745193" lon="8.60665035"><ele></ele><time>2014-4-20T18:14:53Z</time></trkpt>
<trkpt lat="46.33689880" lon="8.60656643"><ele></ele><time>2014-4-20T18:14:56Z</time></trkpt>
<trkpt lat="46.33632278" lon="8.60642338"><ele></ele><time>2014-4-20T18:14:59Z</time></trkpt>
<trkpt lat="46.33575058" lon="8.60635281"><ele></ele><time>2014-4-20T18:15:2Z</time></trkpt>
<trkpt lat="46.33517456" lon="8.60631561"><ele></ele><time>2014-4-20T18:15:5Z</time></trkpt>
<trkpt lat="46.33464432" lon="8.60630226"><ele></ele><time>2014-4-20T18:15:8Z</time></trkpt>
<trkpt lat="46.33415222" lon="8.60628986"><ele></ele><time>2014-4-20T18:15:11Z</time></trkpt>
<trkpt lat="46.33332062" lon="8.60627460"><ele></ele><time>2014-4-20T18:15:14Z</time></trkpt>
<trkpt lat="46.33295441" lon="8.60632038"><ele></ele><time>2014-4-20T18:15:17Z</time></trkpt>
<trkpt lat="46.33243942" lon="8.60637379"><ele></ele><time>2014-4-20T18:15:20Z</time></trkpt>
<trkpt lat="46.33184814" lon="8.60645294"><ele></ele><time>2014-4-20T18:15:23Z</time></trkpt>
<trkpt lat="46.33125687" lon="8.60652542"><ele></ele><time>2014-4-20T18:15:26Z</time></trkpt>
<trkpt lat="46.33051682" lon="8.60660362"><ele></ele><time>2014-4-20T18:15:29Z</time></trkpt>
<trkpt lat="46.32987213" lon="8.60665417"><ele></ele><time>2014-4-20T18:15:32Z</time></trkpt>
<trkpt lat="46.32950974" lon="8.60660458"><ele></ele><time>2014-4-20T18:15:35Z</time></trkpt>
<trkpt lat="46.32899475" lon="8.60651779"><ele></ele><time>2014-4-20T18:15:38Z</time></trkpt>
<trkpt lat="46.32850647" lon="8.60640430"><ele></ele><time>2014-4-20T18:15:41Z</time></trkpt>
<trkpt lat="46.32818985" lon="8.60624599"><ele></ele><time>2014-4-20T18:15:44Z</time></trkpt>
<trkpt lat="46.32767487" lon="8.60594177"><ele></ele><time>2014-4-20T18:15:47Z</time></trkpt>
<trkpt lat="46.32710648" lon="8.60562420"><ele></ele><time>2014-4-20T18:15:50Z</time></trkpt>
<trkpt lat="46.32672119" lon="8.60554409"><ele></ele><time>2014-4-20T18:15:53Z</time></trkpt>
<trkpt lat="46.32620621" lon="8.60548782"><ele></ele><time>2014-4-20T18:15:56Z</time></trkpt>
<trkpt lat="46.32612610" lon="8.60547638"><ele></ele><time>2014-4-20T18:15:59Z</time></trkpt>
<trkpt lat="46.32583618" lon="8.60534191"><ele></ele><time>2014-4-20T18:16:2Z</time></trkpt>
<trkpt lat="46.32519150" lon="8.60479641"><ele></ele><time>2014-4-20T18:16:5Z</time></trkpt>
<trkpt lat="46.32457733" lon="8.60428143"><ele></ele><time>2014-4-20T18:16:8Z</time></trkpt>
<trkpt lat="46.32397079" lon="8.60378075"><ele></ele><time>2014-4-20T18:16:11Z</time></trkpt>
<trkpt lat="46.32327271" lon="8.60320854"><ele></ele><time>2014-4-20T18:16:14Z</time></trkpt>
<trkpt lat="46.32279205" lon="8.60281658"><ele></ele><time>2014-4-20T18:16:17Z</time></trkpt>
<trkpt lat="46.32273102" lon="8.60277367"><ele></ele><time>2014-4-20T18:16:20Z</time></trkpt>
<trkpt lat="46.32229996" lon="8.60261440"><ele></ele><time>2014-4-20T18:16:23Z</time></trkpt>
<trkpt lat="46.32169724" lon="8.60244465"><ele></ele><time>2014-4-20T18:16:26Z</time></trkpt>
<trkpt lat="46.32122803" lon="8.60235310"><ele></ele><time>2014-4-20T18:16:29Z</time></trkpt>
<trkpt lat="46.32062912" lon="8.60228157"><ele></ele><time>2014-4-20T18:16:32Z</time></trkpt>
<trkpt lat="46.32010269" lon="8.60223579"><ele></ele><time>2014-4-20T18:16:35Z</time></trkpt>
<trkpt lat="46.31947327" lon="8.60218143"><ele></ele><time>2014-4-20T18:16:38Z</time></trkpt>
<trkpt lat="46.31890869" lon="8.60212708"><ele></ele><time>2014-4-20T18:16:41Z</time></trkpt>
<trkpt lat="46.31828690" lon="8.60206795"><ele></ele><time>2014-4-20T18:16:44Z</time></trkpt>
<trkpt lat="46.31821823" lon="8.60206413"><ele></ele><time>2014-4-20T18:16:47Z</time></trkpt>
<trkpt lat="46.31776428" lon="8.60218716"><ele></ele><time>2014-4-20T18:16:50Z</time></trkpt>
<trkpt lat="46.31738663" lon="8.60231304"><ele></ele><time>2014-4-20T18:16:53Z</time></trkpt>
<trkpt lat="46.31694031" lon="8.60247707"><ele></ele><time>2014-4-20T18:16:56Z</time></trkpt>
<trkpt lat="46.31644821" lon="8.60268784"><ele></ele><time>2014-4-20T18:16:59Z</time></trkpt>
<trkpt lat="46.31588364" lon="8.60295010"><ele></ele><time>2014-4-20T18:17:2Z</time></trkpt>
<trkpt lat="46.31541824" lon="8.60325813"><ele></ele><time>2014-4-20T18:17:5Z</time></trkpt>
<trkpt lat="46.31489944" lon="8.60365009"><ele></ele><time>2014-4-20T18:17:8Z</time></trkpt>
<trkpt lat="46.31438446" lon="8.60408115"><ele></ele><time>2014-4-20T18:17:11Z</time></trkpt>
<trkpt lat="46.31413269" lon="8.60430622"><ele></ele><time>2014-4-20T18:17:14Z</time></trkpt>
<trkpt lat="46.31400681" lon="8.60446358"><ele></ele><time>2014-4-20T18:17:17Z</time></trkpt>
<trkpt lat="46.31364059" lon="8.60476208"><ele></ele><time>2014-4-20T18:17:20Z</time></trkpt>
<trkpt lat="46.31319427" lon="8.60511589"><ele></ele><time>2014-4-20T18:17:23Z</time></trkpt>
<trkpt lat="46.31314468" lon="8.60515404"><ele></ele><time>2014-4-20T18:17:26Z</time></trkpt>
<trkpt lat="46.31277466" lon="8.60547256"><ele></ele><time>2014-4-20T18:17:29Z</time></trkpt>
<trkpt lat="46.31272125" lon="8.60552025"><ele></ele><time>2014-4-20T18:17:32Z</time></trkpt>
<trkpt lat="46.31235504" lon="8.60580826"><ele></ele><time>2014-4-20T18:17:35Z</time></trkpt>
<trkpt lat="46.31201935" lon="8.60608673"><ele></ele><time>2014-4-20T18:17:38Z</time></trkpt>
<trkpt lat="46.31152725" lon="8.60649967"><ele></ele><time>2014-4-20T18:17:41Z</time></trkpt>
<trkpt lat="46.31108856" lon="8.60686874"><ele></ele><time>2014-4-20T18:17:44Z</time></trkpt>
<trkpt lat="46.31058884" lon="8.60729313"><ele></ele><time>2014-4-20T18:17:47Z</time></trkpt>
<trkpt lat="46.31017303" lon="8.60761642"><ele></ele><time>2014-4-20T18:17:50Z</time></trkpt>
<trkpt lat="46.30982971" lon="8.60782909"><ele></ele><time>2014-4-20T18:17:53Z</time></trkpt>
<trkpt lat="46.30959320" lon="8.60810375"><ele></ele><time>2014-4-20T18:17:56Z</time></trkpt>
<trkpt lat="46.30932236" lon="8.60855389"><ele></ele><time>2014-4-20T18:17:59Z</time></trkpt>
<trkpt lat="46.30908966" lon="8.60899925"><ele></ele><time>2014-4-20T18:18:2Z</time></trkpt>
<trkpt lat="46.30902863" lon="8.60932827"><ele></ele><time>2014-4-20T18:18:5Z</time></trkpt>
<trkpt lat="46.30903625" lon="8.60980225"><ele></ele><time>2014-4-20T18:18:8Z</time></trkpt>
<trkpt lat="46.30904388" lon="8.61019707"><ele></ele><time>2014-4-20T18:18:11Z</time></trkpt>
<trkpt lat="46.30896378" lon="8.61043072"><ele></ele><time>2014-4-20T18:18:14Z</time></trkpt>
<trkpt lat="46.30883026" lon="8.61046791"><ele></ele><time>2014-4-20T18:18:17Z</time></trkpt>
<trkpt lat="46.30840302" lon="8.61045170"><ele></ele><time>2014-4-20T18:18:20Z</time></trkpt>
<trkpt lat="46.30821609" lon="8.61050797"><ele></ele><time>2014-4-20T18:18:23Z</time></trkpt>
<trkpt lat="46.30785751" lon="8.61077690"><ele></ele><time>2014-4-20T18:18:26Z</time></trkpt>
<trkpt lat="46.30755234" lon="8.61112499"><ele></ele><time>2014-4-20T18:18:29Z</time></trkpt>
<trkpt lat="46.30723572" lon="8.61147308"><ele></ele><time>2014-4-20T18:18:32Z</time></trkpt>
<trkpt lat="46.30683899" lon="8.61192989"><ele></ele><time>2014-4-20T18:18:35Z</time></trkpt>
<trkpt lat="46.30658722" lon="8.61237907"><ele></ele><time>2014-4-20T18:18:38Z</time></trkpt>
<trkpt lat="46.30643082" lon="8.61286545"><ele></ele><time>2014-4-20T18:18:41Z</time></trkpt>
<trkpt lat="46.30632019" lon="8.61345291"><ele></ele><time>2014-4-20T18:18:44Z</time></trkpt>
<trkpt lat="46.30621719" lon="8.61411381"><ele></ele><time>2014-4-20T18:18:47Z</time></trkpt>
<trkpt lat="46.30612946" lon="8.61445332"><ele></ele><time>2014-4-20T18:18:50Z</time></trkpt>
<trkpt lat="46.30591583" lon="8.61491013"><ele></ele><time>2014-4-20T18:18:53Z</time></trkpt>
<trkpt lat="46.30564499" lon="8.61533833"><ele></ele><time>2014-4-20T18:18:56Z</time></trkpt>
<trkpt lat="46.30530930" lon="8.61585331"><ele></ele><time>2014-4-20T18:18:59Z</time></trkpt>
<trkpt lat="46.30519485" lon="8.61603642"><ele></ele><time>2014-4-20T18:19:2Z</time></trkpt>
<trkpt lat="46.30498123" lon="8.61635399"><ele></ele><time>2014-4-20T18:19:5Z</time></trkpt>
<trkpt lat="46.30461121" lon="8.61694431"><ele></ele><time>2014-4-20T18:19:8Z</time></trkpt>
<trkpt lat="46.30421829" lon="8.61737633"><ele></ele><time>2014-4-20T18:19:11Z</time></trkpt>
<trkpt lat="46.30373383" lon="8.61800385"><ele></ele><time>2014-4-20T18:19:14Z</time></trkpt>
<trkpt lat="46.30343628" lon="8.61832714"><ele></ele><time>2014-4-20T18:19:17Z</time></trkpt>
<trkpt lat="46.30300522" lon="8.61859035"><ele></ele><time>2014-4-20T18:19:20Z</time></trkpt>
<trkpt lat="46.30286407" lon="8.61867523"><ele></ele><time>2014-4-20T18:19:23Z</time></trkpt>
<trkpt lat="46.30246353" lon="8.61910439"><ele></ele><time>2014-4-20T18:19:26Z</time></trkpt>
<trkpt lat="46.30199814" lon="8.61980343"><ele></ele><time>2014-4-20T18:19:29Z</time></trkpt>
<trkpt lat="46.30146790" lon="8.62063026"><ele></ele><time>2014-4-20T18:19:32Z</time></trkpt>
<trkpt lat="46.30100632" lon="8.62140560"><ele></ele><time>2014-4-20T18:19:35Z</time></trkpt>
<trkpt lat="46.30060196" lon="8.62208843"><ele></ele><time>2014-4-20T18:19:38Z</time></trkpt>
<trkpt lat="46.30009842" lon="8.62294769"><ele></ele><time>2014-4-20T18:19:41Z</time></trkpt>
<trkpt lat="46.29967117" lon="8.62364674"><ele></ele><time>2014-4-20T18:19:44Z</time></trkpt>
<trkpt lat="46.29936218" lon="8.62420082"><ele></ele><time>2014-4-20T18:19:47Z</time></trkpt>
<trkpt lat="46.29891205" lon="8.62491035"><ele></ele><time>2014-4-20T18:19:50Z</time></trkpt>
<trkpt lat="46.29851151" lon="8.62568188"><ele></ele><time>2014-4-20T18:19:53Z</time></trkpt>
<trkpt lat="46.29810333" lon="8.62648678"><ele></ele><time>2014-4-20T18:19:56Z</time></trkpt>
<trkpt lat="46.29777527" lon="8.62717819"><ele></ele><time>2014-4-20T18:19:59Z</time></trkpt>
<trkpt lat="46.29755783" lon="8.62780380"><ele></ele><time>2014-4-20T18:20:2Z</time></trkpt>
<trkpt lat="46.29726410" lon="8.62867641"><ele></ele><time>2014-4-20T18:20:5Z</time></trkpt>
<trkpt lat="46.29686356" lon="8.62976360"><ele></ele><time>2014-4-20T18:20:8Z</time></trkpt>
<trkpt lat="46.29660416" lon="8.63043976"><ele></ele><time>2014-4-20T18:20:11Z</time></trkpt>
<trkpt lat="46.29629898" lon="8.63129807"><ele></ele><time>2014-4-20T18:20:14Z</time></trkpt>
<trkpt lat="46.29589844" lon="8.63241577"><ele></ele><time>2014-4-20T18:20:17Z</time></trkpt>
<trkpt lat="46.29547501" lon="8.63352776"><ele></ele><time>2014-4-20T18:20:20Z</time></trkpt>
<trkpt lat="46.29513550" lon="8.63445473"><ele></ele><time>2014-4-20T18:20:23Z</time></trkpt>
<trkpt lat="46.29475784" lon="8.63550568"><ele></ele><time>2014-4-20T18:20:26Z</time></trkpt>
<trkpt lat="46.29446411" lon="8.63632584"><ele></ele><time>2014-4-20T18:20:29Z</time></trkpt>
<trkpt lat="46.29409790" lon="8.63739967"><ele></ele><time>2014-4-20T18:20:32Z</time></trkpt>
<trkpt lat="46.29380798" lon="8.63822556"><ele></ele><time>2014-4-20T18:20:35Z</time></trkpt>
<trkpt lat="46.29355621" lon="8.63895226"><ele></ele><time>2014-4-20T18:20:38Z</time></trkpt>
<trkpt lat="46.29344559" lon="8.63950920"><ele></ele><time>2014-4-20T18:20:41Z</time></trkpt>
<trkpt lat="46.29348373" lon="8.64010906"><ele></ele><time>2014-4-20T18:20:44Z</time></trkpt>
<trkpt lat="46.29362869" lon="8.64060307"><ele></ele><time>2014-4-20T18:20:47Z</time></trkpt>
<trkpt lat="46.29384995" lon="8.64102554"><ele></ele><time>2014-4-20T18:20:50Z</time></trkpt>
<trkpt lat="46.29411316" lon="8.64143658"><ele></ele><time>2014-4-20T18:20:53Z</time></trkpt>
<trkpt lat="46.29418945" lon="8.64176941"><ele></ele><time>2014-4-20T18:20:56Z</time></trkpt>
<trkpt lat="46.29407120" lon="8.64241123"><ele></ele><time>2014-4-20T18:20:59Z</time></trkpt>
<trkpt lat="46.29386902" lon="8.64295483"><ele></ele><time>2014-4-20T18:21:2Z</time></trkpt>
<trkpt lat="46.29350281" lon="8.64390373"><ele></ele><time>2014-4-20T18:21:5Z</time></trkpt>
<trkpt lat="46.29322052" lon="8.64441204"><ele></ele><time>2014-4-20T18:21:8Z</time></trkpt>
<trkpt lat="46.29291153" lon="8.64478016"><ele></ele><time>2014-4-20T18:21:11Z</time></trkpt>
<trkpt lat="46.29262161" lon="8.64511681"><ele></ele><time>2014-4-20T18:21:14Z</time></trkpt>
<trkpt lat="46.29239655" lon="8.64555931"><ele></ele><time>2014-4-20T18:21:17Z</time></trkpt>
<trkpt lat="46.29237366" lon="8.64562321"><ele></ele><time>2014-4-20T18:21:20Z</time></trkpt>
<trkpt lat="46.29233170" lon="8.64576912"><ele></ele><time>2014-4-20T18:21:23Z</time></trkpt>
<trkpt lat="46.29225159" lon="8.64632320"><ele></ele><time>2014-4-20T18:21:26Z</time></trkpt>
<trkpt lat="46.29218674" lon="8.64691830"><ele></ele><time>2014-4-20T18:21:29Z</time></trkpt>
<trkpt lat="46.29201126" lon="8.64780998"><ele></ele><time>2014-4-20T18:21:32Z</time></trkpt>
<trkpt lat="46.29176331" lon="8.64869881"><ele></ele><time>2014-4-20T18:21:35Z</time></trkpt>
<trkpt lat="46.29149246" lon="8.64939022"><ele></ele><time>2014-4-20T18:21:38Z</time></trkpt>
<trkpt lat="46.29114914" lon="8.65003395"><ele></ele><time>2014-4-20T18:21:41Z</time></trkpt>
<trkpt lat="46.29067612" lon="8.65082836"><ele></ele><time>2014-4-20T18:21:44Z</time></trkpt>
<trkpt lat="46.29016876" lon="8.65156937"><ele></ele><time>2014-4-20T18:21:47Z</time></trkpt>
<trkpt lat="46.28969955" lon="8.65234470"><ele></ele><time>2014-4-20T18:21:50Z</time></trkpt>
<trkpt lat="46.28965378" lon="8.65242290"><ele></ele><time>2014-4-20T18:21:53Z</time></trkpt>
<trkpt lat="46.28937531" lon="8.65297031"><ele></ele><time>2014-4-20T18:21:56Z</time></trkpt>
<trkpt lat="46.28922272" lon="8.65350914"><ele></ele><time>2014-4-20T18:21:59Z</time></trkpt>
<trkpt lat="46.28909302" lon="8.65416527"><ele></ele><time>2014-4-20T18:22:2Z</time></trkpt>
<trkpt lat="46.28899765" lon="8.65492535"><ele></ele><time>2014-4-20T18:22:5Z</time></trkpt>
<trkpt lat="46.28894043" lon="8.65546989"><ele></ele><time>2014-4-20T18:22:8Z</time></trkpt>
<trkpt lat="46.28893280" lon="8.65554142"><ele></ele><time>2014-4-20T18:22:11Z</time></trkpt>
<trkpt lat="46.28887177" lon="8.65598965"><ele></ele><time>2014-4-20T18:22:14Z</time></trkpt>
<trkpt lat="46.28879547" lon="8.65647411"><ele></ele><time>2014-4-20T18:22:17Z</time></trkpt>
<trkpt lat="46.28871536" lon="8.65694141"><ele></ele><time>2014-4-20T18:22:20Z</time></trkpt>
<trkpt lat="46.28861618" lon="8.65741062"><ele></ele><time>2014-4-20T18:22:23Z</time></trkpt>
<trkpt lat="46.28849411" lon="8.65791702"><ele></ele><time>2014-4-20T18:22:26Z</time></trkpt>
<trkpt lat="46.28834152" lon="8.65847015"><ele></ele><time>2014-4-20T18:22:29Z</time></trkpt>
<trkpt lat="46.28818130" lon="8.65897846"><ele></ele><time>2014-4-20T18:22:32Z</time></trkpt>
<trkpt lat="46.28800201" lon="8.65954018"><ele></ele><time>2014-4-20T18:22:35Z</time></trkpt>
<trkpt lat="46.28778839" lon="8.66016197"><ele></ele><time>2014-4-20T18:22:38Z</time></trkpt>
<trkpt lat="46.28753281" lon="8.66062832"><ele></ele><time>2014-4-20T18:22:41Z</time></trkpt>
<trkpt lat="46.28721619" lon="8.66100883"><ele></ele><time>2014-4-20T18:22:44Z</time></trkpt>
<trkpt lat="46.28689957" lon="8.66138458"><ele></ele><time>2014-4-20T18:22:47Z</time></trkpt>
<trkpt lat="46.28662109" lon="8.66182613"><ele></ele><time>2014-4-20T18:22:50Z</time></trkpt>
<trkpt lat="46.28644943" lon="8.66236210"><ele></ele><time>2014-4-20T18:22:53Z</time></trkpt>
<trkpt lat="46.28638077" lon="8.66287994"><ele></ele><time>2014-4-20T18:22:56Z</time></trkpt>
<trkpt lat="46.28631592" lon="8.66348171"><ele></ele><time>2014-4-20T18:22:59Z</time></trkpt>
<trkpt lat="46.28620911" lon="8.66437626"><ele></ele><time>2014-4-20T18:23:2Z</time></trkpt>
<trkpt lat="46.28607178" lon="8.66497993"><ele></ele><time>2014-4-20T18:23:5Z</time></trkpt>
<trkpt lat="46.28585052" lon="8.66552639"><ele></ele><time>2014-4-20T18:23:8Z</time></trkpt>
<trkpt lat="46.28552628" lon="8.66623211"><ele></ele><time>2014-4-20T18:23:11Z</time></trkpt>
<trkpt lat="46.28523254" lon="8.66687489"><ele></ele><time>2014-4-20T18:23:14Z</time></trkpt>
<trkpt lat="46.28487396" lon="8.66761971"><ele></ele><time>2014-4-20T18:23:17Z</time></trkpt>
<trkpt lat="46.28444672" lon="8.66834641"><ele></ele><time>2014-4-20T18:23:20Z</time></trkpt>
<trkpt lat="46.28402328" lon="8.66900730"><ele></ele><time>2014-4-20T18:23:23Z</time></trkpt>
<trkpt lat="46.28359985" lon="8.66947365"><ele></ele><time>2014-4-20T18:23:26Z</time></trkpt>
<trkpt lat="46.28313065" lon="8.66987228"><ele></ele><time>2014-4-20T18:23:29Z</time></trkpt>
<trkpt lat="46.28265381" lon="8.67023659"><ele></ele><time>2014-4-20T18:23:32Z</time></trkpt>
<trkpt lat="46.28204727" lon="8.67065144"><ele></ele><time>2014-4-20T18:23:35Z</time></trkpt>
<trkpt lat="46.28146744" lon="8.67098808"><ele></ele><time>2014-4-20T18:23:38Z</time></trkpt>
<trkpt lat="46.28081894" lon="8.67133904"><ele></ele><time>2014-4-20T18:23:41Z</time></trkpt>
<trkpt lat="46.28042221" lon="8.67163658"><ele></ele><time>2014-4-20T18:23:44Z</time></trkpt>
<trkpt lat="46.28015900" lon="8.67197418"><ele></ele><time>2014-4-20T18:23:47Z</time></trkpt>
<trkpt lat="46.27990341" lon="8.67240047"><ele></ele><time>2014-4-20T18:23:50Z</time></trkpt>
<trkpt lat="46.27954483" lon="8.67291927"><ele></ele><time>2014-4-20T18:23:53Z</time></trkpt>
<trkpt lat="46.27927399" lon="8.67324829"><ele></ele><time>2014-4-20T18:23:56Z</time></trkpt>
<trkpt lat="46.27877045" lon="8.67359447"><ele></ele><time>2014-4-20T18:23:59Z</time></trkpt>
<trkpt lat="46.27831650" lon="8.67375374"><ele></ele><time>2014-4-20T18:24:2Z</time></trkpt>
<trkpt lat="46.27785492" lon="8.67384815"><ele></ele><time>2014-4-20T18:24:5Z</time></trkpt>
<trkpt lat="46.27743912" lon="8.67397976"><ele></ele><time>2014-4-20T18:24:8Z</time></trkpt>
<trkpt lat="46.27689743" lon="8.67417526"><ele></ele><time>2014-4-20T18:24:11Z</time></trkpt>
<trkpt lat="46.27636719" lon="8.67442322"><ele></ele><time>2014-4-20T18:24:14Z</time></trkpt>
<trkpt lat="46.27599335" lon="8.67474174"><ele></ele><time>2014-4-20T18:24:17Z</time></trkpt>
<trkpt lat="46.27567673" lon="8.67514515"><ele></ele><time>2014-4-20T18:24:20Z</time></trkpt>
<trkpt lat="46.27545547" lon="8.67554665"><ele></ele><time>2014-4-20T18:24:23Z</time></trkpt>
<trkpt lat="46.27524948" lon="8.67606926"><ele></ele><time>2014-4-20T18:24:26Z</time></trkpt>
<trkpt lat="46.27506256" lon="8.67665386"><ele></ele><time>2014-4-20T18:24:29Z</time></trkpt>
<trkpt lat="46.27498245" lon="8.67690945"><ele></ele><time>2014-4-20T18:24:32Z</time></trkpt>
<trkpt lat="46.27473831" lon="8.67744255"><ele></ele><time>2014-4-20T18:24:35Z</time></trkpt>
<trkpt lat="46.27470398" lon="8.67751503"><ele></ele><time>2014-4-20T18:24:38Z</time></trkpt>
<trkpt lat="46.27428055" lon="8.67813873"><ele></ele><time>2014-4-20T18:24:41Z</time></trkpt>
<trkpt lat="46.27387619" lon="8.67872334"><ele></ele><time>2014-4-20T18:24:44Z</time></trkpt>
<trkpt lat="46.27357864" lon="8.67913246"><ele></ele><time>2014-4-20T18:24:47Z</time></trkpt>
<trkpt lat="46.27315140" lon="8.67973042"><ele></ele><time>2014-4-20T18:24:50Z</time></trkpt>
<trkpt lat="46.27266693" lon="8.68038273"><ele></ele><time>2014-4-20T18:24:53Z</time></trkpt>
<trkpt lat="46.27227402" lon="8.68102932"><ele></ele><time>2014-4-20T18:24:56Z</time></trkpt>
<trkpt lat="46.27207565" lon="8.68131638"><ele></ele><time>2014-4-20T18:24:59Z</time></trkpt>
<trkpt lat="46.27184677" lon="8.68166924"><ele></ele><time>2014-4-20T18:25:2Z</time></trkpt>
<trkpt lat="46.27153015" lon="8.68204880"><ele></ele><time>2014-4-20T18:25:5Z</time></trkpt>
<trkpt lat="46.27119064" lon="8.68231678"><ele></ele><time>2014-4-20T18:25:8Z</time></trkpt>
<trkpt lat="46.27070236" lon="8.68253040"><ele></ele><time>2014-4-20T18:25:11Z</time></trkpt>
<trkpt lat="46.27013016" lon="8.68267441"><ele></ele><time>2014-4-20T18:25:14Z</time></trkpt>
<trkpt lat="46.26966858" lon="8.68275738"><ele></ele><time>2014-4-20T18:25:17Z</time></trkpt>
<trkpt lat="46.26914215" lon="8.68287754"><ele></ele><time>2014-4-20T18:25:20Z</time></trkpt>
<trkpt lat="46.26850128" lon="8.68313503"><ele></ele><time>2014-4-20T18:25:23Z</time></trkpt>
<trkpt lat="46.26811981" lon="8.68342304"><ele></ele><time>2014-4-20T18:25:26Z</time></trkpt>
<trkpt lat="46.26776886" lon="8.68385124"><ele></ele><time>2014-4-20T18:25:29Z</time></trkpt>
<trkpt lat="46.26742554" lon="8.68433094"><ele></ele><time>2014-4-20T18:25:32Z</time></trkpt>
<trkpt lat="46.26708603" lon="8.68478775"><ele></ele><time>2014-4-20T18:25:35Z</time></trkpt>
<trkpt lat="46.26666641" lon="8.68535614"><ele></ele><time>2014-4-20T18:25:38Z</time></trkpt>
<trkpt lat="46.26626587" lon="8.68589497"><ele></ele><time>2014-4-20T18:25:41Z</time></trkpt>
<trkpt lat="46.26600647" lon="8.68623638"><ele></ele><time>2014-4-20T18:25:44Z</time></trkpt>
<trkpt lat="46.26568222" lon="8.68658543"><ele></ele><time>2014-4-20T18:25:47Z</time></trkpt>
<trkpt lat="46.26564026" lon="8.68663979"><ele></ele><time>2014-4-20T18:25:50Z</time></trkpt>
<trkpt lat="46.26556396" lon="8.68675518"><ele></ele><time>2014-4-20T18:25:53Z</time></trkpt>
<trkpt lat="46.26546478" lon="8.68690777"><ele></ele><time>2014-4-20T18:25:56Z</time></trkpt>
<trkpt lat="46.26519775" lon="8.68718147"><ele></ele><time>2014-4-20T18:25:59Z</time></trkpt>
<trkpt lat="46.26485825" lon="8.68749619"><ele></ele><time>2014-4-20T18:26:2Z</time></trkpt>
<trkpt lat="46.26452637" lon="8.68780994"><ele></ele><time>2014-4-20T18:26:5Z</time></trkpt>
<trkpt lat="46.26413727" lon="8.68820477"><ele></ele><time>2014-4-20T18:26:8Z</time></trkpt>
<trkpt lat="46.26380920" lon="8.68851089"><ele></ele><time>2014-4-20T18:26:11Z</time></trkpt>
<trkpt lat="46.26351547" lon="8.68880463"><ele></ele><time>2014-4-20T18:26:14Z</time></trkpt>
<trkpt lat="46.26324081" lon="8.68902683"><ele></ele><time>2014-4-20T18:26:17Z</time></trkpt>
<trkpt lat="46.26297379" lon="8.68917274"><ele></ele><time>2014-4-20T18:26:20Z</time></trkpt>
<trkpt lat="46.26264191" lon="8.68930340"><ele></ele><time>2014-4-20T18:26:23Z</time></trkpt>
<trkpt lat="46.26254654" lon="8.68932629"><ele></ele><time>2014-4-20T18:26:26Z</time></trkpt>
<trkpt lat="46.26240540" lon="8.68934917"><ele></ele><time>2014-4-20T18:26:29Z</time></trkpt>
<trkpt lat="46.26221085" lon="8.68939114"><ele></ele><time>2014-4-20T18:26:32Z</time></trkpt>
<trkpt lat="46.26190567" lon="8.68957520"><ele></ele><time>2014-4-20T18:26:35Z</time></trkpt>
<trkpt lat="46.26165009" lon="8.68980026"><ele></ele><time>2014-4-20T18:26:38Z</time></trkpt>
<trkpt lat="46.26129150" lon="8.69014740"><ele></ele><time>2014-4-20T18:26:41Z</time></trkpt>
<trkpt lat="46.26089478" lon="8.69050217"><ele></ele><time>2014-4-20T18:26:44Z</time></trkpt>
<trkpt lat="46.26063919" lon="8.69072247"><ele></ele><time>2014-4-20T18:26:47Z</time></trkpt>
<trkpt lat="46.26020050" lon="8.69104767"><ele></ele><time>2014-4-20T18:26:50Z</time></trkpt>
<trkpt lat="46.25955582" lon="8.69158554"><ele></ele><time>2014-4-20T18:26:53Z</time></trkpt>
<trkpt lat="46.25927353" lon="8.69183254"><ele></ele><time>2014-4-20T18:26:56Z</time></trkpt>
<trkpt lat="46.25883865" lon="8.69217014"><ele></ele><time>2014-4-20T18:26:59Z</time></trkpt>
<trkpt lat="46.25841522" lon="8.69240856"><ele></ele><time>2014-4-20T18:27:2Z</time></trkpt>
<trkpt lat="46.25800705" lon="8.69263268"><ele></ele><time>2014-4-20T18:27:5Z</time></trkpt>
<trkpt lat="46.25764084" lon="8.69292259"><ele></ele><time>2014-4-20T18:27:8Z</time></trkpt>
<trkpt lat="46.25719452" lon="8.69339085"><ele></ele><time>2014-4-20T18:27:11Z</time></trkpt>
<trkpt lat="46.25677872" lon="8.69384766"><ele></ele><time>2014-4-20T18:27:14Z</time></trkpt>
<trkpt lat="46.25638962" lon="8.69426346"><ele></ele><time>2014-4-20T18:27:17Z</time></trkpt>
<trkpt lat="46.25592422" lon="8.69474316"><ele></ele><time>2014-4-20T18:27:20Z</time></trkpt>
<trkpt lat="46.25534821" lon="8.69533062"><ele></ele><time>2014-4-20T18:27:23Z</time></trkpt>
<trkpt lat="46.25490952" lon="8.69585037"><ele></ele><time>2014-4-20T18:27:26Z</time></trkpt>
<trkpt lat="46.25466919" lon="8.69620800"><ele></ele><time>2014-4-20T18:27:29Z</time></trkpt>
<trkpt lat="46.25459671" lon="8.69630623"><ele></ele><time>2014-4-20T18:27:32Z</time></trkpt>
<trkpt lat="46.25431442" lon="8.69673347"><ele></ele><time>2014-4-20T18:27:35Z</time></trkpt>
<trkpt lat="46.25394440" lon="8.69728374"><ele></ele><time>2014-4-20T18:27:38Z</time></trkpt>
<trkpt lat="46.25363159" lon="8.69775486"><ele></ele><time>2014-4-20T18:27:41Z</time></trkpt>
<trkpt lat="46.25329971" lon="8.69826698"><ele></ele><time>2014-4-20T18:27:44Z</time></trkpt>
<trkpt lat="46.25312424" lon="8.69858932"><ele></ele><time>2014-4-20T18:27:47Z</time></trkpt>
<trkpt lat="46.25295258" lon="8.69884968"><ele></ele><time>2014-4-20T18:27:50Z</time></trkpt>
<trkpt lat="46.25281525" lon="8.69912338"><ele></ele><time>2014-4-20T18:27:53Z</time></trkpt>
<trkpt lat="46.25263214" lon="8.69928074"><ele></ele><time>2014-4-20T18:27:56Z</time></trkpt>
<trkpt lat="46.25236511" lon="8.69936275"><ele></ele><time>2014-4-20T18:27:59Z</time></trkpt>
<trkpt lat="46.25205994" lon="8.69955444"><ele></ele><time>2014-4-20T18:28:2Z</time></trkpt>
<trkpt lat="46.25179672" lon="8.69971943"><ele></ele><time>2014-4-20T18:28:5Z</time></trkpt>
<trkpt lat="46.25146866" lon="8.69993401"><ele></ele><time>2014-4-20T18:28:8Z</time></trkpt>
<trkpt lat="46.25118637" lon="8.70011044"><ele></ele><time>2014-4-20T18:28:11Z</time></trkpt>
<trkpt lat="46.25098038" lon="8.70023537"><ele></ele><time>2014-4-20T18:28:14Z</time></trkpt>
<trkpt lat="46.25073624" lon="8.70038414"><ele></ele><time>2014-4-20T18:28:17Z</time></trkpt>
<trkpt lat="46.25048065" lon="8.70053959"><ele></ele><time>2014-4-20T18:28:20Z</time></trkpt>
<trkpt lat="46.25019836" lon="8.70072842"><ele></ele><time>2014-4-20T18:28:23Z</time></trkpt>
<trkpt lat="46.24996948" lon="8.70086670"><ele></ele><time>2014-4-20T18:28:26Z</time></trkpt>
<trkpt lat="46.24964905" lon="8.70106792"><ele></ele><time>2014-4-20T18:28:29Z</time></trkpt>
<trkpt lat="46.24940491" lon="8.70121098"><ele></ele><time>2014-4-20T18:28:32Z</time></trkpt>
<trkpt lat="46.24912262" lon="8.70138741"><ele></ele><time>2014-4-20T18:28:35Z</time></trkpt>
<trkpt lat="46.24876022" lon="8.70160961"><ele></ele><time>2014-4-20T18:28:38Z</time></trkpt>
<trkpt lat="46.24871445" lon="8.70163822"><ele></ele><time>2014-4-20T18:28:41Z</time></trkpt>
<trkpt lat="46.24852753" lon="8.70175457"><ele></ele><time>2014-4-20T18:28:44Z</time></trkpt>
<trkpt lat="46.24828720" lon="8.70191288"><ele></ele><time>2014-4-20T18:28:47Z</time></trkpt>
<trkpt lat="46.24818420" lon="8.70196533"><ele></ele><time>2014-4-20T18:28:50Z</time></trkpt>
<trkpt lat="46.24792862" lon="8.70215702"><ele></ele><time>2014-4-20T18:28:53Z</time></trkpt>
<trkpt lat="46.24779510" lon="8.70234966"><ele></ele><time>2014-4-20T18:28:56Z</time></trkpt>
<trkpt lat="46.24771118" lon="8.70280266"><ele></ele><time>2014-4-20T18:28:59Z</time></trkpt>
<trkpt lat="46.24783707" lon="8.70304108"><ele></ele><time>2014-4-20T18:29:2Z</time></trkpt>
<trkpt lat="46.24790192" lon="8.70310402"><ele></ele><time>2014-4-20T18:29:5Z</time></trkpt>
<trkpt lat="46.24811554" lon="8.70328331"><ele></ele><time>2014-4-20T18:29:8Z</time></trkpt>
<trkpt lat="46.24826813" lon="8.70363331"><ele></ele><time>2014-4-20T18:29:11Z</time></trkpt>
<trkpt lat="46.24821854" lon="8.70389175"><ele></ele><time>2014-4-20T18:29:14Z</time></trkpt>
<trkpt lat="46.24816895" lon="8.70400429"><ele></ele><time>2014-4-20T18:29:17Z</time></trkpt>
<trkpt lat="46.24780655" lon="8.70468521"><ele></ele><time>2014-4-20T18:29:20Z</time></trkpt>
<trkpt lat="46.24771881" lon="8.70485210"><ele></ele><time>2014-4-20T18:29:23Z</time></trkpt>
<trkpt lat="46.24745178" lon="8.70511246"><ele></ele><time>2014-4-20T18:29:26Z</time></trkpt>
<trkpt lat="46.24703979" lon="8.70538521"><ele></ele><time>2014-4-20T18:29:29Z</time></trkpt>
<trkpt lat="46.24677277" lon="8.70567417"><ele></ele><time>2014-4-20T18:29:32Z</time></trkpt>
<trkpt lat="46.24646759" lon="8.70601463"><ele></ele><time>2014-4-20T18:29:35Z</time></trkpt>
<trkpt lat="46.24617386" lon="8.70635700"><ele></ele><time>2014-4-20T18:29:38Z</time></trkpt>
<trkpt lat="46.24610519" lon="8.70643902"><ele></ele><time>2014-4-20T18:29:41Z</time></trkpt>
<trkpt lat="46.24596786" lon="8.70660114"><ele></ele><time>2014-4-20T18:29:44Z</time></trkpt>
<trkpt lat="46.24575424" lon="8.70683861"><ele></ele><time>2014-4-20T18:29:47Z</time></trkpt>
<trkpt lat="46.24567032" lon="8.70704079"><ele></ele><time>2014-4-20T18:29:50Z</time></trkpt>
<trkpt lat="46.24566650" lon="8.70716095"><ele></ele><time>2014-4-20T18:29:53Z</time></trkpt>
<trkpt lat="46.24568176" lon="8.70767117"><ele></ele><time>2014-4-20T18:29:56Z</time></trkpt>
<trkpt lat="46.24570847" lon="8.70797062"><ele></ele><time>2014-4-20T18:29:59Z</time></trkpt>
<trkpt lat="46.24574280" lon="8.70830345"><ele></ele><time>2014-4-20T18:30:2Z</time></trkpt>
<trkpt lat="46.24576187" lon="8.70835209"><ele></ele><time>2014-4-20T18:30:5Z</time></trkpt>
<trkpt lat="46.24583435" lon="8.70858860"><ele></ele><time>2014-4-20T18:30:8Z</time></trkpt>
<trkpt lat="46.24594116" lon="8.70885658"><ele></ele><time>2014-4-20T18:30:11Z</time></trkpt>
<trkpt lat="46.24592590" lon="8.70906544"><ele></ele><time>2014-4-20T18:30:14Z</time></trkpt>
<trkpt lat="46.24591827" lon="8.70921516"><ele></ele><time>2014-4-20T18:30:17Z</time></trkpt>
<trkpt lat="46.24585724" lon="8.70957565"><ele></ele><time>2014-4-20T18:30:20Z</time></trkpt>
<trkpt lat="46.24582291" lon="8.70987034"><ele></ele><time>2014-4-20T18:30:23Z</time></trkpt>
<trkpt lat="46.24574661" lon="8.71018124"><ele></ele><time>2014-4-20T18:30:26Z</time></trkpt>
<trkpt lat="46.24572754" lon="8.71031094"><ele></ele><time>2014-4-20T18:30:29Z</time></trkpt>
<trkpt lat="46.24574280" lon="8.71059322"><ele></ele><time>2014-4-20T18:30:32Z</time></trkpt>
</trkseg></trk></gpx>